<?xml version="1.0" encoding="UTF-8" standalone="no" ?>
<gpx xmlns="http://www.topografix.com/GPX/1/1" xmlns:xsi="http://www.w3.org/2001/XMLSchema-instance" xsi:schemaLocation="http://www.topografix.com/GPX/1/1 http://www.topografix.com/GPX/1/1/gpx.xsd" version="1.1" creator="VisuGPX - https://www.visugpx.com">
  <metadata>
    <name>37 km muille-bois de coquerel-muille</name>
    <desc><![CDATA[20 km de plat avant d\'attaquer le bois et ces belles grimpettes puis retour roulant jusque muille]]></desc>
  </metadata>
  <wpt lat="49.72444" lon="3.06665">
    <ele>65.3</ele>
    <name><![CDATA[WPT_0000019]]></name>
    <desc><![CDATA[]]></desc>
    <type><![CDATA[Point de départ]]></type>
  </wpt>
  <wpt lat="49.72467" lon="3.06668">
    <ele>65.62</ele>
    <name><![CDATA[WPT_0000020]]></name>
    <desc><![CDATA[<br /><h3>Nom: Segment 1</h3><br /><p>Temps de départ: 12/08/2013 09:09</p><p>Temps d'arrivée: 12/08/2013 12:17</p><p>Distance: 36,9 km (03:08)</p><p>Temps déplacement: 02:33</p><p>Vitesse moyenne: 11,8 km/h</p><p>Vitesse moyenne: 14,4 km/h</p><p>Vitess Max.: 35,3 km/h</p><p>Altitude minimale: 60 m</p><p>Altitude maximale: 153 m</p><p>Vitesse d'élévation: 283,7 m/h</p><p>Vitesse de descente: -496,1 m/h</p><p>Gain Altitude: 286 m</p><p>Perte Altitude: -275 m</p><p>Temps d'élévation: 01:00</p><p>Temps de descente: 00:33</p>]]></desc>
    <type><![CDATA[Point d'arrivée]]></type>
  </wpt>
  <trk>
    <name><![CDATA[2013-12-08 09:09]]></name>
    <desc><![CDATA[<h1>OruxMaps</h1><br /><hr align="center" width="480" style="height: 2px; width: 517px"/><h2>Nom: 2013-12-08 09:09</h2><br /><p>Temps de départ: 12/08/2013 09:09</p><p>Temps d'arrivée: 12/08/2013 12:17</p><p>Distance: 36,9 km (03:08)</p><p>Temps déplacement: 02:33</p><p>Vitesse moyenne: 11,8 km/h</p><p>Vitesse moyenne: 14,4 km/h</p><p>Vitess Max.: 35,3 km/h</p><p>Altitude minimale: 60 m</p><p>Altitude maximale: 153 m</p><p>Vitesse d'élévation: 283,7 m/h</p><p>Vitesse de descente: -496,1 m/h</p><p>Gain Altitude: 286 m</p><p>Perte Altitude: -275 m</p><p>Temps d'élévation: 01:00</p><p>Temps de descente: 00:33</p><hr align="center" width="480" style="height: 2px; width: 517px"/>]]></desc>
    <trkseg>
      <trkpt lat="49.72444" lon="3.06665">
        <ele>65.3</ele>
        <time>2013-12-08T08:09:24Z</time>
      </trkpt>
      <trkpt lat="49.72473" lon="3.06678">
        <ele>65.8</ele>
        <time>2013-12-08T08:09:57Z</time>
      </trkpt>
      <trkpt lat="49.72506" lon="3.06683">
        <ele>66.07</ele>
        <time>2013-12-08T08:10:07Z</time>
      </trkpt>
      <trkpt lat="49.72535" lon="3.06687">
        <ele>65.5</ele>
        <time>2013-12-08T08:10:15Z</time>
      </trkpt>
      <trkpt lat="49.72553" lon="3.06687">
        <ele>65.12</ele>
        <time>2013-12-08T08:10:20Z</time>
      </trkpt>
      <trkpt lat="49.7259" lon="3.06692">
        <ele>64.77</ele>
        <time>2013-12-08T08:10:30Z</time>
      </trkpt>
      <trkpt lat="49.72623" lon="3.06697">
        <ele>65.68</ele>
        <time>2013-12-08T08:10:39Z</time>
      </trkpt>
      <trkpt lat="49.72642" lon="3.06701">
        <ele>66.22</ele>
        <time>2013-12-08T08:10:44Z</time>
      </trkpt>
      <trkpt lat="49.72673" lon="3.06704">
        <ele>66.89</ele>
        <time>2013-12-08T08:10:52Z</time>
      </trkpt>
      <trkpt lat="49.72691" lon="3.06706">
        <ele>66.95</ele>
        <time>2013-12-08T08:10:57Z</time>
      </trkpt>
      <trkpt lat="49.7271" lon="3.0671">
        <ele>67.02</ele>
        <time>2013-12-08T08:11:02Z</time>
      </trkpt>
      <trkpt lat="49.72746" lon="3.06716">
        <ele>67.01</ele>
        <time>2013-12-08T08:11:12Z</time>
      </trkpt>
      <trkpt lat="49.72779" lon="3.06719">
        <ele>67.68</ele>
        <time>2013-12-08T08:11:21Z</time>
      </trkpt>
      <trkpt lat="49.72797" lon="3.06721">
        <ele>68.14</ele>
        <time>2013-12-08T08:11:26Z</time>
      </trkpt>
      <trkpt lat="49.72818" lon="3.06723">
        <ele>68.63</ele>
        <time>2013-12-08T08:11:31Z</time>
      </trkpt>
      <trkpt lat="49.72848" lon="3.06726">
        <ele>68.88</ele>
        <time>2013-12-08T08:11:39Z</time>
      </trkpt>
      <trkpt lat="49.72867" lon="3.06728">
        <ele>68.7</ele>
        <time>2013-12-08T08:11:44Z</time>
      </trkpt>
      <trkpt lat="49.72902" lon="3.06733">
        <ele>68.35</ele>
        <time>2013-12-08T08:11:53Z</time>
      </trkpt>
      <trkpt lat="49.72938" lon="3.06737">
        <ele>68.41</ele>
        <time>2013-12-08T08:12:02Z</time>
      </trkpt>
      <trkpt lat="49.72958" lon="3.0674">
        <ele>68.61</ele>
        <time>2013-12-08T08:12:07Z</time>
      </trkpt>
      <trkpt lat="49.72989" lon="3.06743">
        <ele>68.95</ele>
        <time>2013-12-08T08:12:15Z</time>
      </trkpt>
      <trkpt lat="49.7301" lon="3.06746">
        <ele>69.29</ele>
        <time>2013-12-08T08:12:20Z</time>
      </trkpt>
      <trkpt lat="49.73031" lon="3.06749">
        <ele>69.75</ele>
        <time>2013-12-08T08:12:25Z</time>
      </trkpt>
      <trkpt lat="49.73052" lon="3.06752">
        <ele>70.22</ele>
        <time>2013-12-08T08:12:30Z</time>
      </trkpt>
      <trkpt lat="49.73072" lon="3.06755">
        <ele>70.68</ele>
        <time>2013-12-08T08:12:35Z</time>
      </trkpt>
      <trkpt lat="49.73111" lon="3.0676">
        <ele>70.85</ele>
        <time>2013-12-08T08:12:44Z</time>
      </trkpt>
      <trkpt lat="49.73148" lon="3.06765">
        <ele>70.68</ele>
        <time>2013-12-08T08:12:53Z</time>
      </trkpt>
      <trkpt lat="49.73189" lon="3.06775">
        <ele>70.4</ele>
        <time>2013-12-08T08:13:02Z</time>
      </trkpt>
      <trkpt lat="49.73211" lon="3.06777">
        <ele>70.35</ele>
        <time>2013-12-08T08:13:07Z</time>
      </trkpt>
      <trkpt lat="49.7323" lon="3.0678">
        <ele>70.29</ele>
        <time>2013-12-08T08:13:11Z</time>
      </trkpt>
      <trkpt lat="49.73249" lon="3.06782">
        <ele>70.23</ele>
        <time>2013-12-08T08:13:15Z</time>
      </trkpt>
      <trkpt lat="49.73274" lon="3.06785">
        <ele>69.92</ele>
        <time>2013-12-08T08:13:20Z</time>
      </trkpt>
      <trkpt lat="49.73299" lon="3.06788">
        <ele>69.55</ele>
        <time>2013-12-08T08:13:25Z</time>
      </trkpt>
      <trkpt lat="49.73322" lon="3.06791">
        <ele>69.16</ele>
        <time>2013-12-08T08:13:30Z</time>
      </trkpt>
      <trkpt lat="49.73342" lon="3.06793">
        <ele>68.82</ele>
        <time>2013-12-08T08:13:34Z</time>
      </trkpt>
      <trkpt lat="49.73367" lon="3.06797">
        <ele>68.39</ele>
        <time>2013-12-08T08:13:39Z</time>
      </trkpt>
      <trkpt lat="49.73393" lon="3.06801">
        <ele>68</ele>
        <time>2013-12-08T08:13:44Z</time>
      </trkpt>
      <trkpt lat="49.7342" lon="3.06803">
        <ele>67.7</ele>
        <time>2013-12-08T08:13:49Z</time>
      </trkpt>
      <trkpt lat="49.73447" lon="3.06805">
        <ele>67.44</ele>
        <time>2013-12-08T08:13:54Z</time>
      </trkpt>
      <trkpt lat="49.73474" lon="3.06806">
        <ele>67.21</ele>
        <time>2013-12-08T08:13:59Z</time>
      </trkpt>
      <trkpt lat="49.73495" lon="3.06807">
        <ele>67.04</ele>
        <time>2013-12-08T08:14:03Z</time>
      </trkpt>
      <trkpt lat="49.73522" lon="3.06811">
        <ele>67.07</ele>
        <time>2013-12-08T08:14:08Z</time>
      </trkpt>
      <trkpt lat="49.73551" lon="3.06814">
        <ele>67.14</ele>
        <time>2013-12-08T08:14:13Z</time>
      </trkpt>
      <trkpt lat="49.73577" lon="3.06819">
        <ele>67.16</ele>
        <time>2013-12-08T08:14:18Z</time>
      </trkpt>
      <trkpt lat="49.73603" lon="3.06824">
        <ele>67.11</ele>
        <time>2013-12-08T08:14:23Z</time>
      </trkpt>
      <trkpt lat="49.73623" lon="3.06827">
        <ele>67.08</ele>
        <time>2013-12-08T08:14:27Z</time>
      </trkpt>
      <trkpt lat="49.73645" lon="3.06829">
        <ele>67.05</ele>
        <time>2013-12-08T08:14:32Z</time>
      </trkpt>
      <trkpt lat="49.73666" lon="3.06831">
        <ele>67.03</ele>
        <time>2013-12-08T08:14:37Z</time>
      </trkpt>
      <trkpt lat="49.7369" lon="3.06833">
        <ele>67.55</ele>
        <time>2013-12-08T08:14:42Z</time>
      </trkpt>
      <trkpt lat="49.73713" lon="3.06836">
        <ele>68.03</ele>
        <time>2013-12-08T08:14:47Z</time>
      </trkpt>
      <trkpt lat="49.73732" lon="3.0684">
        <ele>68.36</ele>
        <time>2013-12-08T08:14:51Z</time>
      </trkpt>
      <trkpt lat="49.73755" lon="3.06842">
        <ele>68.6</ele>
        <time>2013-12-08T08:14:56Z</time>
      </trkpt>
      <trkpt lat="49.73775" lon="3.06844">
        <ele>68.12</ele>
        <time>2013-12-08T08:15:01Z</time>
      </trkpt>
      <trkpt lat="49.73797" lon="3.06847">
        <ele>67.67</ele>
        <time>2013-12-08T08:15:06Z</time>
      </trkpt>
      <trkpt lat="49.73819" lon="3.06851">
        <ele>67.23</ele>
        <time>2013-12-08T08:15:11Z</time>
      </trkpt>
      <trkpt lat="49.73839" lon="3.06856">
        <ele>66.78</ele>
        <time>2013-12-08T08:15:15Z</time>
      </trkpt>
      <trkpt lat="49.73861" lon="3.06858">
        <ele>65.95</ele>
        <time>2013-12-08T08:15:20Z</time>
      </trkpt>
      <trkpt lat="49.73885" lon="3.06861">
        <ele>65.13</ele>
        <time>2013-12-08T08:15:25Z</time>
      </trkpt>
      <trkpt lat="49.73908" lon="3.06865">
        <ele>64.43</ele>
        <time>2013-12-08T08:15:29Z</time>
      </trkpt>
      <trkpt lat="49.73951" lon="3.06872">
        <ele>64.04</ele>
        <time>2013-12-08T08:15:38Z</time>
      </trkpt>
      <trkpt lat="49.73978" lon="3.06877">
        <ele>63.76</ele>
        <time>2013-12-08T08:15:43Z</time>
      </trkpt>
      <trkpt lat="49.74003" lon="3.0688">
        <ele>63.44</ele>
        <time>2013-12-08T08:15:48Z</time>
      </trkpt>
      <trkpt lat="49.7403" lon="3.06883">
        <ele>63.41</ele>
        <time>2013-12-08T08:15:53Z</time>
      </trkpt>
      <trkpt lat="49.74049" lon="3.06886">
        <ele>63.36</ele>
        <time>2013-12-08T08:15:57Z</time>
      </trkpt>
      <trkpt lat="49.74075" lon="3.0689">
        <ele>63.32</ele>
        <time>2013-12-08T08:16:02Z</time>
      </trkpt>
      <trkpt lat="49.74103" lon="3.06889">
        <ele>63.02</ele>
        <time>2013-12-08T08:16:07Z</time>
      </trkpt>
      <trkpt lat="49.74125" lon="3.06892">
        <ele>62.65</ele>
        <time>2013-12-08T08:16:11Z</time>
      </trkpt>
      <trkpt lat="49.74145" lon="3.06895">
        <ele>62.32</ele>
        <time>2013-12-08T08:16:15Z</time>
      </trkpt>
      <trkpt lat="49.7417" lon="3.06899">
        <ele>61.97</ele>
        <time>2013-12-08T08:16:20Z</time>
      </trkpt>
      <trkpt lat="49.74196" lon="3.069">
        <ele>61.65</ele>
        <time>2013-12-08T08:16:25Z</time>
      </trkpt>
      <trkpt lat="49.74216" lon="3.06902">
        <ele>61.41</ele>
        <time>2013-12-08T08:16:29Z</time>
      </trkpt>
      <trkpt lat="49.74235" lon="3.06901">
        <ele>61.18</ele>
        <time>2013-12-08T08:16:33Z</time>
      </trkpt>
      <trkpt lat="49.74254" lon="3.06902">
        <ele>60.99</ele>
        <time>2013-12-08T08:16:38Z</time>
      </trkpt>
      <trkpt lat="49.74261" lon="3.06939">
        <ele>61.03</ele>
        <time>2013-12-08T08:16:47Z</time>
      </trkpt>
      <trkpt lat="49.74254" lon="3.07">
        <ele>61.05</ele>
        <time>2013-12-08T08:16:56Z</time>
      </trkpt>
      <trkpt lat="49.74255" lon="3.07039">
        <ele>61.03</ele>
        <time>2013-12-08T08:17:01Z</time>
      </trkpt>
      <trkpt lat="49.74254" lon="3.0707">
        <ele>61.01</ele>
        <time>2013-12-08T08:17:05Z</time>
      </trkpt>
      <trkpt lat="49.74249" lon="3.07098">
        <ele>60.97</ele>
        <time>2013-12-08T08:17:09Z</time>
      </trkpt>
      <trkpt lat="49.74246" lon="3.07136">
        <ele>60.87</ele>
        <time>2013-12-08T08:17:14Z</time>
      </trkpt>
      <trkpt lat="49.74244" lon="3.07165">
        <ele>60.78</ele>
        <time>2013-12-08T08:17:18Z</time>
      </trkpt>
      <trkpt lat="49.74242" lon="3.07202">
        <ele>61.47</ele>
        <time>2013-12-08T08:17:23Z</time>
      </trkpt>
      <trkpt lat="49.7424" lon="3.07233">
        <ele>62.06</ele>
        <time>2013-12-08T08:17:27Z</time>
      </trkpt>
      <trkpt lat="49.74238" lon="3.07274">
        <ele>62.83</ele>
        <time>2013-12-08T08:17:32Z</time>
      </trkpt>
      <trkpt lat="49.74235" lon="3.07315">
        <ele>63.68</ele>
        <time>2013-12-08T08:17:37Z</time>
      </trkpt>
      <trkpt lat="49.74233" lon="3.07348">
        <ele>63.96</ele>
        <time>2013-12-08T08:17:41Z</time>
      </trkpt>
      <trkpt lat="49.74231" lon="3.07378">
        <ele>63.85</ele>
        <time>2013-12-08T08:17:45Z</time>
      </trkpt>
      <trkpt lat="49.74229" lon="3.07416">
        <ele>63.76</ele>
        <time>2013-12-08T08:17:50Z</time>
      </trkpt>
      <trkpt lat="49.74233" lon="3.07446">
        <ele>63.41</ele>
        <time>2013-12-08T08:17:54Z</time>
      </trkpt>
      <trkpt lat="49.74244" lon="3.07478">
        <ele>63.28</ele>
        <time>2013-12-08T08:17:59Z</time>
      </trkpt>
      <trkpt lat="49.74257" lon="3.075">
        <ele>63.09</ele>
        <time>2013-12-08T08:18:03Z</time>
      </trkpt>
      <trkpt lat="49.74275" lon="3.07519">
        <ele>63.2</ele>
        <time>2013-12-08T08:18:08Z</time>
      </trkpt>
      <trkpt lat="49.74292" lon="3.07528">
        <ele>63.5</ele>
        <time>2013-12-08T08:18:12Z</time>
      </trkpt>
      <trkpt lat="49.74315" lon="3.07536">
        <ele>64.02</ele>
        <time>2013-12-08T08:18:17Z</time>
      </trkpt>
      <trkpt lat="49.74334" lon="3.07543">
        <ele>64.51</ele>
        <time>2013-12-08T08:18:21Z</time>
      </trkpt>
      <trkpt lat="49.74356" lon="3.07551">
        <ele>64.66</ele>
        <time>2013-12-08T08:18:26Z</time>
      </trkpt>
      <trkpt lat="49.74378" lon="3.07562">
        <ele>64.62</ele>
        <time>2013-12-08T08:18:31Z</time>
      </trkpt>
      <trkpt lat="49.74399" lon="3.07576">
        <ele>64.33</ele>
        <time>2013-12-08T08:18:36Z</time>
      </trkpt>
      <trkpt lat="49.74414" lon="3.07595">
        <ele>64.17</ele>
        <time>2013-12-08T08:18:41Z</time>
      </trkpt>
      <trkpt lat="49.74446" lon="3.07582">
        <ele>64.38</ele>
        <time>2013-12-08T08:18:55Z</time>
      </trkpt>
      <trkpt lat="49.74472" lon="3.0761">
        <ele>64.77</ele>
        <time>2013-12-08T08:19:03Z</time>
      </trkpt>
      <trkpt lat="49.74485" lon="3.0763">
        <ele>64.92</ele>
        <time>2013-12-08T08:19:08Z</time>
      </trkpt>
      <trkpt lat="49.74511" lon="3.07673">
        <ele>65.11</ele>
        <time>2013-12-08T08:19:17Z</time>
      </trkpt>
      <trkpt lat="49.74526" lon="3.0769">
        <ele>65.13</ele>
        <time>2013-12-08T08:19:21Z</time>
      </trkpt>
      <trkpt lat="49.7454" lon="3.07712">
        <ele>64.96</ele>
        <time>2013-12-08T08:19:26Z</time>
      </trkpt>
      <trkpt lat="49.74554" lon="3.07734">
        <ele>64.61</ele>
        <time>2013-12-08T08:19:31Z</time>
      </trkpt>
      <trkpt lat="49.74562" lon="3.07766">
        <ele>64.35</ele>
        <time>2013-12-08T08:19:36Z</time>
      </trkpt>
      <trkpt lat="49.74572" lon="3.07795">
        <ele>64.28</ele>
        <time>2013-12-08T08:19:41Z</time>
      </trkpt>
      <trkpt lat="49.74585" lon="3.0782">
        <ele>63.95</ele>
        <time>2013-12-08T08:19:45Z</time>
      </trkpt>
      <trkpt lat="49.74595" lon="3.07854">
        <ele>63.53</ele>
        <time>2013-12-08T08:19:50Z</time>
      </trkpt>
      <trkpt lat="49.74603" lon="3.07886">
        <ele>63.15</ele>
        <time>2013-12-08T08:19:55Z</time>
      </trkpt>
      <trkpt lat="49.74619" lon="3.07933">
        <ele>62.39</ele>
        <time>2013-12-08T08:20:03Z</time>
      </trkpt>
      <trkpt lat="49.7463" lon="3.07966">
        <ele>62.07</ele>
        <time>2013-12-08T08:20:08Z</time>
      </trkpt>
      <trkpt lat="49.74643" lon="3.07998">
        <ele>61.85</ele>
        <time>2013-12-08T08:20:13Z</time>
      </trkpt>
      <trkpt lat="49.74653" lon="3.08028">
        <ele>61.21</ele>
        <time>2013-12-08T08:20:18Z</time>
      </trkpt>
      <trkpt lat="49.74663" lon="3.08059">
        <ele>60.48</ele>
        <time>2013-12-08T08:20:23Z</time>
      </trkpt>
      <trkpt lat="49.7467" lon="3.08085">
        <ele>60.12</ele>
        <time>2013-12-08T08:20:27Z</time>
      </trkpt>
      <trkpt lat="49.7468" lon="3.08119">
        <ele>61.3</ele>
        <time>2013-12-08T08:20:32Z</time>
      </trkpt>
      <trkpt lat="49.7469" lon="3.08152">
        <ele>62.66</ele>
        <time>2013-12-08T08:20:37Z</time>
      </trkpt>
      <trkpt lat="49.747" lon="3.08186">
        <ele>63.96</ele>
        <time>2013-12-08T08:20:42Z</time>
      </trkpt>
      <trkpt lat="49.7471" lon="3.08221">
        <ele>65.03</ele>
        <time>2013-12-08T08:20:47Z</time>
      </trkpt>
      <trkpt lat="49.7472" lon="3.08248">
        <ele>65.88</ele>
        <time>2013-12-08T08:20:51Z</time>
      </trkpt>
      <trkpt lat="49.7473" lon="3.0828">
        <ele>66.26</ele>
        <time>2013-12-08T08:20:56Z</time>
      </trkpt>
      <trkpt lat="49.74743" lon="3.08312">
        <ele>66.73</ele>
        <time>2013-12-08T08:21:01Z</time>
      </trkpt>
      <trkpt lat="49.74752" lon="3.08346">
        <ele>66.77</ele>
        <time>2013-12-08T08:21:06Z</time>
      </trkpt>
      <trkpt lat="49.7476" lon="3.0838">
        <ele>65.96</ele>
        <time>2013-12-08T08:21:11Z</time>
      </trkpt>
      <trkpt lat="49.74767" lon="3.08412">
        <ele>65.04</ele>
        <time>2013-12-08T08:21:15Z</time>
      </trkpt>
      <trkpt lat="49.74776" lon="3.08451">
        <ele>64.3</ele>
        <time>2013-12-08T08:21:20Z</time>
      </trkpt>
      <trkpt lat="49.74781" lon="3.08483">
        <ele>63.96</ele>
        <time>2013-12-08T08:21:24Z</time>
      </trkpt>
      <trkpt lat="49.74788" lon="3.0852">
        <ele>63.64</ele>
        <time>2013-12-08T08:21:29Z</time>
      </trkpt>
      <trkpt lat="49.74794" lon="3.08552">
        <ele>63.4</ele>
        <time>2013-12-08T08:21:33Z</time>
      </trkpt>
      <trkpt lat="49.74803" lon="3.08591">
        <ele>63.2</ele>
        <time>2013-12-08T08:21:38Z</time>
      </trkpt>
      <trkpt lat="49.74809" lon="3.08632">
        <ele>63.45</ele>
        <time>2013-12-08T08:21:43Z</time>
      </trkpt>
      <trkpt lat="49.74815" lon="3.08664">
        <ele>63.63</ele>
        <time>2013-12-08T08:21:47Z</time>
      </trkpt>
      <trkpt lat="49.74821" lon="3.08691">
        <ele>63.42</ele>
        <time>2013-12-08T08:21:51Z</time>
      </trkpt>
      <trkpt lat="49.7483" lon="3.08724">
        <ele>63.11</ele>
        <time>2013-12-08T08:21:56Z</time>
      </trkpt>
      <trkpt lat="49.74836" lon="3.08756">
        <ele>62.83</ele>
        <time>2013-12-08T08:22:01Z</time>
      </trkpt>
      <trkpt lat="49.7484" lon="3.08784">
        <ele>62.33</ele>
        <time>2013-12-08T08:22:05Z</time>
      </trkpt>
      <trkpt lat="49.74849" lon="3.08834">
        <ele>61.27</ele>
        <time>2013-12-08T08:22:14Z</time>
      </trkpt>
      <trkpt lat="49.74855" lon="3.08863">
        <ele>61.6</ele>
        <time>2013-12-08T08:22:18Z</time>
      </trkpt>
      <trkpt lat="49.74862" lon="3.08897">
        <ele>61.9</ele>
        <time>2013-12-08T08:22:23Z</time>
      </trkpt>
      <trkpt lat="49.74866" lon="3.08925">
        <ele>62.17</ele>
        <time>2013-12-08T08:22:27Z</time>
      </trkpt>
      <trkpt lat="49.7487" lon="3.08955">
        <ele>62.27</ele>
        <time>2013-12-08T08:22:32Z</time>
      </trkpt>
      <trkpt lat="49.74873" lon="3.08985">
        <ele>62.42</ele>
        <time>2013-12-08T08:22:37Z</time>
      </trkpt>
      <trkpt lat="49.7488" lon="3.09012">
        <ele>62.31</ele>
        <time>2013-12-08T08:22:42Z</time>
      </trkpt>
      <trkpt lat="49.74887" lon="3.09043">
        <ele>62.1</ele>
        <time>2013-12-08T08:22:47Z</time>
      </trkpt>
      <trkpt lat="49.74897" lon="3.09097">
        <ele>62.37</ele>
        <time>2013-12-08T08:22:56Z</time>
      </trkpt>
      <trkpt lat="49.74901" lon="3.09127">
        <ele>63.12</ele>
        <time>2013-12-08T08:23:01Z</time>
      </trkpt>
      <trkpt lat="49.74909" lon="3.09176">
        <ele>64.26</ele>
        <time>2013-12-08T08:23:09Z</time>
      </trkpt>
      <trkpt lat="49.74913" lon="3.09205">
        <ele>64.49</ele>
        <time>2013-12-08T08:23:14Z</time>
      </trkpt>
      <trkpt lat="49.74921" lon="3.09238">
        <ele>64.66</ele>
        <time>2013-12-08T08:23:19Z</time>
      </trkpt>
      <trkpt lat="49.74926" lon="3.0927">
        <ele>64.51</ele>
        <time>2013-12-08T08:23:24Z</time>
      </trkpt>
      <trkpt lat="49.74933" lon="3.09296">
        <ele>64.1</ele>
        <time>2013-12-08T08:23:28Z</time>
      </trkpt>
      <trkpt lat="49.74938" lon="3.09323">
        <ele>63.76</ele>
        <time>2013-12-08T08:23:33Z</time>
      </trkpt>
      <trkpt lat="49.74944" lon="3.09354">
        <ele>63.26</ele>
        <time>2013-12-08T08:23:38Z</time>
      </trkpt>
      <trkpt lat="49.74949" lon="3.09391">
        <ele>62.92</ele>
        <time>2013-12-08T08:23:43Z</time>
      </trkpt>
      <trkpt lat="49.74946" lon="3.09431">
        <ele>62.9</ele>
        <time>2013-12-08T08:23:48Z</time>
      </trkpt>
      <trkpt lat="49.74944" lon="3.09459">
        <ele>62.85</ele>
        <time>2013-12-08T08:23:52Z</time>
      </trkpt>
      <trkpt lat="49.74938" lon="3.09505">
        <ele>62.85</ele>
        <time>2013-12-08T08:24:02Z</time>
      </trkpt>
      <trkpt lat="49.74917" lon="3.09549">
        <ele>64.17</ele>
        <time>2013-12-08T08:24:12Z</time>
      </trkpt>
      <trkpt lat="49.749" lon="3.09597">
        <ele>64.93</ele>
        <time>2013-12-08T08:24:21Z</time>
      </trkpt>
      <trkpt lat="49.74887" lon="3.09621">
        <ele>64.67</ele>
        <time>2013-12-08T08:24:26Z</time>
      </trkpt>
      <trkpt lat="49.74872" lon="3.09644">
        <ele>64.22</ele>
        <time>2013-12-08T08:24:31Z</time>
      </trkpt>
      <trkpt lat="49.7484" lon="3.09684">
        <ele>62.72</ele>
        <time>2013-12-08T08:24:41Z</time>
      </trkpt>
      <trkpt lat="49.74832" lon="3.09721">
        <ele>61.73</ele>
        <time>2013-12-08T08:24:50Z</time>
      </trkpt>
      <trkpt lat="49.74859" lon="3.09757">
        <ele>61.31</ele>
        <time>2013-12-08T08:24:59Z</time>
      </trkpt>
      <trkpt lat="49.74874" lon="3.09774">
        <ele>61.49</ele>
        <time>2013-12-08T08:25:04Z</time>
      </trkpt>
      <trkpt lat="49.74907" lon="3.098">
        <ele>61.88</ele>
        <time>2013-12-08T08:25:14Z</time>
      </trkpt>
      <trkpt lat="49.74931" lon="3.09806">
        <ele>62</ele>
        <time>2013-12-08T08:25:19Z</time>
      </trkpt>
      <trkpt lat="49.74952" lon="3.09808">
        <ele>62</ele>
        <time>2013-12-08T08:25:23Z</time>
      </trkpt>
      <trkpt lat="49.74971" lon="3.09816">
        <ele>62</ele>
        <time>2013-12-08T08:25:27Z</time>
      </trkpt>
      <trkpt lat="49.74995" lon="3.09828">
        <ele>62</ele>
        <time>2013-12-08T08:25:32Z</time>
      </trkpt>
      <trkpt lat="49.75013" lon="3.09843">
        <ele>62.02</ele>
        <time>2013-12-08T08:25:37Z</time>
      </trkpt>
      <trkpt lat="49.75043" lon="3.0988">
        <ele>62.28</ele>
        <time>2013-12-08T08:25:47Z</time>
      </trkpt>
      <trkpt lat="49.75054" lon="3.09902">
        <ele>62.53</ele>
        <time>2013-12-08T08:25:51Z</time>
      </trkpt>
      <trkpt lat="49.75081" lon="3.09936">
        <ele>62.97</ele>
        <time>2013-12-08T08:26:01Z</time>
      </trkpt>
      <trkpt lat="49.75098" lon="3.0995">
        <ele>63.24</ele>
        <time>2013-12-08T08:26:06Z</time>
      </trkpt>
      <trkpt lat="49.75115" lon="3.09962">
        <ele>63.59</ele>
        <time>2013-12-08T08:26:11Z</time>
      </trkpt>
      <trkpt lat="49.75142" lon="3.0998">
        <ele>64.23</ele>
        <time>2013-12-08T08:26:20Z</time>
      </trkpt>
      <trkpt lat="49.75147" lon="3.10017">
        <ele>64.8</ele>
        <time>2013-12-08T08:26:30Z</time>
      </trkpt>
      <trkpt lat="49.7514" lon="3.10062">
        <ele>65.11</ele>
        <time>2013-12-08T08:26:39Z</time>
      </trkpt>
      <trkpt lat="49.75138" lon="3.10092">
        <ele>65.18</ele>
        <time>2013-12-08T08:26:44Z</time>
      </trkpt>
      <trkpt lat="49.75144" lon="3.10127">
        <ele>65.09</ele>
        <time>2013-12-08T08:26:49Z</time>
      </trkpt>
      <trkpt lat="49.75154" lon="3.10162">
        <ele>65.29</ele>
        <time>2013-12-08T08:26:54Z</time>
      </trkpt>
      <trkpt lat="49.75162" lon="3.10199">
        <ele>64.99</ele>
        <time>2013-12-08T08:26:59Z</time>
      </trkpt>
      <trkpt lat="49.75164" lon="3.1023">
        <ele>64.41</ele>
        <time>2013-12-08T08:27:03Z</time>
      </trkpt>
      <trkpt lat="49.75163" lon="3.1027">
        <ele>64.15</ele>
        <time>2013-12-08T08:27:08Z</time>
      </trkpt>
      <trkpt lat="49.75156" lon="3.10309">
        <ele>64.55</ele>
        <time>2013-12-08T08:27:13Z</time>
      </trkpt>
      <trkpt lat="49.75144" lon="3.10346">
        <ele>65</ele>
        <time>2013-12-08T08:27:18Z</time>
      </trkpt>
      <trkpt lat="49.75131" lon="3.10379">
        <ele>65.82</ele>
        <time>2013-12-08T08:27:23Z</time>
      </trkpt>
      <trkpt lat="49.75121" lon="3.10405">
        <ele>66.72</ele>
        <time>2013-12-08T08:27:27Z</time>
      </trkpt>
      <trkpt lat="49.75109" lon="3.10435">
        <ele>68.03</ele>
        <time>2013-12-08T08:27:32Z</time>
      </trkpt>
      <trkpt lat="49.75099" lon="3.10466">
        <ele>69.42</ele>
        <time>2013-12-08T08:27:37Z</time>
      </trkpt>
      <trkpt lat="49.75086" lon="3.10516">
        <ele>71.14</ele>
        <time>2013-12-08T08:27:45Z</time>
      </trkpt>
      <trkpt lat="49.7508" lon="3.10548">
        <ele>71.49</ele>
        <time>2013-12-08T08:27:50Z</time>
      </trkpt>
      <trkpt lat="49.75073" lon="3.10609">
        <ele>72.06</ele>
        <time>2013-12-08T08:27:59Z</time>
      </trkpt>
      <trkpt lat="49.75072" lon="3.10637">
        <ele>72.36</ele>
        <time>2013-12-08T08:28:03Z</time>
      </trkpt>
      <trkpt lat="49.75072" lon="3.1067">
        <ele>72.75</ele>
        <time>2013-12-08T08:28:08Z</time>
      </trkpt>
      <trkpt lat="49.75073" lon="3.10701">
        <ele>73.07</ele>
        <time>2013-12-08T08:28:13Z</time>
      </trkpt>
      <trkpt lat="49.75104" lon="3.10717">
        <ele>73.85</ele>
        <time>2013-12-08T08:28:21Z</time>
      </trkpt>
      <trkpt lat="49.75125" lon="3.10722">
        <ele>74.17</ele>
        <time>2013-12-08T08:28:26Z</time>
      </trkpt>
      <trkpt lat="49.75149" lon="3.10727">
        <ele>74.5</ele>
        <time>2013-12-08T08:28:31Z</time>
      </trkpt>
      <trkpt lat="49.75173" lon="3.10731">
        <ele>74.65</ele>
        <time>2013-12-08T08:28:36Z</time>
      </trkpt>
      <trkpt lat="49.75195" lon="3.10736">
        <ele>74.31</ele>
        <time>2013-12-08T08:28:41Z</time>
      </trkpt>
      <trkpt lat="49.75236" lon="3.10744">
        <ele>73.91</ele>
        <time>2013-12-08T08:28:50Z</time>
      </trkpt>
      <trkpt lat="49.75262" lon="3.10749">
        <ele>73.52</ele>
        <time>2013-12-08T08:28:55Z</time>
      </trkpt>
      <trkpt lat="49.75288" lon="3.10753">
        <ele>72.78</ele>
        <time>2013-12-08T08:29:00Z</time>
      </trkpt>
      <trkpt lat="49.75311" lon="3.10763">
        <ele>72.46</ele>
        <time>2013-12-08T08:29:05Z</time>
      </trkpt>
      <trkpt lat="49.75329" lon="3.10773">
        <ele>72.46</ele>
        <time>2013-12-08T08:29:09Z</time>
      </trkpt>
      <trkpt lat="49.75352" lon="3.10786">
        <ele>72.6</ele>
        <time>2013-12-08T08:29:14Z</time>
      </trkpt>
      <trkpt lat="49.75376" lon="3.108">
        <ele>72.69</ele>
        <time>2013-12-08T08:29:19Z</time>
      </trkpt>
      <trkpt lat="49.75402" lon="3.10814">
        <ele>72.55</ele>
        <time>2013-12-08T08:29:24Z</time>
      </trkpt>
      <trkpt lat="49.75419" lon="3.10828">
        <ele>72.68</ele>
        <time>2013-12-08T08:29:28Z</time>
      </trkpt>
      <trkpt lat="49.75438" lon="3.10852">
        <ele>73.01</ele>
        <time>2013-12-08T08:29:33Z</time>
      </trkpt>
      <trkpt lat="49.75457" lon="3.10876">
        <ele>73.09</ele>
        <time>2013-12-08T08:29:38Z</time>
      </trkpt>
      <trkpt lat="49.75475" lon="3.109">
        <ele>72.97</ele>
        <time>2013-12-08T08:29:43Z</time>
      </trkpt>
      <trkpt lat="49.75489" lon="3.1092">
        <ele>72.76</ele>
        <time>2013-12-08T08:29:47Z</time>
      </trkpt>
      <trkpt lat="49.75505" lon="3.10939">
        <ele>72.67</ele>
        <time>2013-12-08T08:29:51Z</time>
      </trkpt>
      <trkpt lat="49.75522" lon="3.10965">
        <ele>72.88</ele>
        <time>2013-12-08T08:29:56Z</time>
      </trkpt>
      <trkpt lat="49.75536" lon="3.10988">
        <ele>72.95</ele>
        <time>2013-12-08T08:30:00Z</time>
      </trkpt>
      <trkpt lat="49.75551" lon="3.11018">
        <ele>73.12</ele>
        <time>2013-12-08T08:30:05Z</time>
      </trkpt>
      <trkpt lat="49.75561" lon="3.11043">
        <ele>73.48</ele>
        <time>2013-12-08T08:30:09Z</time>
      </trkpt>
      <trkpt lat="49.75574" lon="3.11074">
        <ele>74.02</ele>
        <time>2013-12-08T08:30:14Z</time>
      </trkpt>
      <trkpt lat="49.75582" lon="3.11099">
        <ele>74.22</ele>
        <time>2013-12-08T08:30:18Z</time>
      </trkpt>
      <trkpt lat="49.756" lon="3.11133">
        <ele>74.09</ele>
        <time>2013-12-08T08:30:23Z</time>
      </trkpt>
      <trkpt lat="49.75622" lon="3.11162">
        <ele>73.59</ele>
        <time>2013-12-08T08:30:27Z</time>
      </trkpt>
      <trkpt lat="49.75647" lon="3.11196">
        <ele>72.81</ele>
        <time>2013-12-08T08:30:32Z</time>
      </trkpt>
      <trkpt lat="49.75665" lon="3.11222">
        <ele>72.08</ele>
        <time>2013-12-08T08:30:36Z</time>
      </trkpt>
      <trkpt lat="49.75687" lon="3.11252">
        <ele>72.52</ele>
        <time>2013-12-08T08:30:41Z</time>
      </trkpt>
      <trkpt lat="49.75704" lon="3.11275">
        <ele>73.09</ele>
        <time>2013-12-08T08:30:45Z</time>
      </trkpt>
      <trkpt lat="49.75725" lon="3.11302">
        <ele>73.34</ele>
        <time>2013-12-08T08:30:50Z</time>
      </trkpt>
      <trkpt lat="49.75746" lon="3.11328">
        <ele>73.11</ele>
        <time>2013-12-08T08:30:55Z</time>
      </trkpt>
      <trkpt lat="49.75762" lon="3.11349">
        <ele>73.55</ele>
        <time>2013-12-08T08:30:59Z</time>
      </trkpt>
      <trkpt lat="49.75781" lon="3.11375">
        <ele>74.3</ele>
        <time>2013-12-08T08:31:04Z</time>
      </trkpt>
      <trkpt lat="49.75796" lon="3.11394">
        <ele>74.8</ele>
        <time>2013-12-08T08:31:08Z</time>
      </trkpt>
      <trkpt lat="49.75815" lon="3.11419">
        <ele>75.3</ele>
        <time>2013-12-08T08:31:13Z</time>
      </trkpt>
      <trkpt lat="49.75837" lon="3.11446">
        <ele>75.01</ele>
        <time>2013-12-08T08:31:18Z</time>
      </trkpt>
      <trkpt lat="49.75858" lon="3.11474">
        <ele>74.53</ele>
        <time>2013-12-08T08:31:23Z</time>
      </trkpt>
      <trkpt lat="49.75875" lon="3.11496">
        <ele>74.15</ele>
        <time>2013-12-08T08:31:27Z</time>
      </trkpt>
      <trkpt lat="49.75896" lon="3.11523">
        <ele>74.23</ele>
        <time>2013-12-08T08:31:32Z</time>
      </trkpt>
      <trkpt lat="49.75916" lon="3.11547">
        <ele>73.87</ele>
        <time>2013-12-08T08:31:37Z</time>
      </trkpt>
      <trkpt lat="49.75936" lon="3.11571">
        <ele>73.75</ele>
        <time>2013-12-08T08:31:42Z</time>
      </trkpt>
      <trkpt lat="49.75948" lon="3.11613">
        <ele>74.34</ele>
        <time>2013-12-08T08:31:51Z</time>
      </trkpt>
      <trkpt lat="49.75928" lon="3.11638">
        <ele>74.49</ele>
        <time>2013-12-08T08:31:56Z</time>
      </trkpt>
      <trkpt lat="49.75907" lon="3.11662">
        <ele>75.12</ele>
        <time>2013-12-08T08:32:01Z</time>
      </trkpt>
      <trkpt lat="49.75888" lon="3.11685">
        <ele>76.25</ele>
        <time>2013-12-08T08:32:06Z</time>
      </trkpt>
      <trkpt lat="49.7587" lon="3.11705">
        <ele>77.23</ele>
        <time>2013-12-08T08:32:11Z</time>
      </trkpt>
      <trkpt lat="49.75837" lon="3.11742">
        <ele>78.75</ele>
        <time>2013-12-08T08:32:20Z</time>
      </trkpt>
      <trkpt lat="49.75819" lon="3.11764">
        <ele>79.31</ele>
        <time>2013-12-08T08:32:25Z</time>
      </trkpt>
      <trkpt lat="49.75802" lon="3.11789">
        <ele>79.67</ele>
        <time>2013-12-08T08:32:30Z</time>
      </trkpt>
      <trkpt lat="49.75784" lon="3.11814">
        <ele>79.9</ele>
        <time>2013-12-08T08:32:35Z</time>
      </trkpt>
      <trkpt lat="49.75771" lon="3.11836">
        <ele>80.03</ele>
        <time>2013-12-08T08:32:39Z</time>
      </trkpt>
      <trkpt lat="49.75753" lon="3.11863">
        <ele>80.36</ele>
        <time>2013-12-08T08:32:44Z</time>
      </trkpt>
      <trkpt lat="49.75734" lon="3.1189">
        <ele>80.43</ele>
        <time>2013-12-08T08:32:49Z</time>
      </trkpt>
      <trkpt lat="49.7572" lon="3.11911">
        <ele>80.54</ele>
        <time>2013-12-08T08:32:53Z</time>
      </trkpt>
      <trkpt lat="49.75706" lon="3.11932">
        <ele>80.47</ele>
        <time>2013-12-08T08:32:57Z</time>
      </trkpt>
      <trkpt lat="49.7569" lon="3.1196">
        <ele>80.27</ele>
        <time>2013-12-08T08:33:02Z</time>
      </trkpt>
      <trkpt lat="49.75673" lon="3.11987">
        <ele>80.08</ele>
        <time>2013-12-08T08:33:07Z</time>
      </trkpt>
      <trkpt lat="49.7566" lon="3.1201">
        <ele>79.81</ele>
        <time>2013-12-08T08:33:11Z</time>
      </trkpt>
      <trkpt lat="49.75645" lon="3.12031">
        <ele>79.46</ele>
        <time>2013-12-08T08:33:15Z</time>
      </trkpt>
      <trkpt lat="49.75627" lon="3.12058">
        <ele>79.16</ele>
        <time>2013-12-08T08:33:20Z</time>
      </trkpt>
      <trkpt lat="49.75612" lon="3.1208">
        <ele>79.02</ele>
        <time>2013-12-08T08:33:24Z</time>
      </trkpt>
      <trkpt lat="49.75592" lon="3.12107">
        <ele>78.97</ele>
        <time>2013-12-08T08:33:29Z</time>
      </trkpt>
      <trkpt lat="49.75576" lon="3.12128">
        <ele>78.96</ele>
        <time>2013-12-08T08:33:33Z</time>
      </trkpt>
      <trkpt lat="49.75556" lon="3.12153">
        <ele>78.94</ele>
        <time>2013-12-08T08:33:38Z</time>
      </trkpt>
      <trkpt lat="49.75535" lon="3.12177">
        <ele>79</ele>
        <time>2013-12-08T08:33:43Z</time>
      </trkpt>
      <trkpt lat="49.75514" lon="3.12201">
        <ele>79</ele>
        <time>2013-12-08T08:33:48Z</time>
      </trkpt>
      <trkpt lat="49.75498" lon="3.12219">
        <ele>79.02</ele>
        <time>2013-12-08T08:33:52Z</time>
      </trkpt>
      <trkpt lat="49.75478" lon="3.12242">
        <ele>79.24</ele>
        <time>2013-12-08T08:33:57Z</time>
      </trkpt>
      <trkpt lat="49.75458" lon="3.12264">
        <ele>79.35</ele>
        <time>2013-12-08T08:34:02Z</time>
      </trkpt>
      <trkpt lat="49.75436" lon="3.12286">
        <ele>79.34</ele>
        <time>2013-12-08T08:34:07Z</time>
      </trkpt>
      <trkpt lat="49.75419" lon="3.12302">
        <ele>79.36</ele>
        <time>2013-12-08T08:34:11Z</time>
      </trkpt>
      <trkpt lat="49.75402" lon="3.12319">
        <ele>79</ele>
        <time>2013-12-08T08:34:15Z</time>
      </trkpt>
      <trkpt lat="49.75382" lon="3.1234">
        <ele>78.48</ele>
        <time>2013-12-08T08:34:20Z</time>
      </trkpt>
      <trkpt lat="49.75364" lon="3.12355">
        <ele>78.17</ele>
        <time>2013-12-08T08:34:24Z</time>
      </trkpt>
      <trkpt lat="49.75343" lon="3.12375">
        <ele>78</ele>
        <time>2013-12-08T08:34:29Z</time>
      </trkpt>
      <trkpt lat="49.75326" lon="3.12394">
        <ele>77.98</ele>
        <time>2013-12-08T08:34:33Z</time>
      </trkpt>
      <trkpt lat="49.75306" lon="3.12417">
        <ele>78</ele>
        <time>2013-12-08T08:34:38Z</time>
      </trkpt>
      <trkpt lat="49.75288" lon="3.12444">
        <ele>77.85</ele>
        <time>2013-12-08T08:34:43Z</time>
      </trkpt>
      <trkpt lat="49.75274" lon="3.12469">
        <ele>77.82</ele>
        <time>2013-12-08T08:34:47Z</time>
      </trkpt>
      <trkpt lat="49.7526" lon="3.12493">
        <ele>77.9</ele>
        <time>2013-12-08T08:34:51Z</time>
      </trkpt>
      <trkpt lat="49.75242" lon="3.12524">
        <ele>77.65</ele>
        <time>2013-12-08T08:34:56Z</time>
      </trkpt>
      <trkpt lat="49.75228" lon="3.12547">
        <ele>77.32</ele>
        <time>2013-12-08T08:35:00Z</time>
      </trkpt>
      <trkpt lat="49.75211" lon="3.12578">
        <ele>77.04</ele>
        <time>2013-12-08T08:35:05Z</time>
      </trkpt>
      <trkpt lat="49.75198" lon="3.12603">
        <ele>77.23</ele>
        <time>2013-12-08T08:35:09Z</time>
      </trkpt>
      <trkpt lat="49.75181" lon="3.12633">
        <ele>77.59</ele>
        <time>2013-12-08T08:35:14Z</time>
      </trkpt>
      <trkpt lat="49.75164" lon="3.12664">
        <ele>77.9</ele>
        <time>2013-12-08T08:35:19Z</time>
      </trkpt>
      <trkpt lat="49.75146" lon="3.12693">
        <ele>77.19</ele>
        <time>2013-12-08T08:35:24Z</time>
      </trkpt>
      <trkpt lat="49.75122" lon="3.12707">
        <ele>76.43</ele>
        <time>2013-12-08T08:35:29Z</time>
      </trkpt>
      <trkpt lat="49.75103" lon="3.12717">
        <ele>75.88</ele>
        <time>2013-12-08T08:35:33Z</time>
      </trkpt>
      <trkpt lat="49.75085" lon="3.12741">
        <ele>75.16</ele>
        <time>2013-12-08T08:35:38Z</time>
      </trkpt>
      <trkpt lat="49.75066" lon="3.12769">
        <ele>74.67</ele>
        <time>2013-12-08T08:35:43Z</time>
      </trkpt>
      <trkpt lat="49.75052" lon="3.12792">
        <ele>74.2</ele>
        <time>2013-12-08T08:35:47Z</time>
      </trkpt>
      <trkpt lat="49.75052" lon="3.12822">
        <ele>74.11</ele>
        <time>2013-12-08T08:35:51Z</time>
      </trkpt>
      <trkpt lat="49.75068" lon="3.12856">
        <ele>74.89</ele>
        <time>2013-12-08T08:35:56Z</time>
      </trkpt>
      <trkpt lat="49.75087" lon="3.12886">
        <ele>75.34</ele>
        <time>2013-12-08T08:36:01Z</time>
      </trkpt>
      <trkpt lat="49.75105" lon="3.12917">
        <ele>74.74</ele>
        <time>2013-12-08T08:36:06Z</time>
      </trkpt>
      <trkpt lat="49.75112" lon="3.12956">
        <ele>75.46</ele>
        <time>2013-12-08T08:36:11Z</time>
      </trkpt>
      <trkpt lat="49.75107" lon="3.12989">
        <ele>76.07</ele>
        <time>2013-12-08T08:36:15Z</time>
      </trkpt>
      <trkpt lat="49.75099" lon="3.13025">
        <ele>76.48</ele>
        <time>2013-12-08T08:36:20Z</time>
      </trkpt>
      <trkpt lat="49.75091" lon="3.13061">
        <ele>76.82</ele>
        <time>2013-12-08T08:36:25Z</time>
      </trkpt>
      <trkpt lat="49.75083" lon="3.13097">
        <ele>77</ele>
        <time>2013-12-08T08:36:30Z</time>
      </trkpt>
      <trkpt lat="49.75076" lon="3.13133">
        <ele>76.85</ele>
        <time>2013-12-08T08:36:35Z</time>
      </trkpt>
      <trkpt lat="49.75063" lon="3.13178">
        <ele>76.66</ele>
        <time>2013-12-08T08:36:45Z</time>
      </trkpt>
      <trkpt lat="49.75053" lon="3.13203">
        <ele>76.71</ele>
        <time>2013-12-08T08:36:50Z</time>
      </trkpt>
      <trkpt lat="49.75042" lon="3.1323">
        <ele>76.76</ele>
        <time>2013-12-08T08:36:55Z</time>
      </trkpt>
      <trkpt lat="49.75028" lon="3.13258">
        <ele>76.62</ele>
        <time>2013-12-08T08:37:00Z</time>
      </trkpt>
      <trkpt lat="49.75014" lon="3.13287">
        <ele>75.97</ele>
        <time>2013-12-08T08:37:05Z</time>
      </trkpt>
      <trkpt lat="49.75003" lon="3.13312">
        <ele>75.36</ele>
        <time>2013-12-08T08:37:09Z</time>
      </trkpt>
      <trkpt lat="49.74989" lon="3.13343">
        <ele>74.29</ele>
        <time>2013-12-08T08:37:14Z</time>
      </trkpt>
      <trkpt lat="49.74979" lon="3.13369">
        <ele>73.56</ele>
        <time>2013-12-08T08:37:18Z</time>
      </trkpt>
      <trkpt lat="49.74968" lon="3.134">
        <ele>73.09</ele>
        <time>2013-12-08T08:37:23Z</time>
      </trkpt>
      <trkpt lat="49.74945" lon="3.13449">
        <ele>73.52</ele>
        <time>2013-12-08T08:37:32Z</time>
      </trkpt>
      <trkpt lat="49.74932" lon="3.13476">
        <ele>74.16</ele>
        <time>2013-12-08T08:37:37Z</time>
      </trkpt>
      <trkpt lat="49.74913" lon="3.13513">
        <ele>75.45</ele>
        <time>2013-12-08T08:37:45Z</time>
      </trkpt>
      <trkpt lat="49.74894" lon="3.13552">
        <ele>76.73</ele>
        <time>2013-12-08T08:37:54Z</time>
      </trkpt>
      <trkpt lat="49.74874" lon="3.13586">
        <ele>77.48</ele>
        <time>2013-12-08T08:38:03Z</time>
      </trkpt>
      <trkpt lat="49.74855" lon="3.13625">
        <ele>77.24</ele>
        <time>2013-12-08T08:38:13Z</time>
      </trkpt>
      <trkpt lat="49.74842" lon="3.13659">
        <ele>76.99</ele>
        <time>2013-12-08T08:38:21Z</time>
      </trkpt>
      <trkpt lat="49.74814" lon="3.13674">
        <ele>76.71</ele>
        <time>2013-12-08T08:38:31Z</time>
      </trkpt>
      <trkpt lat="49.74795" lon="3.1368">
        <ele>76.46</ele>
        <time>2013-12-08T08:38:36Z</time>
      </trkpt>
      <trkpt lat="49.74773" lon="3.13687">
        <ele>76.21</ele>
        <time>2013-12-08T08:38:41Z</time>
      </trkpt>
      <trkpt lat="49.74756" lon="3.13692">
        <ele>76.05</ele>
        <time>2013-12-08T08:38:45Z</time>
      </trkpt>
      <trkpt lat="49.74734" lon="3.13697">
        <ele>75.74</ele>
        <time>2013-12-08T08:38:50Z</time>
      </trkpt>
      <trkpt lat="49.747" lon="3.13705">
        <ele>75.11</ele>
        <time>2013-12-08T08:38:59Z</time>
      </trkpt>
      <trkpt lat="49.74665" lon="3.13715">
        <ele>74.39</ele>
        <time>2013-12-08T08:39:08Z</time>
      </trkpt>
      <trkpt lat="49.74632" lon="3.13726">
        <ele>73.64</ele>
        <time>2013-12-08T08:39:17Z</time>
      </trkpt>
      <trkpt lat="49.74603" lon="3.13735">
        <ele>73.14</ele>
        <time>2013-12-08T08:39:26Z</time>
      </trkpt>
      <trkpt lat="49.74583" lon="3.13739">
        <ele>72.84</ele>
        <time>2013-12-08T08:39:31Z</time>
      </trkpt>
      <trkpt lat="49.74565" lon="3.13745">
        <ele>72.26</ele>
        <time>2013-12-08T08:39:35Z</time>
      </trkpt>
      <trkpt lat="49.74546" lon="3.13751">
        <ele>71.67</ele>
        <time>2013-12-08T08:39:39Z</time>
      </trkpt>
      <trkpt lat="49.74523" lon="3.13758">
        <ele>70.83</ele>
        <time>2013-12-08T08:39:44Z</time>
      </trkpt>
      <trkpt lat="49.74505" lon="3.13765">
        <ele>70.18</ele>
        <time>2013-12-08T08:39:48Z</time>
      </trkpt>
      <trkpt lat="49.74484" lon="3.13771">
        <ele>69.34</ele>
        <time>2013-12-08T08:39:53Z</time>
      </trkpt>
      <trkpt lat="49.7445" lon="3.13756">
        <ele>67.67</ele>
        <time>2013-12-08T08:40:02Z</time>
      </trkpt>
      <trkpt lat="49.74426" lon="3.13733">
        <ele>66.44</ele>
        <time>2013-12-08T08:40:07Z</time>
      </trkpt>
      <trkpt lat="49.74407" lon="3.13714">
        <ele>65.76</ele>
        <time>2013-12-08T08:40:11Z</time>
      </trkpt>
      <trkpt lat="49.74388" lon="3.13695">
        <ele>65.32</ele>
        <time>2013-12-08T08:40:15Z</time>
      </trkpt>
      <trkpt lat="49.74368" lon="3.13674">
        <ele>64.83</ele>
        <time>2013-12-08T08:40:20Z</time>
      </trkpt>
      <trkpt lat="49.74338" lon="3.13687">
        <ele>64.11</ele>
        <time>2013-12-08T08:40:29Z</time>
      </trkpt>
      <trkpt lat="49.74326" lon="3.13707">
        <ele>63.95</ele>
        <time>2013-12-08T08:40:33Z</time>
      </trkpt>
      <trkpt lat="49.7431" lon="3.13729">
        <ele>63.79</ele>
        <time>2013-12-08T08:40:38Z</time>
      </trkpt>
      <trkpt lat="49.74297" lon="3.1375">
        <ele>63.56</ele>
        <time>2013-12-08T08:40:43Z</time>
      </trkpt>
      <trkpt lat="49.74275" lon="3.13789">
        <ele>63.57</ele>
        <time>2013-12-08T08:40:51Z</time>
      </trkpt>
      <trkpt lat="49.74263" lon="3.13818">
        <ele>63.41</ele>
        <time>2013-12-08T08:40:56Z</time>
      </trkpt>
      <trkpt lat="49.7425" lon="3.13874">
        <ele>63.49</ele>
        <time>2013-12-08T08:41:05Z</time>
      </trkpt>
      <trkpt lat="49.74237" lon="3.13931">
        <ele>64.16</ele>
        <time>2013-12-08T08:41:14Z</time>
      </trkpt>
      <trkpt lat="49.74227" lon="3.13961">
        <ele>64.27</ele>
        <time>2013-12-08T08:41:19Z</time>
      </trkpt>
      <trkpt lat="49.74204" lon="3.13998">
        <ele>64.55</ele>
        <time>2013-12-08T08:41:27Z</time>
      </trkpt>
      <trkpt lat="49.74186" lon="3.1401">
        <ele>64.61</ele>
        <time>2013-12-08T08:41:32Z</time>
      </trkpt>
      <trkpt lat="49.74173" lon="3.14052">
        <ele>63.83</ele>
        <time>2013-12-08T08:41:41Z</time>
      </trkpt>
      <trkpt lat="49.74173" lon="3.14081">
        <ele>63.21</ele>
        <time>2013-12-08T08:41:45Z</time>
      </trkpt>
      <trkpt lat="49.74175" lon="3.14116">
        <ele>63.24</ele>
        <time>2013-12-08T08:41:50Z</time>
      </trkpt>
      <trkpt lat="49.74177" lon="3.1415">
        <ele>63.34</ele>
        <time>2013-12-08T08:41:55Z</time>
      </trkpt>
      <trkpt lat="49.74181" lon="3.14179">
        <ele>63.49</ele>
        <time>2013-12-08T08:42:00Z</time>
      </trkpt>
      <trkpt lat="49.74185" lon="3.14222">
        <ele>63.51</ele>
        <time>2013-12-08T08:42:09Z</time>
      </trkpt>
      <trkpt lat="49.74161" lon="3.14259">
        <ele>63.35</ele>
        <time>2013-12-08T08:42:19Z</time>
      </trkpt>
      <trkpt lat="49.7416" lon="3.14308">
        <ele>63.34</ele>
        <time>2013-12-08T08:42:27Z</time>
      </trkpt>
      <trkpt lat="49.74162" lon="3.14339">
        <ele>63.22</ele>
        <time>2013-12-08T08:42:32Z</time>
      </trkpt>
      <trkpt lat="49.74165" lon="3.14368">
        <ele>63.06</ele>
        <time>2013-12-08T08:42:37Z</time>
      </trkpt>
      <trkpt lat="49.74166" lon="3.14426">
        <ele>63.15</ele>
        <time>2013-12-08T08:42:45Z</time>
      </trkpt>
      <trkpt lat="49.74166" lon="3.14464">
        <ele>63.59</ele>
        <time>2013-12-08T08:42:50Z</time>
      </trkpt>
      <trkpt lat="49.74168" lon="3.145">
        <ele>64</ele>
        <time>2013-12-08T08:42:55Z</time>
      </trkpt>
      <trkpt lat="49.7417" lon="3.14536">
        <ele>64.43</ele>
        <time>2013-12-08T08:43:00Z</time>
      </trkpt>
      <trkpt lat="49.74172" lon="3.14574">
        <ele>64.89</ele>
        <time>2013-12-08T08:43:05Z</time>
      </trkpt>
      <trkpt lat="49.74174" lon="3.1461">
        <ele>65.29</ele>
        <time>2013-12-08T08:43:10Z</time>
      </trkpt>
      <trkpt lat="49.74175" lon="3.14643">
        <ele>65.64</ele>
        <time>2013-12-08T08:43:15Z</time>
      </trkpt>
      <trkpt lat="49.74178" lon="3.14678">
        <ele>65.85</ele>
        <time>2013-12-08T08:43:20Z</time>
      </trkpt>
      <trkpt lat="49.7418" lon="3.14714">
        <ele>65.76</ele>
        <time>2013-12-08T08:43:25Z</time>
      </trkpt>
      <trkpt lat="49.74181" lon="3.14751">
        <ele>65.66</ele>
        <time>2013-12-08T08:43:30Z</time>
      </trkpt>
      <trkpt lat="49.74183" lon="3.14786">
        <ele>65.62</ele>
        <time>2013-12-08T08:43:35Z</time>
      </trkpt>
      <trkpt lat="49.74184" lon="3.14814">
        <ele>65.58</ele>
        <time>2013-12-08T08:43:39Z</time>
      </trkpt>
      <trkpt lat="49.74186" lon="3.14848">
        <ele>65.8</ele>
        <time>2013-12-08T08:43:44Z</time>
      </trkpt>
      <trkpt lat="49.74187" lon="3.14879">
        <ele>66.32</ele>
        <time>2013-12-08T08:43:49Z</time>
      </trkpt>
      <trkpt lat="49.7419" lon="3.14927">
        <ele>67.07</ele>
        <time>2013-12-08T08:43:57Z</time>
      </trkpt>
      <trkpt lat="49.74192" lon="3.1496">
        <ele>67.31</ele>
        <time>2013-12-08T08:44:02Z</time>
      </trkpt>
      <trkpt lat="49.74193" lon="3.14993">
        <ele>67.58</ele>
        <time>2013-12-08T08:44:07Z</time>
      </trkpt>
      <trkpt lat="49.74196" lon="3.1504">
        <ele>67.53</ele>
        <time>2013-12-08T08:44:15Z</time>
      </trkpt>
      <trkpt lat="49.74195" lon="3.15074">
        <ele>67.38</ele>
        <time>2013-12-08T08:44:20Z</time>
      </trkpt>
      <trkpt lat="49.74191" lon="3.15103">
        <ele>67.22</ele>
        <time>2013-12-08T08:44:24Z</time>
      </trkpt>
      <trkpt lat="49.74189" lon="3.15161">
        <ele>67.02</ele>
        <time>2013-12-08T08:44:33Z</time>
      </trkpt>
      <trkpt lat="49.74186" lon="3.15191">
        <ele>66.34</ele>
        <time>2013-12-08T08:44:38Z</time>
      </trkpt>
      <trkpt lat="49.74186" lon="3.15227">
        <ele>65.4</ele>
        <time>2013-12-08T08:44:43Z</time>
      </trkpt>
      <trkpt lat="49.74188" lon="3.15258">
        <ele>64.52</ele>
        <time>2013-12-08T08:44:48Z</time>
      </trkpt>
      <trkpt lat="49.74191" lon="3.15287">
        <ele>63.7</ele>
        <time>2013-12-08T08:44:52Z</time>
      </trkpt>
      <trkpt lat="49.74196" lon="3.15342">
        <ele>62.42</ele>
        <time>2013-12-08T08:45:01Z</time>
      </trkpt>
      <trkpt lat="49.74197" lon="3.15397">
        <ele>63.22</ele>
        <time>2013-12-08T08:45:09Z</time>
      </trkpt>
      <trkpt lat="49.74199" lon="3.1543">
        <ele>63.73</ele>
        <time>2013-12-08T08:45:14Z</time>
      </trkpt>
      <trkpt lat="49.74203" lon="3.15461">
        <ele>64.16</ele>
        <time>2013-12-08T08:45:19Z</time>
      </trkpt>
      <trkpt lat="49.74204" lon="3.1549">
        <ele>64.7</ele>
        <time>2013-12-08T08:45:23Z</time>
      </trkpt>
      <trkpt lat="49.74205" lon="3.15518">
        <ele>64.87</ele>
        <time>2013-12-08T08:45:27Z</time>
      </trkpt>
      <trkpt lat="49.74211" lon="3.15549">
        <ele>64.63</ele>
        <time>2013-12-08T08:45:32Z</time>
      </trkpt>
      <trkpt lat="49.74212" lon="3.15603">
        <ele>64.71</ele>
        <time>2013-12-08T08:45:41Z</time>
      </trkpt>
      <trkpt lat="49.74217" lon="3.15656">
        <ele>64.39</ele>
        <time>2013-12-08T08:45:50Z</time>
      </trkpt>
      <trkpt lat="49.7422" lon="3.15691">
        <ele>64.04</ele>
        <time>2013-12-08T08:45:55Z</time>
      </trkpt>
      <trkpt lat="49.74221" lon="3.15727">
        <ele>63.82</ele>
        <time>2013-12-08T08:46:00Z</time>
      </trkpt>
      <trkpt lat="49.74223" lon="3.1576">
        <ele>63.78</ele>
        <time>2013-12-08T08:46:05Z</time>
      </trkpt>
      <trkpt lat="49.74226" lon="3.15791">
        <ele>64</ele>
        <time>2013-12-08T08:46:09Z</time>
      </trkpt>
      <trkpt lat="49.74234" lon="3.1584">
        <ele>64.44</ele>
        <time>2013-12-08T08:46:14Z</time>
      </trkpt>
      <trkpt lat="49.74246" lon="3.15874">
        <ele>64.54</ele>
        <time>2013-12-08T08:46:19Z</time>
      </trkpt>
      <trkpt lat="49.74267" lon="3.15901">
        <ele>64.41</ele>
        <time>2013-12-08T08:46:24Z</time>
      </trkpt>
      <trkpt lat="49.7429" lon="3.15927">
        <ele>64.16</ele>
        <time>2013-12-08T08:46:29Z</time>
      </trkpt>
      <trkpt lat="49.74309" lon="3.15944">
        <ele>64.03</ele>
        <time>2013-12-08T08:46:33Z</time>
      </trkpt>
      <trkpt lat="49.7433" lon="3.1596">
        <ele>64.07</ele>
        <time>2013-12-08T08:46:38Z</time>
      </trkpt>
      <trkpt lat="49.74337" lon="3.15991">
        <ele>64.86</ele>
        <time>2013-12-08T08:46:47Z</time>
      </trkpt>
      <trkpt lat="49.74349" lon="3.16027">
        <ele>65.44</ele>
        <time>2013-12-08T08:46:56Z</time>
      </trkpt>
      <trkpt lat="49.74374" lon="3.16054">
        <ele>66.29</ele>
        <time>2013-12-08T08:47:05Z</time>
      </trkpt>
      <trkpt lat="49.74386" lon="3.16091">
        <ele>67.01</ele>
        <time>2013-12-08T08:47:14Z</time>
      </trkpt>
      <trkpt lat="49.74381" lon="3.1612">
        <ele>67.24</ele>
        <time>2013-12-08T08:47:19Z</time>
      </trkpt>
      <trkpt lat="49.74372" lon="3.16145">
        <ele>67.05</ele>
        <time>2013-12-08T08:47:24Z</time>
      </trkpt>
      <trkpt lat="49.74361" lon="3.16169">
        <ele>66.68</ele>
        <time>2013-12-08T08:47:29Z</time>
      </trkpt>
      <trkpt lat="49.74342" lon="3.16211">
        <ele>66.44</ele>
        <time>2013-12-08T08:47:38Z</time>
      </trkpt>
      <trkpt lat="49.7433" lon="3.16234">
        <ele>66.53</ele>
        <time>2013-12-08T08:47:43Z</time>
      </trkpt>
      <trkpt lat="49.74317" lon="3.16261">
        <ele>66.36</ele>
        <time>2013-12-08T08:47:48Z</time>
      </trkpt>
      <trkpt lat="49.74305" lon="3.16288">
        <ele>65.99</ele>
        <time>2013-12-08T08:47:53Z</time>
      </trkpt>
      <trkpt lat="49.74294" lon="3.16311">
        <ele>65.89</ele>
        <time>2013-12-08T08:47:57Z</time>
      </trkpt>
      <trkpt lat="49.74281" lon="3.16341">
        <ele>65.98</ele>
        <time>2013-12-08T08:48:02Z</time>
      </trkpt>
      <trkpt lat="49.74268" lon="3.16374">
        <ele>65.72</ele>
        <time>2013-12-08T08:48:07Z</time>
      </trkpt>
      <trkpt lat="49.74257" lon="3.16402">
        <ele>65.32</ele>
        <time>2013-12-08T08:48:11Z</time>
      </trkpt>
      <trkpt lat="49.74248" lon="3.16431">
        <ele>64.81</ele>
        <time>2013-12-08T08:48:15Z</time>
      </trkpt>
      <trkpt lat="49.74238" lon="3.1647">
        <ele>64.31</ele>
        <time>2013-12-08T08:48:20Z</time>
      </trkpt>
      <trkpt lat="49.74226" lon="3.16509">
        <ele>64.18</ele>
        <time>2013-12-08T08:48:25Z</time>
      </trkpt>
      <trkpt lat="49.74214" lon="3.16548">
        <ele>64.91</ele>
        <time>2013-12-08T08:48:30Z</time>
      </trkpt>
      <trkpt lat="49.74203" lon="3.1659">
        <ele>65.5</ele>
        <time>2013-12-08T08:48:35Z</time>
      </trkpt>
      <trkpt lat="49.74195" lon="3.16622">
        <ele>65.8</ele>
        <time>2013-12-08T08:48:39Z</time>
      </trkpt>
      <trkpt lat="49.74184" lon="3.16662">
        <ele>66.15</ele>
        <time>2013-12-08T08:48:44Z</time>
      </trkpt>
      <trkpt lat="49.74175" lon="3.16697">
        <ele>65.8</ele>
        <time>2013-12-08T08:48:49Z</time>
      </trkpt>
      <trkpt lat="49.74167" lon="3.16727">
        <ele>65.28</ele>
        <time>2013-12-08T08:48:53Z</time>
      </trkpt>
      <trkpt lat="49.74158" lon="3.16756">
        <ele>65.15</ele>
        <time>2013-12-08T08:48:57Z</time>
      </trkpt>
      <trkpt lat="49.74148" lon="3.16793">
        <ele>65.51</ele>
        <time>2013-12-08T08:49:02Z</time>
      </trkpt>
      <trkpt lat="49.74135" lon="3.16831">
        <ele>65.61</ele>
        <time>2013-12-08T08:49:07Z</time>
      </trkpt>
      <trkpt lat="49.74123" lon="3.16871">
        <ele>65.23</ele>
        <time>2013-12-08T08:49:12Z</time>
      </trkpt>
      <trkpt lat="49.74113" lon="3.1691">
        <ele>64.76</ele>
        <time>2013-12-08T08:49:17Z</time>
      </trkpt>
      <trkpt lat="49.74105" lon="3.1694">
        <ele>64.32</ele>
        <time>2013-12-08T08:49:21Z</time>
      </trkpt>
      <trkpt lat="49.74098" lon="3.16977">
        <ele>63.74</ele>
        <time>2013-12-08T08:49:26Z</time>
      </trkpt>
      <trkpt lat="49.74098" lon="3.17016">
        <ele>63.73</ele>
        <time>2013-12-08T08:49:31Z</time>
      </trkpt>
      <trkpt lat="49.74104" lon="3.17055">
        <ele>64.4</ele>
        <time>2013-12-08T08:49:36Z</time>
      </trkpt>
      <trkpt lat="49.74109" lon="3.17094">
        <ele>64.9</ele>
        <time>2013-12-08T08:49:41Z</time>
      </trkpt>
      <trkpt lat="49.74114" lon="3.17125">
        <ele>64.91</ele>
        <time>2013-12-08T08:49:45Z</time>
      </trkpt>
      <trkpt lat="49.74118" lon="3.17165">
        <ele>64.83</ele>
        <time>2013-12-08T08:49:50Z</time>
      </trkpt>
      <trkpt lat="49.74126" lon="3.17207">
        <ele>65.02</ele>
        <time>2013-12-08T08:49:55Z</time>
      </trkpt>
      <trkpt lat="49.74133" lon="3.1725">
        <ele>65.19</ele>
        <time>2013-12-08T08:50:00Z</time>
      </trkpt>
      <trkpt lat="49.74137" lon="3.17282">
        <ele>65.3</ele>
        <time>2013-12-08T08:50:04Z</time>
      </trkpt>
      <trkpt lat="49.74143" lon="3.17317">
        <ele>65.42</ele>
        <time>2013-12-08T08:50:09Z</time>
      </trkpt>
      <trkpt lat="49.74148" lon="3.17346">
        <ele>65.43</ele>
        <time>2013-12-08T08:50:14Z</time>
      </trkpt>
      <trkpt lat="49.74154" lon="3.17375">
        <ele>65.27</ele>
        <time>2013-12-08T08:50:19Z</time>
      </trkpt>
      <trkpt lat="49.74154" lon="3.17421">
        <ele>64.76</ele>
        <time>2013-12-08T08:50:27Z</time>
      </trkpt>
      <trkpt lat="49.74142" lon="3.17462">
        <ele>63.94</ele>
        <time>2013-12-08T08:50:32Z</time>
      </trkpt>
      <trkpt lat="49.7413" lon="3.17505">
        <ele>63.39</ele>
        <time>2013-12-08T08:50:36Z</time>
      </trkpt>
      <trkpt lat="49.74108" lon="3.17561">
        <ele>62.98</ele>
        <time>2013-12-08T08:50:41Z</time>
      </trkpt>
      <trkpt lat="49.74087" lon="3.17602">
        <ele>62.96</ele>
        <time>2013-12-08T08:50:45Z</time>
      </trkpt>
      <trkpt lat="49.74063" lon="3.17648">
        <ele>63.25</ele>
        <time>2013-12-08T08:50:50Z</time>
      </trkpt>
      <trkpt lat="49.7404" lon="3.17691">
        <ele>63.67</ele>
        <time>2013-12-08T08:50:55Z</time>
      </trkpt>
      <trkpt lat="49.74021" lon="3.1773">
        <ele>64.32</ele>
        <time>2013-12-08T08:51:00Z</time>
      </trkpt>
      <trkpt lat="49.74001" lon="3.17766">
        <ele>65.35</ele>
        <time>2013-12-08T08:51:05Z</time>
      </trkpt>
      <trkpt lat="49.73987" lon="3.1779">
        <ele>66.2</ele>
        <time>2013-12-08T08:51:09Z</time>
      </trkpt>
      <trkpt lat="49.7397" lon="3.17818">
        <ele>67.06</ele>
        <time>2013-12-08T08:51:14Z</time>
      </trkpt>
      <trkpt lat="49.73954" lon="3.1785">
        <ele>67.44</ele>
        <time>2013-12-08T08:51:19Z</time>
      </trkpt>
      <trkpt lat="49.73936" lon="3.17883">
        <ele>67.31</ele>
        <time>2013-12-08T08:51:24Z</time>
      </trkpt>
      <trkpt lat="49.73918" lon="3.17916">
        <ele>67.01</ele>
        <time>2013-12-08T08:51:29Z</time>
      </trkpt>
      <trkpt lat="49.73892" lon="3.17966">
        <ele>66.83</ele>
        <time>2013-12-08T08:51:38Z</time>
      </trkpt>
      <trkpt lat="49.73867" lon="3.18002">
        <ele>66.4</ele>
        <time>2013-12-08T08:51:46Z</time>
      </trkpt>
      <trkpt lat="49.73842" lon="3.17978">
        <ele>66.33</ele>
        <time>2013-12-08T08:51:56Z</time>
      </trkpt>
      <trkpt lat="49.73834" lon="3.17953">
        <ele>66.57</ele>
        <time>2013-12-08T08:52:00Z</time>
      </trkpt>
      <trkpt lat="49.73825" lon="3.17921">
        <ele>66.84</ele>
        <time>2013-12-08T08:52:05Z</time>
      </trkpt>
      <trkpt lat="49.73809" lon="3.17865">
        <ele>66.27</ele>
        <time>2013-12-08T08:52:14Z</time>
      </trkpt>
      <trkpt lat="49.738" lon="3.17831">
        <ele>66.03</ele>
        <time>2013-12-08T08:52:19Z</time>
      </trkpt>
      <trkpt lat="49.73792" lon="3.17797">
        <ele>66.44</ele>
        <time>2013-12-08T08:52:24Z</time>
      </trkpt>
      <trkpt lat="49.73784" lon="3.17761">
        <ele>66.87</ele>
        <time>2013-12-08T08:52:29Z</time>
      </trkpt>
      <trkpt lat="49.73778" lon="3.1773">
        <ele>67</ele>
        <time>2013-12-08T08:52:33Z</time>
      </trkpt>
      <trkpt lat="49.73771" lon="3.17696">
        <ele>66.85</ele>
        <time>2013-12-08T08:52:38Z</time>
      </trkpt>
      <trkpt lat="49.73762" lon="3.17665">
        <ele>66.44</ele>
        <time>2013-12-08T08:52:43Z</time>
      </trkpt>
      <trkpt lat="49.73754" lon="3.17634">
        <ele>66.1</ele>
        <time>2013-12-08T08:52:48Z</time>
      </trkpt>
      <trkpt lat="49.73745" lon="3.17603">
        <ele>66.01</ele>
        <time>2013-12-08T08:52:53Z</time>
      </trkpt>
      <trkpt lat="49.7373" lon="3.17548">
        <ele>65.47</ele>
        <time>2013-12-08T08:53:02Z</time>
      </trkpt>
      <trkpt lat="49.73723" lon="3.17521">
        <ele>65.01</ele>
        <time>2013-12-08T08:53:06Z</time>
      </trkpt>
      <trkpt lat="49.73709" lon="3.17489">
        <ele>64.5</ele>
        <time>2013-12-08T08:53:11Z</time>
      </trkpt>
      <trkpt lat="49.73678" lon="3.17453">
        <ele>64.55</ele>
        <time>2013-12-08T08:53:20Z</time>
      </trkpt>
      <trkpt lat="49.73659" lon="3.17433">
        <ele>64.84</ele>
        <time>2013-12-08T08:53:25Z</time>
      </trkpt>
      <trkpt lat="49.7364" lon="3.17414">
        <ele>64.94</ele>
        <time>2013-12-08T08:53:30Z</time>
      </trkpt>
      <trkpt lat="49.73621" lon="3.17403">
        <ele>64.77</ele>
        <time>2013-12-08T08:53:34Z</time>
      </trkpt>
      <trkpt lat="49.73599" lon="3.17384">
        <ele>64.78</ele>
        <time>2013-12-08T08:53:39Z</time>
      </trkpt>
      <trkpt lat="49.73578" lon="3.17362">
        <ele>65.04</ele>
        <time>2013-12-08T08:53:44Z</time>
      </trkpt>
      <trkpt lat="49.7356" lon="3.17338">
        <ele>65.03</ele>
        <time>2013-12-08T08:53:49Z</time>
      </trkpt>
      <trkpt lat="49.73541" lon="3.17313">
        <ele>65.37</ele>
        <time>2013-12-08T08:53:54Z</time>
      </trkpt>
      <trkpt lat="49.73524" lon="3.17291">
        <ele>65.66</ele>
        <time>2013-12-08T08:53:59Z</time>
      </trkpt>
      <trkpt lat="49.73492" lon="3.17256">
        <ele>65.94</ele>
        <time>2013-12-08T08:54:08Z</time>
      </trkpt>
      <trkpt lat="49.73474" lon="3.17242">
        <ele>66</ele>
        <time>2013-12-08T08:54:12Z</time>
      </trkpt>
      <trkpt lat="49.73451" lon="3.17235">
        <ele>66</ele>
        <time>2013-12-08T08:54:17Z</time>
      </trkpt>
      <trkpt lat="49.73428" lon="3.1724">
        <ele>66</ele>
        <time>2013-12-08T08:54:22Z</time>
      </trkpt>
      <trkpt lat="49.73406" lon="3.17248">
        <ele>66</ele>
        <time>2013-12-08T08:54:27Z</time>
      </trkpt>
      <trkpt lat="49.73381" lon="3.17259">
        <ele>65.95</ele>
        <time>2013-12-08T08:54:37Z</time>
      </trkpt>
      <trkpt lat="49.73357" lon="3.17273">
        <ele>65.8</ele>
        <time>2013-12-08T08:54:45Z</time>
      </trkpt>
      <trkpt lat="49.7332" lon="3.17282">
        <ele>65.52</ele>
        <time>2013-12-08T08:54:55Z</time>
      </trkpt>
      <trkpt lat="49.73301" lon="3.17271">
        <ele>65.46</ele>
        <time>2013-12-08T08:55:00Z</time>
      </trkpt>
      <trkpt lat="49.73278" lon="3.17235">
        <ele>65.34</ele>
        <time>2013-12-08T08:55:09Z</time>
      </trkpt>
      <trkpt lat="49.73266" lon="3.17212">
        <ele>65.19</ele>
        <time>2013-12-08T08:55:14Z</time>
      </trkpt>
      <trkpt lat="49.73248" lon="3.17189">
        <ele>64.97</ele>
        <time>2013-12-08T08:55:19Z</time>
      </trkpt>
      <trkpt lat="49.73231" lon="3.17167">
        <ele>64.54</ele>
        <time>2013-12-08T08:55:24Z</time>
      </trkpt>
      <trkpt lat="49.73214" lon="3.17149">
        <ele>63.89</ele>
        <time>2013-12-08T08:55:28Z</time>
      </trkpt>
      <trkpt lat="49.73194" lon="3.17131">
        <ele>63.37</ele>
        <time>2013-12-08T08:55:33Z</time>
      </trkpt>
      <trkpt lat="49.73171" lon="3.17105">
        <ele>63.03</ele>
        <time>2013-12-08T08:55:43Z</time>
      </trkpt>
      <trkpt lat="49.73137" lon="3.17085">
        <ele>63.71</ele>
        <time>2013-12-08T08:55:52Z</time>
      </trkpt>
      <trkpt lat="49.7312" lon="3.17077">
        <ele>64.08</ele>
        <time>2013-12-08T08:55:57Z</time>
      </trkpt>
      <trkpt lat="49.73102" lon="3.17069">
        <ele>64.43</ele>
        <time>2013-12-08T08:56:02Z</time>
      </trkpt>
      <trkpt lat="49.73072" lon="3.17057">
        <ele>64.59</ele>
        <time>2013-12-08T08:56:11Z</time>
      </trkpt>
      <trkpt lat="49.73044" lon="3.17049">
        <ele>64.31</ele>
        <time>2013-12-08T08:56:21Z</time>
      </trkpt>
      <trkpt lat="49.73014" lon="3.1705">
        <ele>64.1</ele>
        <time>2013-12-08T08:56:31Z</time>
      </trkpt>
      <trkpt lat="49.72983" lon="3.17054">
        <ele>64.41</ele>
        <time>2013-12-08T08:56:41Z</time>
      </trkpt>
      <trkpt lat="49.72954" lon="3.17057">
        <ele>65.1</ele>
        <time>2013-12-08T08:56:50Z</time>
      </trkpt>
      <trkpt lat="49.72929" lon="3.17061">
        <ele>65.7</ele>
        <time>2013-12-08T08:56:59Z</time>
      </trkpt>
      <trkpt lat="49.72901" lon="3.1706">
        <ele>65.81</ele>
        <time>2013-12-08T08:57:08Z</time>
      </trkpt>
      <trkpt lat="49.72882" lon="3.17051">
        <ele>65.58</ele>
        <time>2013-12-08T08:57:13Z</time>
      </trkpt>
      <trkpt lat="49.72864" lon="3.17045">
        <ele>65.36</ele>
        <time>2013-12-08T08:57:18Z</time>
      </trkpt>
      <trkpt lat="49.72843" lon="3.17041">
        <ele>65.12</ele>
        <time>2013-12-08T08:57:23Z</time>
      </trkpt>
      <trkpt lat="49.72807" lon="3.17042">
        <ele>65</ele>
        <time>2013-12-08T08:57:32Z</time>
      </trkpt>
      <trkpt lat="49.72789" lon="3.17045">
        <ele>65</ele>
        <time>2013-12-08T08:57:37Z</time>
      </trkpt>
      <trkpt lat="49.7277" lon="3.1705">
        <ele>65</ele>
        <time>2013-12-08T08:57:42Z</time>
      </trkpt>
      <trkpt lat="49.72747" lon="3.17061">
        <ele>64.97</ele>
        <time>2013-12-08T08:57:47Z</time>
      </trkpt>
      <trkpt lat="49.72716" lon="3.17086">
        <ele>64.62</ele>
        <time>2013-12-08T08:57:56Z</time>
      </trkpt>
      <trkpt lat="49.72687" lon="3.17117">
        <ele>64.44</ele>
        <time>2013-12-08T08:58:04Z</time>
      </trkpt>
      <trkpt lat="49.72675" lon="3.17141">
        <ele>64.23</ele>
        <time>2013-12-08T08:58:09Z</time>
      </trkpt>
      <trkpt lat="49.72663" lon="3.17166">
        <ele>64</ele>
        <time>2013-12-08T08:58:14Z</time>
      </trkpt>
      <trkpt lat="49.72646" lon="3.17212">
        <ele>64.54</ele>
        <time>2013-12-08T08:58:23Z</time>
      </trkpt>
      <trkpt lat="49.7263" lon="3.17238">
        <ele>64.86</ele>
        <time>2013-12-08T08:58:32Z</time>
      </trkpt>
      <trkpt lat="49.72614" lon="3.17222">
        <ele>64.66</ele>
        <time>2013-12-08T08:58:42Z</time>
      </trkpt>
      <trkpt lat="49.72597" lon="3.17205">
        <ele>64.46</ele>
        <time>2013-12-08T08:58:51Z</time>
      </trkpt>
      <trkpt lat="49.72582" lon="3.17174">
        <ele>64.11</ele>
        <time>2013-12-08T08:59:01Z</time>
      </trkpt>
      <trkpt lat="49.72587" lon="3.17141">
        <ele>64</ele>
        <time>2013-12-08T08:59:09Z</time>
      </trkpt>
      <trkpt lat="49.72589" lon="3.17092">
        <ele>64</ele>
        <time>2013-12-08T08:59:18Z</time>
      </trkpt>
      <trkpt lat="49.72591" lon="3.17062">
        <ele>63.77</ele>
        <time>2013-12-08T08:59:23Z</time>
      </trkpt>
      <trkpt lat="49.726" lon="3.1701">
        <ele>63.29</ele>
        <time>2013-12-08T08:59:32Z</time>
      </trkpt>
      <trkpt lat="49.72607" lon="3.16978">
        <ele>63.32</ele>
        <time>2013-12-08T08:59:37Z</time>
      </trkpt>
      <trkpt lat="49.72621" lon="3.16933">
        <ele>63.17</ele>
        <time>2013-12-08T08:59:45Z</time>
      </trkpt>
      <trkpt lat="49.72632" lon="3.16905">
        <ele>62.98</ele>
        <time>2013-12-08T08:59:50Z</time>
      </trkpt>
      <trkpt lat="49.72651" lon="3.16857">
        <ele>63.09</ele>
        <time>2013-12-08T08:59:59Z</time>
      </trkpt>
      <trkpt lat="49.72675" lon="3.16811">
        <ele>63.18</ele>
        <time>2013-12-08T09:00:08Z</time>
      </trkpt>
      <trkpt lat="49.72707" lon="3.16782">
        <ele>63.14</ele>
        <time>2013-12-08T09:00:16Z</time>
      </trkpt>
      <trkpt lat="49.72732" lon="3.16777">
        <ele>62.88</ele>
        <time>2013-12-08T09:00:21Z</time>
      </trkpt>
      <trkpt lat="49.72761" lon="3.16775">
        <ele>62.91</ele>
        <time>2013-12-08T09:00:26Z</time>
      </trkpt>
      <trkpt lat="49.72786" lon="3.16774">
        <ele>63.39</ele>
        <time>2013-12-08T09:00:31Z</time>
      </trkpt>
      <trkpt lat="49.72809" lon="3.16771">
        <ele>63.82</ele>
        <time>2013-12-08T09:00:36Z</time>
      </trkpt>
      <trkpt lat="49.72831" lon="3.16765">
        <ele>64.13</ele>
        <time>2013-12-08T09:00:41Z</time>
      </trkpt>
      <trkpt lat="49.72843" lon="3.16727">
        <ele>65.02</ele>
        <time>2013-12-08T09:00:50Z</time>
      </trkpt>
      <trkpt lat="49.72825" lon="3.16697">
        <ele>65.7</ele>
        <time>2013-12-08T09:00:59Z</time>
      </trkpt>
      <trkpt lat="49.728" lon="3.16656">
        <ele>65.79</ele>
        <time>2013-12-08T09:01:08Z</time>
      </trkpt>
      <trkpt lat="49.72787" lon="3.16635">
        <ele>65.38</ele>
        <time>2013-12-08T09:01:13Z</time>
      </trkpt>
      <trkpt lat="49.72767" lon="3.16606">
        <ele>65.05</ele>
        <time>2013-12-08T09:01:21Z</time>
      </trkpt>
      <trkpt lat="49.72751" lon="3.1659">
        <ele>64.94</ele>
        <time>2013-12-08T09:01:26Z</time>
      </trkpt>
      <trkpt lat="49.72736" lon="3.16575">
        <ele>65.02</ele>
        <time>2013-12-08T09:01:31Z</time>
      </trkpt>
      <trkpt lat="49.72711" lon="3.16555">
        <ele>65.16</ele>
        <time>2013-12-08T09:01:39Z</time>
      </trkpt>
      <trkpt lat="49.72685" lon="3.16529">
        <ele>65.51</ele>
        <time>2013-12-08T09:01:48Z</time>
      </trkpt>
      <trkpt lat="49.72669" lon="3.16513">
        <ele>65.83</ele>
        <time>2013-12-08T09:01:53Z</time>
      </trkpt>
      <trkpt lat="49.72643" lon="3.16484">
        <ele>65.77</ele>
        <time>2013-12-08T09:02:02Z</time>
      </trkpt>
      <trkpt lat="49.72624" lon="3.16462">
        <ele>65.73</ele>
        <time>2013-12-08T09:02:11Z</time>
      </trkpt>
      <trkpt lat="49.72602" lon="3.1643">
        <ele>65.87</ele>
        <time>2013-12-08T09:02:21Z</time>
      </trkpt>
      <trkpt lat="49.72588" lon="3.1641">
        <ele>66</ele>
        <time>2013-12-08T09:02:26Z</time>
      </trkpt>
      <trkpt lat="49.72572" lon="3.16387">
        <ele>65.91</ele>
        <time>2013-12-08T09:02:41Z</time>
      </trkpt>
      <trkpt lat="49.72558" lon="3.16369">
        <ele>65.87</ele>
        <time>2013-12-08T09:02:50Z</time>
      </trkpt>
      <trkpt lat="49.72538" lon="3.1635">
        <ele>65.89</ele>
        <time>2013-12-08T09:03:00Z</time>
      </trkpt>
      <trkpt lat="49.72517" lon="3.16328">
        <ele>65.92</ele>
        <time>2013-12-08T09:03:09Z</time>
      </trkpt>
      <trkpt lat="49.72498" lon="3.16307">
        <ele>65.68</ele>
        <time>2013-12-08T09:03:18Z</time>
      </trkpt>
      <trkpt lat="49.72479" lon="3.16286">
        <ele>65.46</ele>
        <time>2013-12-08T09:03:27Z</time>
      </trkpt>
      <trkpt lat="49.72456" lon="3.16263">
        <ele>65.52</ele>
        <time>2013-12-08T09:03:37Z</time>
      </trkpt>
      <trkpt lat="49.72438" lon="3.16244">
        <ele>65.71</ele>
        <time>2013-12-08T09:03:45Z</time>
      </trkpt>
      <trkpt lat="49.72416" lon="3.1622">
        <ele>65.99</ele>
        <time>2013-12-08T09:03:55Z</time>
      </trkpt>
      <trkpt lat="49.72417" lon="3.16183">
        <ele>65.99</ele>
        <time>2013-12-08T09:04:04Z</time>
      </trkpt>
      <trkpt lat="49.72424" lon="3.1614">
        <ele>65.78</ele>
        <time>2013-12-08T09:04:14Z</time>
      </trkpt>
      <trkpt lat="49.72431" lon="3.1611">
        <ele>65.71</ele>
        <time>2013-12-08T09:04:23Z</time>
      </trkpt>
      <trkpt lat="49.72437" lon="3.16077">
        <ele>65.68</ele>
        <time>2013-12-08T09:04:45Z</time>
      </trkpt>
      <trkpt lat="49.72442" lon="3.16048">
        <ele>65.27</ele>
        <time>2013-12-08T09:04:54Z</time>
      </trkpt>
      <trkpt lat="49.72449" lon="3.16017">
        <ele>64.82</ele>
        <time>2013-12-08T09:05:03Z</time>
      </trkpt>
      <trkpt lat="49.72456" lon="3.15977">
        <ele>64.26</ele>
        <time>2013-12-08T09:05:17Z</time>
      </trkpt>
      <trkpt lat="49.72461" lon="3.15945">
        <ele>63.81</ele>
        <time>2013-12-08T09:05:30Z</time>
      </trkpt>
      <trkpt lat="49.72467" lon="3.15912">
        <ele>63.47</ele>
        <time>2013-12-08T09:05:44Z</time>
      </trkpt>
      <trkpt lat="49.72478" lon="3.15884">
        <ele>63.84</ele>
        <time>2013-12-08T09:06:02Z</time>
      </trkpt>
      <trkpt lat="49.72481" lon="3.15855">
        <ele>64.37</ele>
        <time>2013-12-08T09:06:15Z</time>
      </trkpt>
      <trkpt lat="49.72491" lon="3.15816">
        <ele>64.75</ele>
        <time>2013-12-08T09:06:30Z</time>
      </trkpt>
      <trkpt lat="49.725" lon="3.15776">
        <ele>64.31</ele>
        <time>2013-12-08T09:06:44Z</time>
      </trkpt>
      <trkpt lat="49.725" lon="3.15745">
        <ele>64</ele>
        <time>2013-12-08T09:06:53Z</time>
      </trkpt>
      <trkpt lat="49.72504" lon="3.15713">
        <ele>64.1</ele>
        <time>2013-12-08T09:07:02Z</time>
      </trkpt>
      <trkpt lat="49.72511" lon="3.15682">
        <ele>64.27</ele>
        <time>2013-12-08T09:07:11Z</time>
      </trkpt>
      <trkpt lat="49.72518" lon="3.15655">
        <ele>64.53</ele>
        <time>2013-12-08T09:07:20Z</time>
      </trkpt>
      <trkpt lat="49.72511" lon="3.15628">
        <ele>64.66</ele>
        <time>2013-12-08T09:07:33Z</time>
      </trkpt>
      <trkpt lat="49.72491" lon="3.15628">
        <ele>64.69</ele>
        <time>2013-12-08T09:09:25Z</time>
      </trkpt>
      <trkpt lat="49.72472" lon="3.15628">
        <ele>65.18</ele>
        <time>2013-12-08T09:09:33Z</time>
      </trkpt>
      <trkpt lat="49.72441" lon="3.15623">
        <ele>65.88</ele>
        <time>2013-12-08T09:09:42Z</time>
      </trkpt>
      <trkpt lat="49.7241" lon="3.15615">
        <ele>66.33</ele>
        <time>2013-12-08T09:09:51Z</time>
      </trkpt>
      <trkpt lat="49.72386" lon="3.15593">
        <ele>66.39</ele>
        <time>2013-12-08T09:10:01Z</time>
      </trkpt>
      <trkpt lat="49.72376" lon="3.15547">
        <ele>65.83</ele>
        <time>2013-12-08T09:10:11Z</time>
      </trkpt>
      <trkpt lat="49.72374" lon="3.15507">
        <ele>65.16</ele>
        <time>2013-12-08T09:10:20Z</time>
      </trkpt>
      <trkpt lat="49.72349" lon="3.15495">
        <ele>65.58</ele>
        <time>2013-12-08T09:10:29Z</time>
      </trkpt>
      <trkpt lat="49.72327" lon="3.15523">
        <ele>66.46</ele>
        <time>2013-12-08T09:10:38Z</time>
      </trkpt>
      <trkpt lat="49.72306" lon="3.15555">
        <ele>67</ele>
        <time>2013-12-08T09:10:47Z</time>
      </trkpt>
      <trkpt lat="49.72285" lon="3.15587">
        <ele>67.51</ele>
        <time>2013-12-08T09:10:56Z</time>
      </trkpt>
      <trkpt lat="49.72256" lon="3.15601">
        <ele>67.49</ele>
        <time>2013-12-08T09:11:06Z</time>
      </trkpt>
      <trkpt lat="49.72231" lon="3.15592">
        <ele>67.36</ele>
        <time>2013-12-08T09:11:15Z</time>
      </trkpt>
      <trkpt lat="49.72208" lon="3.15573">
        <ele>67.12</ele>
        <time>2013-12-08T09:11:24Z</time>
      </trkpt>
      <trkpt lat="49.72186" lon="3.1555">
        <ele>66.35</ele>
        <time>2013-12-08T09:11:33Z</time>
      </trkpt>
      <trkpt lat="49.72167" lon="3.15521">
        <ele>65.03</ele>
        <time>2013-12-08T09:11:43Z</time>
      </trkpt>
      <trkpt lat="49.72148" lon="3.15498">
        <ele>64</ele>
        <time>2013-12-08T09:11:53Z</time>
      </trkpt>
      <trkpt lat="49.72132" lon="3.15469">
        <ele>64</ele>
        <time>2013-12-08T09:12:02Z</time>
      </trkpt>
      <trkpt lat="49.72117" lon="3.1544">
        <ele>64</ele>
        <time>2013-12-08T09:12:11Z</time>
      </trkpt>
      <trkpt lat="49.72103" lon="3.15413">
        <ele>63.97</ele>
        <time>2013-12-08T09:12:20Z</time>
      </trkpt>
      <trkpt lat="49.72085" lon="3.1538">
        <ele>63.57</ele>
        <time>2013-12-08T09:12:29Z</time>
      </trkpt>
      <trkpt lat="49.72065" lon="3.15349">
        <ele>63.18</ele>
        <time>2013-12-08T09:12:38Z</time>
      </trkpt>
      <trkpt lat="49.72044" lon="3.1532">
        <ele>63.08</ele>
        <time>2013-12-08T09:12:47Z</time>
      </trkpt>
      <trkpt lat="49.72022" lon="3.15298">
        <ele>63.11</ele>
        <time>2013-12-08T09:12:56Z</time>
      </trkpt>
      <trkpt lat="49.72" lon="3.1528">
        <ele>63</ele>
        <time>2013-12-08T09:13:06Z</time>
      </trkpt>
      <trkpt lat="49.71972" lon="3.15263">
        <ele>63.33</ele>
        <time>2013-12-08T09:13:15Z</time>
      </trkpt>
      <trkpt lat="49.71944" lon="3.15242">
        <ele>63.74</ele>
        <time>2013-12-08T09:13:25Z</time>
      </trkpt>
      <trkpt lat="49.71911" lon="3.15219">
        <ele>64.44</ele>
        <time>2013-12-08T09:13:35Z</time>
      </trkpt>
      <trkpt lat="49.71888" lon="3.152">
        <ele>64.94</ele>
        <time>2013-12-08T09:13:44Z</time>
      </trkpt>
      <trkpt lat="49.71871" lon="3.15224">
        <ele>64.86</ele>
        <time>2013-12-08T09:13:54Z</time>
      </trkpt>
      <trkpt lat="49.71865" lon="3.15259">
        <ele>64.55</ele>
        <time>2013-12-08T09:14:03Z</time>
      </trkpt>
      <trkpt lat="49.71859" lon="3.15299">
        <ele>64.29</ele>
        <time>2013-12-08T09:14:13Z</time>
      </trkpt>
      <trkpt lat="49.71851" lon="3.15344">
        <ele>64</ele>
        <time>2013-12-08T09:14:22Z</time>
      </trkpt>
      <trkpt lat="49.71837" lon="3.15385">
        <ele>64</ele>
        <time>2013-12-08T09:14:32Z</time>
      </trkpt>
      <trkpt lat="49.71818" lon="3.1538">
        <ele>64.08</ele>
        <time>2013-12-08T09:14:41Z</time>
      </trkpt>
      <trkpt lat="49.71799" lon="3.15359">
        <ele>64.29</ele>
        <time>2013-12-08T09:14:50Z</time>
      </trkpt>
      <trkpt lat="49.71781" lon="3.1534">
        <ele>64.58</ele>
        <time>2013-12-08T09:14:59Z</time>
      </trkpt>
      <trkpt lat="49.71765" lon="3.15322">
        <ele>64.96</ele>
        <time>2013-12-08T09:15:08Z</time>
      </trkpt>
      <trkpt lat="49.71743" lon="3.15303">
        <ele>65.19</ele>
        <time>2013-12-08T09:15:17Z</time>
      </trkpt>
      <trkpt lat="49.71717" lon="3.15289">
        <ele>64.74</ele>
        <time>2013-12-08T09:15:26Z</time>
      </trkpt>
      <trkpt lat="49.71691" lon="3.1527">
        <ele>64.35</ele>
        <time>2013-12-08T09:15:35Z</time>
      </trkpt>
      <trkpt lat="49.71674" lon="3.15248">
        <ele>64.2</ele>
        <time>2013-12-08T09:15:44Z</time>
      </trkpt>
      <trkpt lat="49.71654" lon="3.15223">
        <ele>64.08</ele>
        <time>2013-12-08T09:15:54Z</time>
      </trkpt>
      <trkpt lat="49.71635" lon="3.15203">
        <ele>63.75</ele>
        <time>2013-12-08T09:16:03Z</time>
      </trkpt>
      <trkpt lat="49.71617" lon="3.15179">
        <ele>63.23</ele>
        <time>2013-12-08T09:16:13Z</time>
      </trkpt>
      <trkpt lat="49.7161" lon="3.15152">
        <ele>63.08</ele>
        <time>2013-12-08T09:16:21Z</time>
      </trkpt>
      <trkpt lat="49.71606" lon="3.15112">
        <ele>63.28</ele>
        <time>2013-12-08T09:16:31Z</time>
      </trkpt>
      <trkpt lat="49.71595" lon="3.15084">
        <ele>63.27</ele>
        <time>2013-12-08T09:16:39Z</time>
      </trkpt>
      <trkpt lat="49.71573" lon="3.15062">
        <ele>63.7</ele>
        <time>2013-12-08T09:16:49Z</time>
      </trkpt>
      <trkpt lat="49.7155" lon="3.15042">
        <ele>64.39</ele>
        <time>2013-12-08T09:16:58Z</time>
      </trkpt>
      <trkpt lat="49.71531" lon="3.15018">
        <ele>64.84</ele>
        <time>2013-12-08T09:17:07Z</time>
      </trkpt>
      <trkpt lat="49.71515" lon="3.14993">
        <ele>65.07</ele>
        <time>2013-12-08T09:17:15Z</time>
      </trkpt>
      <trkpt lat="49.71499" lon="3.1497">
        <ele>65.38</ele>
        <time>2013-12-08T09:17:29Z</time>
      </trkpt>
      <trkpt lat="49.71486" lon="3.14939">
        <ele>65.78</ele>
        <time>2013-12-08T09:17:38Z</time>
      </trkpt>
      <trkpt lat="49.71459" lon="3.14916">
        <ele>66</ele>
        <time>2013-12-08T09:17:47Z</time>
      </trkpt>
      <trkpt lat="49.71428" lon="3.14933">
        <ele>65.97</ele>
        <time>2013-12-08T09:17:57Z</time>
      </trkpt>
      <trkpt lat="49.71396" lon="3.14946">
        <ele>66.42</ele>
        <time>2013-12-08T09:18:07Z</time>
      </trkpt>
      <trkpt lat="49.71371" lon="3.14946">
        <ele>66.9</ele>
        <time>2013-12-08T09:18:15Z</time>
      </trkpt>
      <trkpt lat="49.71339" lon="3.14955">
        <ele>67.44</ele>
        <time>2013-12-08T09:18:25Z</time>
      </trkpt>
      <trkpt lat="49.71312" lon="3.14961">
        <ele>67.74</ele>
        <time>2013-12-08T09:18:35Z</time>
      </trkpt>
      <trkpt lat="49.71294" lon="3.14972">
        <ele>67.96</ele>
        <time>2013-12-08T09:19:44Z</time>
      </trkpt>
      <trkpt lat="49.71267" lon="3.14979">
        <ele>68.44</ele>
        <time>2013-12-08T09:19:53Z</time>
      </trkpt>
      <trkpt lat="49.71248" lon="3.14987">
        <ele>68.84</ele>
        <time>2013-12-08T09:19:58Z</time>
      </trkpt>
      <trkpt lat="49.71227" lon="3.14996">
        <ele>68.95</ele>
        <time>2013-12-08T09:20:03Z</time>
      </trkpt>
      <trkpt lat="49.71206" lon="3.15001">
        <ele>69</ele>
        <time>2013-12-08T09:20:08Z</time>
      </trkpt>
      <trkpt lat="49.71167" lon="3.15005">
        <ele>69</ele>
        <time>2013-12-08T09:20:17Z</time>
      </trkpt>
      <trkpt lat="49.7113" lon="3.15007">
        <ele>69.4</ele>
        <time>2013-12-08T09:20:26Z</time>
      </trkpt>
      <trkpt lat="49.71094" lon="3.15009">
        <ele>69.78</ele>
        <time>2013-12-08T09:20:35Z</time>
      </trkpt>
      <trkpt lat="49.71059" lon="3.15009">
        <ele>69.62</ele>
        <time>2013-12-08T09:20:44Z</time>
      </trkpt>
      <trkpt lat="49.71038" lon="3.15009">
        <ele>69.4</ele>
        <time>2013-12-08T09:20:49Z</time>
      </trkpt>
      <trkpt lat="49.71017" lon="3.15009">
        <ele>69.19</ele>
        <time>2013-12-08T09:20:54Z</time>
      </trkpt>
      <trkpt lat="49.70999" lon="3.1501">
        <ele>69.02</ele>
        <time>2013-12-08T09:20:59Z</time>
      </trkpt>
      <trkpt lat="49.70967" lon="3.15014">
        <ele>69.46</ele>
        <time>2013-12-08T09:21:08Z</time>
      </trkpt>
      <trkpt lat="49.70948" lon="3.15017">
        <ele>69.75</ele>
        <time>2013-12-08T09:21:13Z</time>
      </trkpt>
      <trkpt lat="49.7092" lon="3.15023">
        <ele>70.22</ele>
        <time>2013-12-08T09:21:21Z</time>
      </trkpt>
      <trkpt lat="49.70888" lon="3.15031">
        <ele>70.37</ele>
        <time>2013-12-08T09:21:31Z</time>
      </trkpt>
      <trkpt lat="49.70876" lon="3.15068">
        <ele>70.81</ele>
        <time>2013-12-08T09:21:41Z</time>
      </trkpt>
      <trkpt lat="49.70844" lon="3.15077">
        <ele>70.92</ele>
        <time>2013-12-08T09:21:55Z</time>
      </trkpt>
      <trkpt lat="49.70809" lon="3.15081">
        <ele>71.27</ele>
        <time>2013-12-08T09:22:05Z</time>
      </trkpt>
      <trkpt lat="49.70773" lon="3.15085">
        <ele>71.75</ele>
        <time>2013-12-08T09:22:14Z</time>
      </trkpt>
      <trkpt lat="49.70754" lon="3.15086">
        <ele>71.98</ele>
        <time>2013-12-08T09:22:19Z</time>
      </trkpt>
      <trkpt lat="49.70736" lon="3.15088">
        <ele>72.06</ele>
        <time>2013-12-08T09:22:24Z</time>
      </trkpt>
      <trkpt lat="49.70716" lon="3.15089">
        <ele>72.07</ele>
        <time>2013-12-08T09:22:29Z</time>
      </trkpt>
      <trkpt lat="49.7068" lon="3.1509">
        <ele>72.08</ele>
        <time>2013-12-08T09:22:38Z</time>
      </trkpt>
      <trkpt lat="49.70659" lon="3.15091">
        <ele>72.45</ele>
        <time>2013-12-08T09:22:43Z</time>
      </trkpt>
      <trkpt lat="49.70625" lon="3.15091">
        <ele>74.02</ele>
        <time>2013-12-08T09:22:51Z</time>
      </trkpt>
      <trkpt lat="49.70602" lon="3.15086">
        <ele>75.08</ele>
        <time>2013-12-08T09:22:56Z</time>
      </trkpt>
      <trkpt lat="49.70571" lon="3.15066">
        <ele>76.3</ele>
        <time>2013-12-08T09:23:05Z</time>
      </trkpt>
      <trkpt lat="49.70538" lon="3.15059">
        <ele>76.52</ele>
        <time>2013-12-08T09:23:14Z</time>
      </trkpt>
      <trkpt lat="49.70519" lon="3.1506">
        <ele>76.62</ele>
        <time>2013-12-08T09:23:19Z</time>
      </trkpt>
      <trkpt lat="49.70501" lon="3.15063">
        <ele>76.74</ele>
        <time>2013-12-08T09:23:24Z</time>
      </trkpt>
      <trkpt lat="49.70482" lon="3.15065">
        <ele>76.78</ele>
        <time>2013-12-08T09:23:29Z</time>
      </trkpt>
      <trkpt lat="49.70449" lon="3.15072">
        <ele>76.86</ele>
        <time>2013-12-08T09:23:38Z</time>
      </trkpt>
      <trkpt lat="49.70415" lon="3.15082">
        <ele>77.01</ele>
        <time>2013-12-08T09:23:48Z</time>
      </trkpt>
      <trkpt lat="49.70392" lon="3.15088">
        <ele>77.44</ele>
        <time>2013-12-08T09:23:57Z</time>
      </trkpt>
      <trkpt lat="49.70363" lon="3.15095">
        <ele>78</ele>
        <time>2013-12-08T09:24:07Z</time>
      </trkpt>
      <trkpt lat="49.70334" lon="3.1509">
        <ele>78.25</ele>
        <time>2013-12-08T09:24:17Z</time>
      </trkpt>
      <trkpt lat="49.70309" lon="3.15084">
        <ele>78.04</ele>
        <time>2013-12-08T09:24:26Z</time>
      </trkpt>
      <trkpt lat="49.70281" lon="3.15079">
        <ele>77.95</ele>
        <time>2013-12-08T09:24:36Z</time>
      </trkpt>
      <trkpt lat="49.70257" lon="3.15069">
        <ele>77.83</ele>
        <time>2013-12-08T09:24:45Z</time>
      </trkpt>
      <trkpt lat="49.70229" lon="3.15059">
        <ele>77.88</ele>
        <time>2013-12-08T09:24:55Z</time>
      </trkpt>
      <trkpt lat="49.70209" lon="3.15051">
        <ele>77.92</ele>
        <time>2013-12-08T09:25:04Z</time>
      </trkpt>
      <trkpt lat="49.70188" lon="3.15048">
        <ele>78</ele>
        <time>2013-12-08T09:25:14Z</time>
      </trkpt>
      <trkpt lat="49.70169" lon="3.15076">
        <ele>78.8</ele>
        <time>2013-12-08T09:25:27Z</time>
      </trkpt>
      <trkpt lat="49.70151" lon="3.15108">
        <ele>79.6</ele>
        <time>2013-12-08T09:25:37Z</time>
      </trkpt>
      <trkpt lat="49.70138" lon="3.15132">
        <ele>80.17</ele>
        <time>2013-12-08T09:25:45Z</time>
      </trkpt>
      <trkpt lat="49.70125" lon="3.15162">
        <ele>80.88</ele>
        <time>2013-12-08T09:25:55Z</time>
      </trkpt>
      <trkpt lat="49.70112" lon="3.15191">
        <ele>81.86</ele>
        <time>2013-12-08T09:26:04Z</time>
      </trkpt>
      <trkpt lat="49.70105" lon="3.15221">
        <ele>82.94</ele>
        <time>2013-12-08T09:26:14Z</time>
      </trkpt>
      <trkpt lat="49.70095" lon="3.15253">
        <ele>84.15</ele>
        <time>2013-12-08T09:26:29Z</time>
      </trkpt>
      <trkpt lat="49.70086" lon="3.15284">
        <ele>85.64</ele>
        <time>2013-12-08T09:26:43Z</time>
      </trkpt>
      <trkpt lat="49.7008" lon="3.15314">
        <ele>87.06</ele>
        <time>2013-12-08T09:27:00Z</time>
      </trkpt>
      <trkpt lat="49.70066" lon="3.15355">
        <ele>88.17</ele>
        <time>2013-12-08T09:31:11Z</time>
      </trkpt>
      <trkpt lat="49.70059" lon="3.15392">
        <ele>88.62</ele>
        <time>2013-12-08T09:31:21Z</time>
      </trkpt>
      <trkpt lat="49.70067" lon="3.1542">
        <ele>88.55</ele>
        <time>2013-12-08T09:31:31Z</time>
      </trkpt>
      <trkpt lat="49.7008" lon="3.15464">
        <ele>87.57</ele>
        <time>2013-12-08T09:31:41Z</time>
      </trkpt>
      <trkpt lat="49.70096" lon="3.15509">
        <ele>86.41</ele>
        <time>2013-12-08T09:31:50Z</time>
      </trkpt>
      <trkpt lat="49.7011" lon="3.15551">
        <ele>84.72</ele>
        <time>2013-12-08T09:31:59Z</time>
      </trkpt>
      <trkpt lat="49.70126" lon="3.15598">
        <ele>83.31</ele>
        <time>2013-12-08T09:32:08Z</time>
      </trkpt>
      <trkpt lat="49.70134" lon="3.15628">
        <ele>82.85</ele>
        <time>2013-12-08T09:32:12Z</time>
      </trkpt>
      <trkpt lat="49.70146" lon="3.15666">
        <ele>82.25</ele>
        <time>2013-12-08T09:32:17Z</time>
      </trkpt>
      <trkpt lat="49.70155" lon="3.157">
        <ele>81.46</ele>
        <time>2013-12-08T09:32:21Z</time>
      </trkpt>
      <trkpt lat="49.70165" lon="3.15731">
        <ele>80.53</ele>
        <time>2013-12-08T09:32:26Z</time>
      </trkpt>
      <trkpt lat="49.70178" lon="3.15762">
        <ele>79.69</ele>
        <time>2013-12-08T09:32:31Z</time>
      </trkpt>
      <trkpt lat="49.70197" lon="3.15796">
        <ele>78.89</ele>
        <time>2013-12-08T09:32:36Z</time>
      </trkpt>
      <trkpt lat="49.70218" lon="3.15836">
        <ele>77.49</ele>
        <time>2013-12-08T09:32:41Z</time>
      </trkpt>
      <trkpt lat="49.70233" lon="3.15865">
        <ele>76.28</ele>
        <time>2013-12-08T09:32:45Z</time>
      </trkpt>
      <trkpt lat="49.70249" lon="3.15903">
        <ele>75.19</ele>
        <time>2013-12-08T09:32:50Z</time>
      </trkpt>
      <trkpt lat="49.70262" lon="3.15937">
        <ele>74.3</ele>
        <time>2013-12-08T09:32:55Z</time>
      </trkpt>
      <trkpt lat="49.70276" lon="3.15969">
        <ele>73.51</ele>
        <time>2013-12-08T09:33:00Z</time>
      </trkpt>
      <trkpt lat="49.70289" lon="3.16">
        <ele>73</ele>
        <time>2013-12-08T09:33:05Z</time>
      </trkpt>
      <trkpt lat="49.70285" lon="3.16034">
        <ele>73.17</ele>
        <time>2013-12-08T09:33:19Z</time>
      </trkpt>
      <trkpt lat="49.70267" lon="3.16048">
        <ele>73.12</ele>
        <time>2013-12-08T09:33:29Z</time>
      </trkpt>
      <trkpt lat="49.70245" lon="3.16069">
        <ele>73.08</ele>
        <time>2013-12-08T09:33:43Z</time>
      </trkpt>
      <trkpt lat="49.70223" lon="3.16087">
        <ele>73.35</ele>
        <time>2013-12-08T09:33:56Z</time>
      </trkpt>
      <trkpt lat="49.70202" lon="3.16109">
        <ele>73.7</ele>
        <time>2013-12-08T09:34:09Z</time>
      </trkpt>
      <trkpt lat="49.70184" lon="3.16127">
        <ele>73.9</ele>
        <time>2013-12-08T09:34:19Z</time>
      </trkpt>
      <trkpt lat="49.70161" lon="3.16147">
        <ele>74.14</ele>
        <time>2013-12-08T09:34:32Z</time>
      </trkpt>
      <trkpt lat="49.70143" lon="3.16158">
        <ele>74.57</ele>
        <time>2013-12-08T09:34:41Z</time>
      </trkpt>
      <trkpt lat="49.70125" lon="3.16172">
        <ele>75.04</ele>
        <time>2013-12-08T09:34:50Z</time>
      </trkpt>
      <trkpt lat="49.70106" lon="3.16185">
        <ele>75.41</ele>
        <time>2013-12-08T09:34:59Z</time>
      </trkpt>
      <trkpt lat="49.70088" lon="3.16198">
        <ele>75.58</ele>
        <time>2013-12-08T09:35:08Z</time>
      </trkpt>
      <trkpt lat="49.70065" lon="3.16213">
        <ele>75.89</ele>
        <time>2013-12-08T09:35:18Z</time>
      </trkpt>
      <trkpt lat="49.70046" lon="3.16231">
        <ele>76.12</ele>
        <time>2013-12-08T09:35:27Z</time>
      </trkpt>
      <trkpt lat="49.70028" lon="3.16259">
        <ele>76.51</ele>
        <time>2013-12-08T09:35:37Z</time>
      </trkpt>
      <trkpt lat="49.70014" lon="3.16281">
        <ele>76.98</ele>
        <time>2013-12-08T09:35:45Z</time>
      </trkpt>
      <trkpt lat="49.7" lon="3.16303">
        <ele>77</ele>
        <time>2013-12-08T09:35:54Z</time>
      </trkpt>
      <trkpt lat="49.69984" lon="3.16318">
        <ele>77.07</ele>
        <time>2013-12-08T09:36:03Z</time>
      </trkpt>
      <trkpt lat="49.69968" lon="3.16333">
        <ele>77</ele>
        <time>2013-12-08T09:36:13Z</time>
      </trkpt>
      <trkpt lat="49.69943" lon="3.1635">
        <ele>76.85</ele>
        <time>2013-12-08T09:36:26Z</time>
      </trkpt>
      <trkpt lat="49.69924" lon="3.16359">
        <ele>76.5</ele>
        <time>2013-12-08T09:36:35Z</time>
      </trkpt>
      <trkpt lat="49.69906" lon="3.16367">
        <ele>76.32</ele>
        <time>2013-12-08T09:36:44Z</time>
      </trkpt>
      <trkpt lat="49.69888" lon="3.16376">
        <ele>76.32</ele>
        <time>2013-12-08T09:36:53Z</time>
      </trkpt>
      <trkpt lat="49.6987" lon="3.16385">
        <ele>76.32</ele>
        <time>2013-12-08T09:37:02Z</time>
      </trkpt>
      <trkpt lat="49.6985" lon="3.16397">
        <ele>76.29</ele>
        <time>2013-12-08T09:37:12Z</time>
      </trkpt>
      <trkpt lat="49.69831" lon="3.16403">
        <ele>76.38</ele>
        <time>2013-12-08T09:37:21Z</time>
      </trkpt>
      <trkpt lat="49.69805" lon="3.16415">
        <ele>76.72</ele>
        <time>2013-12-08T09:37:31Z</time>
      </trkpt>
      <trkpt lat="49.69779" lon="3.16427">
        <ele>77.19</ele>
        <time>2013-12-08T09:37:41Z</time>
      </trkpt>
      <trkpt lat="49.69759" lon="3.16438">
        <ele>77.53</ele>
        <time>2013-12-08T09:37:50Z</time>
      </trkpt>
      <trkpt lat="49.69756" lon="3.1647">
        <ele>77.22</ele>
        <time>2013-12-08T09:38:04Z</time>
      </trkpt>
      <trkpt lat="49.69773" lon="3.16513">
        <ele>76.66</ele>
        <time>2013-12-08T09:38:14Z</time>
      </trkpt>
      <trkpt lat="49.69783" lon="3.16539">
        <ele>76.86</ele>
        <time>2013-12-08T09:38:19Z</time>
      </trkpt>
      <trkpt lat="49.69792" lon="3.16566">
        <ele>77.18</ele>
        <time>2013-12-08T09:38:24Z</time>
      </trkpt>
      <trkpt lat="49.69799" lon="3.16595">
        <ele>77.57</ele>
        <time>2013-12-08T09:38:29Z</time>
      </trkpt>
      <trkpt lat="49.69808" lon="3.16647">
        <ele>78.37</ele>
        <time>2013-12-08T09:38:38Z</time>
      </trkpt>
      <trkpt lat="49.69808" lon="3.16683">
        <ele>79.26</ele>
        <time>2013-12-08T09:38:47Z</time>
      </trkpt>
      <trkpt lat="49.69789" lon="3.16696">
        <ele>79.72</ele>
        <time>2013-12-08T09:38:57Z</time>
      </trkpt>
      <trkpt lat="49.69765" lon="3.16703">
        <ele>80.1</ele>
        <time>2013-12-08T09:39:07Z</time>
      </trkpt>
      <trkpt lat="49.69747" lon="3.16707">
        <ele>80.62</ele>
        <time>2013-12-08T09:39:15Z</time>
      </trkpt>
      <trkpt lat="49.69725" lon="3.1672">
        <ele>82.72</ele>
        <time>2013-12-08T09:39:25Z</time>
      </trkpt>
      <trkpt lat="49.69707" lon="3.16725">
        <ele>84.1</ele>
        <time>2013-12-08T09:39:33Z</time>
      </trkpt>
      <trkpt lat="49.69686" lon="3.16729">
        <ele>85.53</ele>
        <time>2013-12-08T09:39:43Z</time>
      </trkpt>
      <trkpt lat="49.69661" lon="3.16735">
        <ele>87.39</ele>
        <time>2013-12-08T09:39:57Z</time>
      </trkpt>
      <trkpt lat="49.69642" lon="3.16739">
        <ele>88.62</ele>
        <time>2013-12-08T09:40:07Z</time>
      </trkpt>
      <trkpt lat="49.69622" lon="3.16741">
        <ele>89.76</ele>
        <time>2013-12-08T09:40:17Z</time>
      </trkpt>
      <trkpt lat="49.69597" lon="3.1675">
        <ele>91.33</ele>
        <time>2013-12-08T09:40:31Z</time>
      </trkpt>
      <trkpt lat="49.69578" lon="3.16764">
        <ele>92.31</ele>
        <time>2013-12-08T09:40:40Z</time>
      </trkpt>
      <trkpt lat="49.69553" lon="3.16787">
        <ele>93.83</ele>
        <time>2013-12-08T09:40:50Z</time>
      </trkpt>
      <trkpt lat="49.69527" lon="3.16809">
        <ele>95.41</ele>
        <time>2013-12-08T09:40:59Z</time>
      </trkpt>
      <trkpt lat="49.6951" lon="3.16824">
        <ele>96.43</ele>
        <time>2013-12-08T09:41:08Z</time>
      </trkpt>
      <trkpt lat="49.69491" lon="3.16839">
        <ele>97.82</ele>
        <time>2013-12-08T09:41:23Z</time>
      </trkpt>
      <trkpt lat="49.69465" lon="3.1683">
        <ele>99.53</ele>
        <time>2013-12-08T09:41:56Z</time>
      </trkpt>
      <trkpt lat="49.69445" lon="3.16824">
        <ele>101.06</ele>
        <time>2013-12-08T09:42:11Z</time>
      </trkpt>
      <trkpt lat="49.6942" lon="3.16814">
        <ele>103</ele>
        <time>2013-12-08T09:42:20Z</time>
      </trkpt>
      <trkpt lat="49.69399" lon="3.16808">
        <ele>103.94</ele>
        <time>2013-12-08T09:42:28Z</time>
      </trkpt>
      <trkpt lat="49.69377" lon="3.16805">
        <ele>104.77</ele>
        <time>2013-12-08T09:42:38Z</time>
      </trkpt>
      <trkpt lat="49.69361" lon="3.16823">
        <ele>105.14</ele>
        <time>2013-12-08T09:42:51Z</time>
      </trkpt>
      <trkpt lat="49.69342" lon="3.16823">
        <ele>105.82</ele>
        <time>2013-12-08T09:43:01Z</time>
      </trkpt>
      <trkpt lat="49.69324" lon="3.16823">
        <ele>106.33</ele>
        <time>2013-12-08T09:43:11Z</time>
      </trkpt>
      <trkpt lat="49.69305" lon="3.1683">
        <ele>106.69</ele>
        <time>2013-12-08T09:43:30Z</time>
      </trkpt>
      <trkpt lat="49.69287" lon="3.16819">
        <ele>107.09</ele>
        <time>2013-12-08T09:43:54Z</time>
      </trkpt>
      <trkpt lat="49.69262" lon="3.16815">
        <ele>107.56</ele>
        <time>2013-12-08T09:44:08Z</time>
      </trkpt>
      <trkpt lat="49.69238" lon="3.16816">
        <ele>108.05</ele>
        <time>2013-12-08T09:44:23Z</time>
      </trkpt>
      <trkpt lat="49.69213" lon="3.16812">
        <ele>108.52</ele>
        <time>2013-12-08T09:44:37Z</time>
      </trkpt>
      <trkpt lat="49.69194" lon="3.16813">
        <ele>108.93</ele>
        <time>2013-12-08T09:44:51Z</time>
      </trkpt>
      <trkpt lat="49.69173" lon="3.16813">
        <ele>109.39</ele>
        <time>2013-12-08T09:45:10Z</time>
      </trkpt>
      <trkpt lat="49.69151" lon="3.16808">
        <ele>109.2</ele>
        <time>2013-12-08T09:45:20Z</time>
      </trkpt>
      <trkpt lat="49.69129" lon="3.1681">
        <ele>108.98</ele>
        <time>2013-12-08T09:45:30Z</time>
      </trkpt>
      <trkpt lat="49.6911" lon="3.16812">
        <ele>108.8</ele>
        <time>2013-12-08T09:45:39Z</time>
      </trkpt>
      <trkpt lat="49.69091" lon="3.16806">
        <ele>108.43</ele>
        <time>2013-12-08T09:46:13Z</time>
      </trkpt>
      <trkpt lat="49.69068" lon="3.16804">
        <ele>107.19</ele>
        <time>2013-12-08T09:46:32Z</time>
      </trkpt>
      <trkpt lat="49.69045" lon="3.16795">
        <ele>105.28</ele>
        <time>2013-12-08T09:46:47Z</time>
      </trkpt>
      <trkpt lat="49.69027" lon="3.16783">
        <ele>103.75</ele>
        <time>2013-12-08T09:47:37Z</time>
      </trkpt>
      <trkpt lat="49.69007" lon="3.16782">
        <ele>102.28</ele>
        <time>2013-12-08T09:48:14Z</time>
      </trkpt>
      <trkpt lat="49.68989" lon="3.16769">
        <ele>101.56</ele>
        <time>2013-12-08T09:48:33Z</time>
      </trkpt>
      <trkpt lat="49.68965" lon="3.16759">
        <ele>101.6</ele>
        <time>2013-12-08T09:49:29Z</time>
      </trkpt>
      <trkpt lat="49.68944" lon="3.16762">
        <ele>101.86</ele>
        <time>2013-12-08T09:50:07Z</time>
      </trkpt>
      <trkpt lat="49.68925" lon="3.16758">
        <ele>102.01</ele>
        <time>2013-12-08T09:50:30Z</time>
      </trkpt>
      <trkpt lat="49.68902" lon="3.16757">
        <ele>101.76</ele>
        <time>2013-12-08T09:50:44Z</time>
      </trkpt>
      <trkpt lat="49.68883" lon="3.16755">
        <ele>101.31</ele>
        <time>2013-12-08T09:50:54Z</time>
      </trkpt>
      <trkpt lat="49.68859" lon="3.1675">
        <ele>100.59</ele>
        <time>2013-12-08T09:51:03Z</time>
      </trkpt>
      <trkpt lat="49.68838" lon="3.16751">
        <ele>100.17</ele>
        <time>2013-12-08T09:51:51Z</time>
      </trkpt>
      <trkpt lat="49.6883" lon="3.16783">
        <ele>101.55</ele>
        <time>2013-12-08T09:52:06Z</time>
      </trkpt>
      <trkpt lat="49.6882" lon="3.16815">
        <ele>103.03</ele>
        <time>2013-12-08T09:52:20Z</time>
      </trkpt>
      <trkpt lat="49.68813" lon="3.16846">
        <ele>104.73</ele>
        <time>2013-12-08T09:52:35Z</time>
      </trkpt>
      <trkpt lat="49.68805" lon="3.16878">
        <ele>106.86</ele>
        <time>2013-12-08T09:52:49Z</time>
      </trkpt>
      <trkpt lat="49.68794" lon="3.16907">
        <ele>109.19</ele>
        <time>2013-12-08T09:53:02Z</time>
      </trkpt>
      <trkpt lat="49.68785" lon="3.16941">
        <ele>111.72</ele>
        <time>2013-12-08T09:53:17Z</time>
      </trkpt>
      <trkpt lat="49.68783" lon="3.16974">
        <ele>113.68</ele>
        <time>2013-12-08T09:53:50Z</time>
      </trkpt>
      <trkpt lat="49.68772" lon="3.16996">
        <ele>115.93</ele>
        <time>2013-12-08T09:54:18Z</time>
      </trkpt>
      <trkpt lat="49.68755" lon="3.17006">
        <ele>117.9</ele>
        <time>2013-12-08T09:54:37Z</time>
      </trkpt>
      <trkpt lat="49.68735" lon="3.17">
        <ele>119.69</ele>
        <time>2013-12-08T09:54:56Z</time>
      </trkpt>
      <trkpt lat="49.68714" lon="3.16987">
        <ele>120.95</ele>
        <time>2013-12-08T09:55:15Z</time>
      </trkpt>
      <trkpt lat="49.68693" lon="3.16983">
        <ele>122.79</ele>
        <time>2013-12-08T09:55:30Z</time>
      </trkpt>
      <trkpt lat="49.68669" lon="3.16972">
        <ele>124.34</ele>
        <time>2013-12-08T09:55:49Z</time>
      </trkpt>
      <trkpt lat="49.68651" lon="3.16963">
        <ele>125.59</ele>
        <time>2013-12-08T09:55:59Z</time>
      </trkpt>
      <trkpt lat="49.68629" lon="3.1696">
        <ele>127.69</ele>
        <time>2013-12-08T09:56:13Z</time>
      </trkpt>
      <trkpt lat="49.68609" lon="3.16956">
        <ele>129.52</ele>
        <time>2013-12-08T09:56:23Z</time>
      </trkpt>
      <trkpt lat="49.6859" lon="3.16951">
        <ele>131.39</ele>
        <time>2013-12-08T09:56:32Z</time>
      </trkpt>
      <trkpt lat="49.68572" lon="3.16946">
        <ele>133.41</ele>
        <time>2013-12-08T09:56:42Z</time>
      </trkpt>
      <trkpt lat="49.68554" lon="3.16943">
        <ele>135.85</ele>
        <time>2013-12-08T09:56:51Z</time>
      </trkpt>
      <trkpt lat="49.68536" lon="3.16935">
        <ele>138</ele>
        <time>2013-12-08T09:57:01Z</time>
      </trkpt>
      <trkpt lat="49.68517" lon="3.16928">
        <ele>140.27</ele>
        <time>2013-12-08T09:57:11Z</time>
      </trkpt>
      <trkpt lat="49.68489" lon="3.16919">
        <ele>142.67</ele>
        <time>2013-12-08T09:57:25Z</time>
      </trkpt>
      <trkpt lat="49.68469" lon="3.16915">
        <ele>143.27</ele>
        <time>2013-12-08T09:57:35Z</time>
      </trkpt>
      <trkpt lat="49.6845" lon="3.16908">
        <ele>143.65</ele>
        <time>2013-12-08T09:57:49Z</time>
      </trkpt>
      <trkpt lat="49.6843" lon="3.16905">
        <ele>144.64</ele>
        <time>2013-12-08T09:58:03Z</time>
      </trkpt>
      <trkpt lat="49.68411" lon="3.16924">
        <ele>146.42</ele>
        <time>2013-12-08T09:58:18Z</time>
      </trkpt>
      <trkpt lat="49.68396" lon="3.16942">
        <ele>147.54</ele>
        <time>2013-12-08T09:58:32Z</time>
      </trkpt>
      <trkpt lat="49.6838" lon="3.1697">
        <ele>149.21</ele>
        <time>2013-12-08T09:58:47Z</time>
      </trkpt>
      <trkpt lat="49.68381" lon="3.16998">
        <ele>150.88</ele>
        <time>2013-12-08T10:00:29Z</time>
      </trkpt>
      <trkpt lat="49.68389" lon="3.17025">
        <ele>151.49</ele>
        <time>2013-12-08T10:00:43Z</time>
      </trkpt>
      <trkpt lat="49.68408" lon="3.17058">
        <ele>152.32</ele>
        <time>2013-12-08T10:00:57Z</time>
      </trkpt>
      <trkpt lat="49.68418" lon="3.17082">
        <ele>152.85</ele>
        <time>2013-12-08T10:01:02Z</time>
      </trkpt>
      <trkpt lat="49.68432" lon="3.17112">
        <ele>149.73</ele>
        <time>2013-12-08T10:01:11Z</time>
      </trkpt>
      <trkpt lat="49.6845" lon="3.17152">
        <ele>145.56</ele>
        <time>2013-12-08T10:01:25Z</time>
      </trkpt>
      <trkpt lat="49.68469" lon="3.17186">
        <ele>141.84</ele>
        <time>2013-12-08T10:01:35Z</time>
      </trkpt>
      <trkpt lat="49.68483" lon="3.17212">
        <ele>138.73</ele>
        <time>2013-12-08T10:01:44Z</time>
      </trkpt>
      <trkpt lat="49.68497" lon="3.17241">
        <ele>135.16</ele>
        <time>2013-12-08T10:01:54Z</time>
      </trkpt>
      <trkpt lat="49.68512" lon="3.17271">
        <ele>132.27</ele>
        <time>2013-12-08T10:02:03Z</time>
      </trkpt>
      <trkpt lat="49.68529" lon="3.173">
        <ele>130.41</ele>
        <time>2013-12-08T10:02:18Z</time>
      </trkpt>
      <trkpt lat="49.68546" lon="3.17323">
        <ele>129.18</ele>
        <time>2013-12-08T10:02:32Z</time>
      </trkpt>
      <trkpt lat="49.68565" lon="3.17337">
        <ele>128.08</ele>
        <time>2013-12-08T10:02:42Z</time>
      </trkpt>
      <trkpt lat="49.68585" lon="3.17352">
        <ele>126.67</ele>
        <time>2013-12-08T10:02:56Z</time>
      </trkpt>
      <trkpt lat="49.68609" lon="3.17369">
        <ele>125.43</ele>
        <time>2013-12-08T10:03:05Z</time>
      </trkpt>
      <trkpt lat="49.68634" lon="3.17389">
        <ele>124.5</ele>
        <time>2013-12-08T10:03:14Z</time>
      </trkpt>
      <trkpt lat="49.68666" lon="3.17409">
        <ele>123.85</ele>
        <time>2013-12-08T10:03:23Z</time>
      </trkpt>
      <trkpt lat="49.68696" lon="3.17422">
        <ele>123.27</ele>
        <time>2013-12-08T10:03:32Z</time>
      </trkpt>
      <trkpt lat="49.68722" lon="3.17428">
        <ele>122.72</ele>
        <time>2013-12-08T10:03:42Z</time>
      </trkpt>
      <trkpt lat="49.68739" lon="3.17449">
        <ele>122.55</ele>
        <time>2013-12-08T10:04:19Z</time>
      </trkpt>
      <trkpt lat="49.68722" lon="3.17479">
        <ele>122.92</ele>
        <time>2013-12-08T10:04:33Z</time>
      </trkpt>
      <trkpt lat="49.68698" lon="3.17524">
        <ele>122.54</ele>
        <time>2013-12-08T10:04:43Z</time>
      </trkpt>
      <trkpt lat="49.68684" lon="3.17559">
        <ele>121.73</ele>
        <time>2013-12-08T10:04:51Z</time>
      </trkpt>
      <trkpt lat="49.68665" lon="3.17581">
        <ele>121.08</ele>
        <time>2013-12-08T10:05:00Z</time>
      </trkpt>
      <trkpt lat="49.68663" lon="3.1761">
        <ele>119.47</ele>
        <time>2013-12-08T10:05:09Z</time>
      </trkpt>
      <trkpt lat="49.68666" lon="3.17654">
        <ele>116.76</ele>
        <time>2013-12-08T10:05:19Z</time>
      </trkpt>
      <trkpt lat="49.68661" lon="3.17683">
        <ele>115.35</ele>
        <time>2013-12-08T10:05:33Z</time>
      </trkpt>
      <trkpt lat="49.68643" lon="3.17683">
        <ele>115.14</ele>
        <time>2013-12-08T10:05:47Z</time>
      </trkpt>
      <trkpt lat="49.6862" lon="3.1768">
        <ele>114.95</ele>
        <time>2013-12-08T10:06:00Z</time>
      </trkpt>
      <trkpt lat="49.68601" lon="3.17677">
        <ele>114.83</ele>
        <time>2013-12-08T10:06:09Z</time>
      </trkpt>
      <trkpt lat="49.6858" lon="3.17672">
        <ele>114.85</ele>
        <time>2013-12-08T10:06:19Z</time>
      </trkpt>
      <trkpt lat="49.68565" lon="3.17656">
        <ele>116.4</ele>
        <time>2013-12-08T10:06:29Z</time>
      </trkpt>
      <trkpt lat="49.68541" lon="3.17635">
        <ele>119.54</ele>
        <time>2013-12-08T10:06:43Z</time>
      </trkpt>
      <trkpt lat="49.68516" lon="3.17624">
        <ele>122</ele>
        <time>2013-12-08T10:06:53Z</time>
      </trkpt>
      <trkpt lat="49.68492" lon="3.17617">
        <ele>123.75</ele>
        <time>2013-12-08T10:07:02Z</time>
      </trkpt>
      <trkpt lat="49.68471" lon="3.17606">
        <ele>125.49</ele>
        <time>2013-12-08T10:07:12Z</time>
      </trkpt>
      <trkpt lat="49.68448" lon="3.17593">
        <ele>127.49</ele>
        <time>2013-12-08T10:07:26Z</time>
      </trkpt>
      <trkpt lat="49.68426" lon="3.17568">
        <ele>130.9</ele>
        <time>2013-12-08T10:07:39Z</time>
      </trkpt>
      <trkpt lat="49.68404" lon="3.17547">
        <ele>134.2</ele>
        <time>2013-12-08T10:07:49Z</time>
      </trkpt>
      <trkpt lat="49.68378" lon="3.17544">
        <ele>135.41</ele>
        <time>2013-12-08T10:07:59Z</time>
      </trkpt>
      <trkpt lat="49.68355" lon="3.17533">
        <ele>137.47</ele>
        <time>2013-12-08T10:08:13Z</time>
      </trkpt>
      <trkpt lat="49.68334" lon="3.17512">
        <ele>140.61</ele>
        <time>2013-12-08T10:08:27Z</time>
      </trkpt>
      <trkpt lat="49.68315" lon="3.17488">
        <ele>141.57</ele>
        <time>2013-12-08T10:08:42Z</time>
      </trkpt>
      <trkpt lat="49.68294" lon="3.1747">
        <ele>141.78</ele>
        <time>2013-12-08T10:08:56Z</time>
      </trkpt>
      <trkpt lat="49.68277" lon="3.1745">
        <ele>142.69</ele>
        <time>2013-12-08T10:09:11Z</time>
      </trkpt>
      <trkpt lat="49.68259" lon="3.17429">
        <ele>143.98</ele>
        <time>2013-12-08T10:09:25Z</time>
      </trkpt>
      <trkpt lat="49.68238" lon="3.17407">
        <ele>145.41</ele>
        <time>2013-12-08T10:09:35Z</time>
      </trkpt>
      <trkpt lat="49.68214" lon="3.17393">
        <ele>146.09</ele>
        <time>2013-12-08T10:09:49Z</time>
      </trkpt>
      <trkpt lat="49.68196" lon="3.1738">
        <ele>146.93</ele>
        <time>2013-12-08T10:09:59Z</time>
      </trkpt>
      <trkpt lat="49.68179" lon="3.17372">
        <ele>147.42</ele>
        <time>2013-12-08T10:10:08Z</time>
      </trkpt>
      <trkpt lat="49.68157" lon="3.17375">
        <ele>146.81</ele>
        <time>2013-12-08T10:10:18Z</time>
      </trkpt>
      <trkpt lat="49.68138" lon="3.17374">
        <ele>146.43</ele>
        <time>2013-12-08T10:10:32Z</time>
      </trkpt>
      <trkpt lat="49.68113" lon="3.17366">
        <ele>146.32</ele>
        <time>2013-12-08T10:11:19Z</time>
      </trkpt>
      <trkpt lat="49.68088" lon="3.17364">
        <ele>145.7</ele>
        <time>2013-12-08T10:11:32Z</time>
      </trkpt>
      <trkpt lat="49.68065" lon="3.17368">
        <ele>145.73</ele>
        <time>2013-12-08T10:11:42Z</time>
      </trkpt>
      <trkpt lat="49.68041" lon="3.17366">
        <ele>146.34</ele>
        <time>2013-12-08T10:11:51Z</time>
      </trkpt>
      <trkpt lat="49.68012" lon="3.17356">
        <ele>147.23</ele>
        <time>2013-12-08T10:12:01Z</time>
      </trkpt>
      <trkpt lat="49.6798" lon="3.17358">
        <ele>146.69</ele>
        <time>2013-12-08T10:12:11Z</time>
      </trkpt>
      <trkpt lat="49.67947" lon="3.1735">
        <ele>145.94</ele>
        <time>2013-12-08T10:12:20Z</time>
      </trkpt>
      <trkpt lat="49.6793" lon="3.17338">
        <ele>146.09</ele>
        <time>2013-12-08T10:12:25Z</time>
      </trkpt>
      <trkpt lat="49.67896" lon="3.17307">
        <ele>141.63</ele>
        <time>2013-12-08T10:12:35Z</time>
      </trkpt>
      <trkpt lat="49.67875" lon="3.17303">
        <ele>139.13</ele>
        <time>2013-12-08T10:12:39Z</time>
      </trkpt>
      <trkpt lat="49.67845" lon="3.17295">
        <ele>135.76</ele>
        <time>2013-12-08T10:12:44Z</time>
      </trkpt>
      <trkpt lat="49.67816" lon="3.17284">
        <ele>132.65</ele>
        <time>2013-12-08T10:12:49Z</time>
      </trkpt>
      <trkpt lat="49.67788" lon="3.17269">
        <ele>129.92</ele>
        <time>2013-12-08T10:12:54Z</time>
      </trkpt>
      <trkpt lat="49.67765" lon="3.17257">
        <ele>128.08</ele>
        <time>2013-12-08T10:12:58Z</time>
      </trkpt>
      <trkpt lat="49.67746" lon="3.17239">
        <ele>126.69</ele>
        <time>2013-12-08T10:13:03Z</time>
      </trkpt>
      <trkpt lat="49.67725" lon="3.17214">
        <ele>126.1</ele>
        <time>2013-12-08T10:13:08Z</time>
      </trkpt>
      <trkpt lat="49.67704" lon="3.17195">
        <ele>125.86</ele>
        <time>2013-12-08T10:13:13Z</time>
      </trkpt>
      <trkpt lat="49.67678" lon="3.1718">
        <ele>125.91</ele>
        <time>2013-12-08T10:13:18Z</time>
      </trkpt>
      <trkpt lat="49.67654" lon="3.1717">
        <ele>124.94</ele>
        <time>2013-12-08T10:13:23Z</time>
      </trkpt>
      <trkpt lat="49.67635" lon="3.17163">
        <ele>123.06</ele>
        <time>2013-12-08T10:13:27Z</time>
      </trkpt>
      <trkpt lat="49.6761" lon="3.17159">
        <ele>120.68</ele>
        <time>2013-12-08T10:13:32Z</time>
      </trkpt>
      <trkpt lat="49.67588" lon="3.17154">
        <ele>118.52</ele>
        <time>2013-12-08T10:13:37Z</time>
      </trkpt>
      <trkpt lat="49.67571" lon="3.17145">
        <ele>116.26</ele>
        <time>2013-12-08T10:13:41Z</time>
      </trkpt>
      <trkpt lat="49.67525" lon="3.17127">
        <ele>110.85</ele>
        <time>2013-12-08T10:13:50Z</time>
      </trkpt>
      <trkpt lat="49.67492" lon="3.17117">
        <ele>107.33</ele>
        <time>2013-12-08T10:13:55Z</time>
      </trkpt>
      <trkpt lat="49.67462" lon="3.17111">
        <ele>104.28</ele>
        <time>2013-12-08T10:14:00Z</time>
      </trkpt>
      <trkpt lat="49.67436" lon="3.17121">
        <ele>102.57</ele>
        <time>2013-12-08T10:14:05Z</time>
      </trkpt>
      <trkpt lat="49.67417" lon="3.17119">
        <ele>100.69</ele>
        <time>2013-12-08T10:15:01Z</time>
      </trkpt>
      <trkpt lat="49.67412" lon="3.17074">
        <ele>97.66</ele>
        <time>2013-12-08T10:15:20Z</time>
      </trkpt>
      <trkpt lat="49.67425" lon="3.17035">
        <ele>96.33</ele>
        <time>2013-12-08T10:15:29Z</time>
      </trkpt>
      <trkpt lat="49.67449" lon="3.16994">
        <ele>95.85</ele>
        <time>2013-12-08T10:15:38Z</time>
      </trkpt>
      <trkpt lat="49.67467" lon="3.16968">
        <ele>95.11</ele>
        <time>2013-12-08T10:15:43Z</time>
      </trkpt>
      <trkpt lat="49.67496" lon="3.16945">
        <ele>95.71</ele>
        <time>2013-12-08T10:15:51Z</time>
      </trkpt>
      <trkpt lat="49.67512" lon="3.16924">
        <ele>94.11</ele>
        <time>2013-12-08T10:15:56Z</time>
      </trkpt>
      <trkpt lat="49.67527" lon="3.16873">
        <ele>89.64</ele>
        <time>2013-12-08T10:16:01Z</time>
      </trkpt>
      <trkpt lat="49.67533" lon="3.16816">
        <ele>85.28</ele>
        <time>2013-12-08T10:16:06Z</time>
      </trkpt>
      <trkpt lat="49.67535" lon="3.16749">
        <ele>81.88</ele>
        <time>2013-12-08T10:16:11Z</time>
      </trkpt>
      <trkpt lat="49.67546" lon="3.16706">
        <ele>82.88</ele>
        <time>2013-12-08T10:16:15Z</time>
      </trkpt>
      <trkpt lat="49.67572" lon="3.1668">
        <ele>83.68</ele>
        <time>2013-12-08T10:16:20Z</time>
      </trkpt>
      <trkpt lat="49.67594" lon="3.16651">
        <ele>84.77</ele>
        <time>2013-12-08T10:16:30Z</time>
      </trkpt>
      <trkpt lat="49.67612" lon="3.1662">
        <ele>86.17</ele>
        <time>2013-12-08T10:16:39Z</time>
      </trkpt>
      <trkpt lat="49.67631" lon="3.16594">
        <ele>87.25</ele>
        <time>2013-12-08T10:16:49Z</time>
      </trkpt>
      <trkpt lat="49.67641" lon="3.1657">
        <ele>88</ele>
        <time>2013-12-08T10:16:59Z</time>
      </trkpt>
      <trkpt lat="49.67656" lon="3.16548">
        <ele>88.46</ele>
        <time>2013-12-08T10:17:08Z</time>
      </trkpt>
      <trkpt lat="49.67673" lon="3.16519">
        <ele>89.21</ele>
        <time>2013-12-08T10:17:17Z</time>
      </trkpt>
      <trkpt lat="49.67688" lon="3.1649">
        <ele>90.16</ele>
        <time>2013-12-08T10:17:26Z</time>
      </trkpt>
      <trkpt lat="49.67705" lon="3.16465">
        <ele>90.52</ele>
        <time>2013-12-08T10:17:36Z</time>
      </trkpt>
      <trkpt lat="49.67726" lon="3.16439">
        <ele>90.47</ele>
        <time>2013-12-08T10:17:50Z</time>
      </trkpt>
      <trkpt lat="49.67739" lon="3.16421">
        <ele>90.03</ele>
        <time>2013-12-08T10:18:03Z</time>
      </trkpt>
      <trkpt lat="49.67754" lon="3.16394">
        <ele>90.18</ele>
        <time>2013-12-08T10:20:00Z</time>
      </trkpt>
      <trkpt lat="49.67773" lon="3.1637">
        <ele>91.23</ele>
        <time>2013-12-08T10:20:14Z</time>
      </trkpt>
      <trkpt lat="49.67785" lon="3.16342">
        <ele>92.06</ele>
        <time>2013-12-08T10:20:38Z</time>
      </trkpt>
      <trkpt lat="49.67788" lon="3.16311">
        <ele>92.65</ele>
        <time>2013-12-08T10:20:51Z</time>
      </trkpt>
      <trkpt lat="49.67786" lon="3.16281">
        <ele>93.06</ele>
        <time>2013-12-08T10:21:11Z</time>
      </trkpt>
      <trkpt lat="49.67782" lon="3.16245">
        <ele>93.18</ele>
        <time>2013-12-08T10:21:29Z</time>
      </trkpt>
      <trkpt lat="49.67765" lon="3.16221">
        <ele>91.66</ele>
        <time>2013-12-08T10:21:47Z</time>
      </trkpt>
      <trkpt lat="49.67748" lon="3.16211">
        <ele>90.7</ele>
        <time>2013-12-08T10:22:00Z</time>
      </trkpt>
      <trkpt lat="49.67729" lon="3.16198">
        <ele>92.07</ele>
        <time>2013-12-08T10:22:18Z</time>
      </trkpt>
      <trkpt lat="49.67709" lon="3.16188">
        <ele>93.59</ele>
        <time>2013-12-08T10:22:45Z</time>
      </trkpt>
      <trkpt lat="49.67691" lon="3.16181">
        <ele>95.02</ele>
        <time>2013-12-08T10:23:05Z</time>
      </trkpt>
      <trkpt lat="49.67673" lon="3.1617">
        <ele>96.5</ele>
        <time>2013-12-08T10:23:27Z</time>
      </trkpt>
      <trkpt lat="49.67656" lon="3.16159">
        <ele>97.27</ele>
        <time>2013-12-08T10:23:47Z</time>
      </trkpt>
      <trkpt lat="49.67638" lon="3.16135">
        <ele>97.53</ele>
        <time>2013-12-08T10:24:01Z</time>
      </trkpt>
      <trkpt lat="49.67625" lon="3.16112">
        <ele>97.52</ele>
        <time>2013-12-08T10:24:10Z</time>
      </trkpt>
      <trkpt lat="49.6761" lon="3.16088">
        <ele>97.45</ele>
        <time>2013-12-08T10:24:20Z</time>
      </trkpt>
      <trkpt lat="49.67596" lon="3.16064">
        <ele>97.49</ele>
        <time>2013-12-08T10:24:29Z</time>
      </trkpt>
      <trkpt lat="49.67575" lon="3.16029">
        <ele>97.45</ele>
        <time>2013-12-08T10:24:38Z</time>
      </trkpt>
      <trkpt lat="49.6756" lon="3.16013">
        <ele>97.44</ele>
        <time>2013-12-08T10:24:43Z</time>
      </trkpt>
      <trkpt lat="49.67528" lon="3.15986">
        <ele>97.72</ele>
        <time>2013-12-08T10:24:53Z</time>
      </trkpt>
      <trkpt lat="49.67502" lon="3.15956">
        <ele>98.49</ele>
        <time>2013-12-08T10:25:02Z</time>
      </trkpt>
      <trkpt lat="49.67477" lon="3.15923">
        <ele>100.82</ele>
        <time>2013-12-08T10:25:11Z</time>
      </trkpt>
      <trkpt lat="49.67454" lon="3.15896">
        <ele>102.88</ele>
        <time>2013-12-08T10:25:20Z</time>
      </trkpt>
      <trkpt lat="49.67448" lon="3.15861">
        <ele>103.55</ele>
        <time>2013-12-08T10:25:30Z</time>
      </trkpt>
      <trkpt lat="49.67443" lon="3.15813">
        <ele>104.12</ele>
        <time>2013-12-08T10:25:39Z</time>
      </trkpt>
      <trkpt lat="49.67437" lon="3.15776">
        <ele>104.45</ele>
        <time>2013-12-08T10:25:48Z</time>
      </trkpt>
      <trkpt lat="49.67437" lon="3.15739">
        <ele>104.64</ele>
        <time>2013-12-08T10:25:57Z</time>
      </trkpt>
      <trkpt lat="49.67437" lon="3.15694">
        <ele>106.05</ele>
        <time>2013-12-08T10:26:07Z</time>
      </trkpt>
      <trkpt lat="49.67437" lon="3.1565">
        <ele>107.42</ele>
        <time>2013-12-08T10:26:17Z</time>
      </trkpt>
      <trkpt lat="49.67444" lon="3.15609">
        <ele>108.34</ele>
        <time>2013-12-08T10:26:26Z</time>
      </trkpt>
      <trkpt lat="49.67465" lon="3.15572">
        <ele>108.6</ele>
        <time>2013-12-08T10:26:36Z</time>
      </trkpt>
      <trkpt lat="49.67486" lon="3.15538">
        <ele>109.55</ele>
        <time>2013-12-08T10:26:45Z</time>
      </trkpt>
      <trkpt lat="49.675" lon="3.15494">
        <ele>112.23</ele>
        <time>2013-12-08T10:26:55Z</time>
      </trkpt>
      <trkpt lat="49.67509" lon="3.15451">
        <ele>113.1</ele>
        <time>2013-12-08T10:27:03Z</time>
      </trkpt>
      <trkpt lat="49.67521" lon="3.15403">
        <ele>113.55</ele>
        <time>2013-12-08T10:27:13Z</time>
      </trkpt>
      <trkpt lat="49.67535" lon="3.15373">
        <ele>112.92</ele>
        <time>2013-12-08T10:27:21Z</time>
      </trkpt>
      <trkpt lat="49.67548" lon="3.15327">
        <ele>112.87</ele>
        <time>2013-12-08T10:27:31Z</time>
      </trkpt>
      <trkpt lat="49.67555" lon="3.15288">
        <ele>113.62</ele>
        <time>2013-12-08T10:27:39Z</time>
      </trkpt>
      <trkpt lat="49.67561" lon="3.15242">
        <ele>114.78</ele>
        <time>2013-12-08T10:27:49Z</time>
      </trkpt>
      <trkpt lat="49.6757" lon="3.15186">
        <ele>116.37</ele>
        <time>2013-12-08T10:27:59Z</time>
      </trkpt>
      <trkpt lat="49.67578" lon="3.15138">
        <ele>118.3</ele>
        <time>2013-12-08T10:28:08Z</time>
      </trkpt>
      <trkpt lat="49.67582" lon="3.15107">
        <ele>119.83</ele>
        <time>2013-12-08T10:28:17Z</time>
      </trkpt>
      <trkpt lat="49.67597" lon="3.15077">
        <ele>121.77</ele>
        <time>2013-12-08T10:31:33Z</time>
      </trkpt>
      <trkpt lat="49.67614" lon="3.15052">
        <ele>124.67</ele>
        <time>2013-12-08T10:31:48Z</time>
      </trkpt>
      <trkpt lat="49.67632" lon="3.15033">
        <ele>127.61</ele>
        <time>2013-12-08T10:32:06Z</time>
      </trkpt>
      <trkpt lat="49.67646" lon="3.1501">
        <ele>131.27</ele>
        <time>2013-12-08T10:32:20Z</time>
      </trkpt>
      <trkpt lat="49.6766" lon="3.14986">
        <ele>135.24</ele>
        <time>2013-12-08T10:32:35Z</time>
      </trkpt>
      <trkpt lat="49.67673" lon="3.14956">
        <ele>139.42</ele>
        <time>2013-12-08T10:32:57Z</time>
      </trkpt>
      <trkpt lat="49.67692" lon="3.14936">
        <ele>142.56</ele>
        <time>2013-12-08T10:33:15Z</time>
      </trkpt>
      <trkpt lat="49.67706" lon="3.14918">
        <ele>145.73</ele>
        <time>2013-12-08T10:33:33Z</time>
      </trkpt>
      <trkpt lat="49.67721" lon="3.149">
        <ele>147.38</ele>
        <time>2013-12-08T10:33:47Z</time>
      </trkpt>
      <trkpt lat="49.67739" lon="3.14883">
        <ele>149.1</ele>
        <time>2013-12-08T10:34:09Z</time>
      </trkpt>
      <trkpt lat="49.67758" lon="3.14863">
        <ele>150.51</ele>
        <time>2013-12-08T10:34:29Z</time>
      </trkpt>
      <trkpt lat="49.67773" lon="3.14841">
        <ele>151.16</ele>
        <time>2013-12-08T10:34:43Z</time>
      </trkpt>
      <trkpt lat="49.67791" lon="3.14816">
        <ele>150.92</ele>
        <time>2013-12-08T10:35:02Z</time>
      </trkpt>
      <trkpt lat="49.67796" lon="3.14789">
        <ele>150.56</ele>
        <time>2013-12-08T10:35:11Z</time>
      </trkpt>
      <trkpt lat="49.67798" lon="3.14755">
        <ele>150.19</ele>
        <time>2013-12-08T10:35:20Z</time>
      </trkpt>
      <trkpt lat="49.67801" lon="3.14717">
        <ele>150.37</ele>
        <time>2013-12-08T10:35:29Z</time>
      </trkpt>
      <trkpt lat="49.67795" lon="3.14678">
        <ele>151.19</ele>
        <time>2013-12-08T10:35:38Z</time>
      </trkpt>
      <trkpt lat="49.67792" lon="3.14642">
        <ele>151.5</ele>
        <time>2013-12-08T10:35:47Z</time>
      </trkpt>
      <trkpt lat="49.67799" lon="3.14606">
        <ele>151.19</ele>
        <time>2013-12-08T10:35:56Z</time>
      </trkpt>
      <trkpt lat="49.67821" lon="3.14568">
        <ele>151.14</ele>
        <time>2013-12-08T10:36:05Z</time>
      </trkpt>
      <trkpt lat="49.67838" lon="3.14533">
        <ele>152.1</ele>
        <time>2013-12-08T10:36:14Z</time>
      </trkpt>
      <trkpt lat="49.67857" lon="3.14493">
        <ele>152.11</ele>
        <time>2013-12-08T10:36:23Z</time>
      </trkpt>
      <trkpt lat="49.67873" lon="3.14462">
        <ele>151.56</ele>
        <time>2013-12-08T10:36:32Z</time>
      </trkpt>
      <trkpt lat="49.67885" lon="3.14422">
        <ele>151.75</ele>
        <time>2013-12-08T10:36:42Z</time>
      </trkpt>
      <trkpt lat="49.67891" lon="3.14386">
        <ele>152.42</ele>
        <time>2013-12-08T10:36:51Z</time>
      </trkpt>
      <trkpt lat="49.67896" lon="3.14346">
        <ele>153.16</ele>
        <time>2013-12-08T10:37:01Z</time>
      </trkpt>
      <trkpt lat="49.679" lon="3.14317">
        <ele>153.23</ele>
        <time>2013-12-08T10:37:06Z</time>
      </trkpt>
      <trkpt lat="49.67906" lon="3.14289">
        <ele>152.86</ele>
        <time>2013-12-08T10:37:11Z</time>
      </trkpt>
      <trkpt lat="49.67911" lon="3.14242">
        <ele>152.45</ele>
        <time>2013-12-08T10:37:20Z</time>
      </trkpt>
      <trkpt lat="49.67913" lon="3.14197">
        <ele>152.26</ele>
        <time>2013-12-08T10:37:30Z</time>
      </trkpt>
      <trkpt lat="49.67907" lon="3.1417">
        <ele>152.62</ele>
        <time>2013-12-08T10:37:59Z</time>
      </trkpt>
      <trkpt lat="49.67896" lon="3.14143">
        <ele>152.83</ele>
        <time>2013-12-08T10:40:53Z</time>
      </trkpt>
      <trkpt lat="49.67894" lon="3.14113">
        <ele>152.37</ele>
        <time>2013-12-08T10:46:02Z</time>
      </trkpt>
      <trkpt lat="49.67879" lon="3.14064">
        <ele>151.62</ele>
        <time>2013-12-08T10:46:12Z</time>
      </trkpt>
      <trkpt lat="49.67868" lon="3.1403">
        <ele>150.94</ele>
        <time>2013-12-08T10:46:22Z</time>
      </trkpt>
      <trkpt lat="49.67868" lon="3.13998">
        <ele>149.87</ele>
        <time>2013-12-08T10:46:46Z</time>
      </trkpt>
      <trkpt lat="49.67893" lon="3.13975">
        <ele>148.04</ele>
        <time>2013-12-08T10:47:01Z</time>
      </trkpt>
      <trkpt lat="49.67917" lon="3.13958">
        <ele>146.49</ele>
        <time>2013-12-08T10:47:06Z</time>
      </trkpt>
      <trkpt lat="49.67936" lon="3.13945">
        <ele>144.72</ele>
        <time>2013-12-08T10:47:11Z</time>
      </trkpt>
      <trkpt lat="49.67969" lon="3.13913">
        <ele>141.24</ele>
        <time>2013-12-08T10:47:20Z</time>
      </trkpt>
      <trkpt lat="49.67989" lon="3.13906">
        <ele>138.82</ele>
        <time>2013-12-08T10:47:25Z</time>
      </trkpt>
      <trkpt lat="49.68009" lon="3.13916">
        <ele>137.83</ele>
        <time>2013-12-08T10:47:29Z</time>
      </trkpt>
      <trkpt lat="49.68033" lon="3.13926">
        <ele>135.02</ele>
        <time>2013-12-08T10:47:34Z</time>
      </trkpt>
      <trkpt lat="49.68052" lon="3.13922">
        <ele>132.65</ele>
        <time>2013-12-08T10:47:38Z</time>
      </trkpt>
      <trkpt lat="49.68072" lon="3.13903">
        <ele>129.44</ele>
        <time>2013-12-08T10:47:43Z</time>
      </trkpt>
      <trkpt lat="49.68093" lon="3.13891">
        <ele>125.98</ele>
        <time>2013-12-08T10:47:48Z</time>
      </trkpt>
      <trkpt lat="49.68099" lon="3.13856">
        <ele>123.22</ele>
        <time>2013-12-08T10:47:57Z</time>
      </trkpt>
      <trkpt lat="49.6808" lon="3.13831">
        <ele>123.95</ele>
        <time>2013-12-08T10:48:07Z</time>
      </trkpt>
      <trkpt lat="49.68064" lon="3.138">
        <ele>121.96</ele>
        <time>2013-12-08T10:48:15Z</time>
      </trkpt>
      <trkpt lat="49.6806" lon="3.13753">
        <ele>117.48</ele>
        <time>2013-12-08T10:48:24Z</time>
      </trkpt>
      <trkpt lat="49.68092" lon="3.13753">
        <ele>114.71</ele>
        <time>2013-12-08T10:48:33Z</time>
      </trkpt>
      <trkpt lat="49.68117" lon="3.13759">
        <ele>113.31</ele>
        <time>2013-12-08T10:48:38Z</time>
      </trkpt>
      <trkpt lat="49.68146" lon="3.13765">
        <ele>111.49</ele>
        <time>2013-12-08T10:48:43Z</time>
      </trkpt>
      <trkpt lat="49.68171" lon="3.13767">
        <ele>109.52</ele>
        <time>2013-12-08T10:48:47Z</time>
      </trkpt>
      <trkpt lat="49.68197" lon="3.13759">
        <ele>107.82</ele>
        <time>2013-12-08T10:48:51Z</time>
      </trkpt>
      <trkpt lat="49.68227" lon="3.13737">
        <ele>106.5</ele>
        <time>2013-12-08T10:48:56Z</time>
      </trkpt>
      <trkpt lat="49.68248" lon="3.13714">
        <ele>106.39</ele>
        <time>2013-12-08T10:49:00Z</time>
      </trkpt>
      <trkpt lat="49.68276" lon="3.13684">
        <ele>106.26</ele>
        <time>2013-12-08T10:49:05Z</time>
      </trkpt>
      <trkpt lat="49.68298" lon="3.13663">
        <ele>105.86</ele>
        <time>2013-12-08T10:49:09Z</time>
      </trkpt>
      <trkpt lat="49.68325" lon="3.13636">
        <ele>105.79</ele>
        <time>2013-12-08T10:49:14Z</time>
      </trkpt>
      <trkpt lat="49.68351" lon="3.13612">
        <ele>106.07</ele>
        <time>2013-12-08T10:49:19Z</time>
      </trkpt>
      <trkpt lat="49.68374" lon="3.13594">
        <ele>106.08</ele>
        <time>2013-12-08T10:49:23Z</time>
      </trkpt>
      <trkpt lat="49.68395" lon="3.13577">
        <ele>106.04</ele>
        <time>2013-12-08T10:49:27Z</time>
      </trkpt>
      <trkpt lat="49.68423" lon="3.13552">
        <ele>105.92</ele>
        <time>2013-12-08T10:49:32Z</time>
      </trkpt>
      <trkpt lat="49.68441" lon="3.13525">
        <ele>106.1</ele>
        <time>2013-12-08T10:49:36Z</time>
      </trkpt>
      <trkpt lat="49.68458" lon="3.13487">
        <ele>106.34</ele>
        <time>2013-12-08T10:49:41Z</time>
      </trkpt>
      <trkpt lat="49.68467" lon="3.13458">
        <ele>106.59</ele>
        <time>2013-12-08T10:49:45Z</time>
      </trkpt>
      <trkpt lat="49.6848" lon="3.13419">
        <ele>106.9</ele>
        <time>2013-12-08T10:49:50Z</time>
      </trkpt>
      <trkpt lat="49.68493" lon="3.13393">
        <ele>106.25</ele>
        <time>2013-12-08T10:49:54Z</time>
      </trkpt>
      <trkpt lat="49.68517" lon="3.1337">
        <ele>105.39</ele>
        <time>2013-12-08T10:49:59Z</time>
      </trkpt>
      <trkpt lat="49.68538" lon="3.13358">
        <ele>104.63</ele>
        <time>2013-12-08T10:50:03Z</time>
      </trkpt>
      <trkpt lat="49.68562" lon="3.13342">
        <ele>103.76</ele>
        <time>2013-12-08T10:50:08Z</time>
      </trkpt>
      <trkpt lat="49.68588" lon="3.13328">
        <ele>103.28</ele>
        <time>2013-12-08T10:50:13Z</time>
      </trkpt>
      <trkpt lat="49.68612" lon="3.13312">
        <ele>103.92</ele>
        <time>2013-12-08T10:50:18Z</time>
      </trkpt>
      <trkpt lat="49.68637" lon="3.13298">
        <ele>104.43</ele>
        <time>2013-12-08T10:50:23Z</time>
      </trkpt>
      <trkpt lat="49.68657" lon="3.13287">
        <ele>104.75</ele>
        <time>2013-12-08T10:50:27Z</time>
      </trkpt>
      <trkpt lat="49.68684" lon="3.13271">
        <ele>104.87</ele>
        <time>2013-12-08T10:50:32Z</time>
      </trkpt>
      <trkpt lat="49.68714" lon="3.13253">
        <ele>104.79</ele>
        <time>2013-12-08T10:50:37Z</time>
      </trkpt>
      <trkpt lat="49.68738" lon="3.13237">
        <ele>104.15</ele>
        <time>2013-12-08T10:50:41Z</time>
      </trkpt>
      <trkpt lat="49.68761" lon="3.13221">
        <ele>103.57</ele>
        <time>2013-12-08T10:50:45Z</time>
      </trkpt>
      <trkpt lat="49.6879" lon="3.13204">
        <ele>103.23</ele>
        <time>2013-12-08T10:50:50Z</time>
      </trkpt>
      <trkpt lat="49.68814" lon="3.13188">
        <ele>103.06</ele>
        <time>2013-12-08T10:50:54Z</time>
      </trkpt>
      <trkpt lat="49.68847" lon="3.13168">
        <ele>103</ele>
        <time>2013-12-08T10:50:59Z</time>
      </trkpt>
      <trkpt lat="49.68874" lon="3.13151">
        <ele>102.9</ele>
        <time>2013-12-08T10:51:03Z</time>
      </trkpt>
      <trkpt lat="49.68906" lon="3.13131">
        <ele>102.95</ele>
        <time>2013-12-08T10:51:08Z</time>
      </trkpt>
      <trkpt lat="49.68939" lon="3.13111">
        <ele>102.83</ele>
        <time>2013-12-08T10:51:13Z</time>
      </trkpt>
      <trkpt lat="49.6897" lon="3.13091">
        <ele>102.89</ele>
        <time>2013-12-08T10:51:18Z</time>
      </trkpt>
      <trkpt lat="49.68998" lon="3.13074">
        <ele>102.88</ele>
        <time>2013-12-08T10:51:23Z</time>
      </trkpt>
      <trkpt lat="49.69018" lon="3.1306">
        <ele>103</ele>
        <time>2013-12-08T10:51:27Z</time>
      </trkpt>
      <trkpt lat="49.69043" lon="3.13044">
        <ele>103.29</ele>
        <time>2013-12-08T10:51:32Z</time>
      </trkpt>
      <trkpt lat="49.69061" lon="3.13033">
        <ele>103.56</ele>
        <time>2013-12-08T10:51:36Z</time>
      </trkpt>
      <trkpt lat="49.69073" lon="3.1301">
        <ele>103.77</ele>
        <time>2013-12-08T10:51:41Z</time>
      </trkpt>
      <trkpt lat="49.69064" lon="3.12982">
        <ele>103.16</ele>
        <time>2013-12-08T10:51:45Z</time>
      </trkpt>
      <trkpt lat="49.69051" lon="3.12939">
        <ele>102.04</ele>
        <time>2013-12-08T10:51:50Z</time>
      </trkpt>
      <trkpt lat="49.6904" lon="3.12906">
        <ele>101.35</ele>
        <time>2013-12-08T10:51:54Z</time>
      </trkpt>
      <trkpt lat="49.69028" lon="3.12876">
        <ele>100.69</ele>
        <time>2013-12-08T10:51:58Z</time>
      </trkpt>
      <trkpt lat="49.69006" lon="3.12843">
        <ele>99.42</ele>
        <time>2013-12-08T10:52:03Z</time>
      </trkpt>
      <trkpt lat="49.68993" lon="3.1281">
        <ele>98.61</ele>
        <time>2013-12-08T10:52:08Z</time>
      </trkpt>
      <trkpt lat="49.68989" lon="3.12779">
        <ele>98.12</ele>
        <time>2013-12-08T10:52:13Z</time>
      </trkpt>
      <trkpt lat="49.68987" lon="3.1275">
        <ele>97.7</ele>
        <time>2013-12-08T10:52:17Z</time>
      </trkpt>
      <trkpt lat="49.68986" lon="3.12721">
        <ele>97.62</ele>
        <time>2013-12-08T10:52:21Z</time>
      </trkpt>
      <trkpt lat="49.68984" lon="3.12689">
        <ele>97.48</ele>
        <time>2013-12-08T10:52:26Z</time>
      </trkpt>
      <trkpt lat="49.68984" lon="3.12626">
        <ele>96.93</ele>
        <time>2013-12-08T10:52:35Z</time>
      </trkpt>
      <trkpt lat="49.68983" lon="3.12592">
        <ele>96.5</ele>
        <time>2013-12-08T10:52:39Z</time>
      </trkpt>
      <trkpt lat="49.68984" lon="3.12539">
        <ele>95.45</ele>
        <time>2013-12-08T10:52:44Z</time>
      </trkpt>
      <trkpt lat="49.68983" lon="3.12495">
        <ele>94.52</ele>
        <time>2013-12-08T10:52:48Z</time>
      </trkpt>
      <trkpt lat="49.68981" lon="3.1244">
        <ele>93.67</ele>
        <time>2013-12-08T10:52:53Z</time>
      </trkpt>
      <trkpt lat="49.6898" lon="3.12398">
        <ele>93.1</ele>
        <time>2013-12-08T10:52:57Z</time>
      </trkpt>
      <trkpt lat="49.68978" lon="3.12346">
        <ele>92.58</ele>
        <time>2013-12-08T10:53:02Z</time>
      </trkpt>
      <trkpt lat="49.68975" lon="3.12308">
        <ele>92.09</ele>
        <time>2013-12-08T10:53:07Z</time>
      </trkpt>
      <trkpt lat="49.69007" lon="3.12275">
        <ele>92.47</ele>
        <time>2013-12-08T10:53:16Z</time>
      </trkpt>
      <trkpt lat="49.6903" lon="3.12268">
        <ele>92.93</ele>
        <time>2013-12-08T10:53:20Z</time>
      </trkpt>
      <trkpt lat="49.69056" lon="3.12257">
        <ele>93.42</ele>
        <time>2013-12-08T10:53:25Z</time>
      </trkpt>
      <trkpt lat="49.69065" lon="3.12231">
        <ele>93.1</ele>
        <time>2013-12-08T10:53:29Z</time>
      </trkpt>
      <trkpt lat="49.69063" lon="3.12199">
        <ele>92.28</ele>
        <time>2013-12-08T10:53:33Z</time>
      </trkpt>
      <trkpt lat="49.69059" lon="3.12157">
        <ele>91.33</ele>
        <time>2013-12-08T10:53:38Z</time>
      </trkpt>
      <trkpt lat="49.69055" lon="3.12115">
        <ele>90.92</ele>
        <time>2013-12-08T10:53:43Z</time>
      </trkpt>
      <trkpt lat="49.6905" lon="3.12084">
        <ele>90.6</ele>
        <time>2013-12-08T10:53:47Z</time>
      </trkpt>
      <trkpt lat="49.69042" lon="3.12055">
        <ele>90.67</ele>
        <time>2013-12-08T10:53:51Z</time>
      </trkpt>
      <trkpt lat="49.69029" lon="3.12021">
        <ele>90.84</ele>
        <time>2013-12-08T10:53:56Z</time>
      </trkpt>
      <trkpt lat="49.69013" lon="3.11989">
        <ele>90.89</ele>
        <time>2013-12-08T10:54:01Z</time>
      </trkpt>
      <trkpt lat="49.68998" lon="3.11964">
        <ele>90.57</ele>
        <time>2013-12-08T10:54:05Z</time>
      </trkpt>
      <trkpt lat="49.68985" lon="3.11942">
        <ele>90.37</ele>
        <time>2013-12-08T10:54:09Z</time>
      </trkpt>
      <trkpt lat="49.68969" lon="3.11914">
        <ele>90.39</ele>
        <time>2013-12-08T10:54:14Z</time>
      </trkpt>
      <trkpt lat="49.68959" lon="3.11886">
        <ele>90.68</ele>
        <time>2013-12-08T10:54:19Z</time>
      </trkpt>
      <trkpt lat="49.68952" lon="3.11859">
        <ele>90.87</ele>
        <time>2013-12-08T10:54:23Z</time>
      </trkpt>
      <trkpt lat="49.68947" lon="3.11832">
        <ele>90.99</ele>
        <time>2013-12-08T10:54:27Z</time>
      </trkpt>
      <trkpt lat="49.68943" lon="3.11801">
        <ele>90.74</ele>
        <time>2013-12-08T10:54:32Z</time>
      </trkpt>
      <trkpt lat="49.68936" lon="3.11737">
        <ele>90.03</ele>
        <time>2013-12-08T10:54:41Z</time>
      </trkpt>
      <trkpt lat="49.68933" lon="3.11705">
        <ele>89.54</ele>
        <time>2013-12-08T10:54:45Z</time>
      </trkpt>
      <trkpt lat="49.68929" lon="3.11661">
        <ele>88.99</ele>
        <time>2013-12-08T10:54:50Z</time>
      </trkpt>
      <trkpt lat="49.68923" lon="3.11614">
        <ele>88.95</ele>
        <time>2013-12-08T10:54:55Z</time>
      </trkpt>
      <trkpt lat="49.68917" lon="3.11569">
        <ele>89.17</ele>
        <time>2013-12-08T10:55:00Z</time>
      </trkpt>
      <trkpt lat="49.68908" lon="3.11538">
        <ele>89.97</ele>
        <time>2013-12-08T10:55:04Z</time>
      </trkpt>
      <trkpt lat="49.68898" lon="3.11504">
        <ele>90.83</ele>
        <time>2013-12-08T10:55:09Z</time>
      </trkpt>
      <trkpt lat="49.68894" lon="3.11468">
        <ele>90.31</ele>
        <time>2013-12-08T10:55:14Z</time>
      </trkpt>
      <trkpt lat="49.68891" lon="3.11439">
        <ele>89.76</ele>
        <time>2013-12-08T10:55:18Z</time>
      </trkpt>
      <trkpt lat="49.68891" lon="3.114">
        <ele>88.82</ele>
        <time>2013-12-08T10:55:23Z</time>
      </trkpt>
      <trkpt lat="49.68897" lon="3.11366">
        <ele>87.76</ele>
        <time>2013-12-08T10:55:27Z</time>
      </trkpt>
      <trkpt lat="49.68919" lon="3.1133">
        <ele>85.78</ele>
        <time>2013-12-08T10:55:32Z</time>
      </trkpt>
      <trkpt lat="49.68928" lon="3.1129">
        <ele>84.07</ele>
        <time>2013-12-08T10:55:37Z</time>
      </trkpt>
      <trkpt lat="49.68921" lon="3.11252">
        <ele>83.65</ele>
        <time>2013-12-08T10:55:41Z</time>
      </trkpt>
      <trkpt lat="49.6891" lon="3.11213">
        <ele>83.25</ele>
        <time>2013-12-08T10:55:45Z</time>
      </trkpt>
      <trkpt lat="49.68911" lon="3.11158">
        <ele>81.79</ele>
        <time>2013-12-08T10:55:50Z</time>
      </trkpt>
      <trkpt lat="49.68919" lon="3.11112">
        <ele>80.58</ele>
        <time>2013-12-08T10:55:54Z</time>
      </trkpt>
      <trkpt lat="49.68931" lon="3.11056">
        <ele>79.27</ele>
        <time>2013-12-08T10:55:59Z</time>
      </trkpt>
      <trkpt lat="49.68946" lon="3.11019">
        <ele>78.71</ele>
        <time>2013-12-08T10:56:03Z</time>
      </trkpt>
      <trkpt lat="49.6898" lon="3.10991">
        <ele>78.24</ele>
        <time>2013-12-08T10:56:08Z</time>
      </trkpt>
      <trkpt lat="49.69002" lon="3.1097">
        <ele>77.95</ele>
        <time>2013-12-08T10:56:13Z</time>
      </trkpt>
      <trkpt lat="49.69005" lon="3.10936">
        <ele>77.84</ele>
        <time>2013-12-08T10:56:23Z</time>
      </trkpt>
      <trkpt lat="49.68985" lon="3.10882">
        <ele>77.77</ele>
        <time>2013-12-08T10:56:32Z</time>
      </trkpt>
      <trkpt lat="49.68974" lon="3.10847">
        <ele>77.48</ele>
        <time>2013-12-08T10:56:37Z</time>
      </trkpt>
      <trkpt lat="49.68963" lon="3.10819">
        <ele>77.53</ele>
        <time>2013-12-08T10:56:41Z</time>
      </trkpt>
      <trkpt lat="49.68947" lon="3.10799">
        <ele>77.9</ele>
        <time>2013-12-08T10:56:45Z</time>
      </trkpt>
      <trkpt lat="49.68927" lon="3.10778">
        <ele>78.46</ele>
        <time>2013-12-08T10:56:50Z</time>
      </trkpt>
      <trkpt lat="49.68933" lon="3.10744">
        <ele>78.63</ele>
        <time>2013-12-08T10:56:55Z</time>
      </trkpt>
      <trkpt lat="49.68948" lon="3.10715">
        <ele>78.41</ele>
        <time>2013-12-08T10:57:00Z</time>
      </trkpt>
      <trkpt lat="49.68965" lon="3.10691">
        <ele>78.25</ele>
        <time>2013-12-08T10:57:05Z</time>
      </trkpt>
      <trkpt lat="49.68982" lon="3.10675">
        <ele>78.14</ele>
        <time>2013-12-08T10:57:09Z</time>
      </trkpt>
      <trkpt lat="49.69003" lon="3.10655">
        <ele>78.25</ele>
        <time>2013-12-08T10:57:14Z</time>
      </trkpt>
      <trkpt lat="49.69021" lon="3.10638">
        <ele>78.44</ele>
        <time>2013-12-08T10:57:18Z</time>
      </trkpt>
      <trkpt lat="49.69045" lon="3.10617">
        <ele>78.66</ele>
        <time>2013-12-08T10:57:23Z</time>
      </trkpt>
      <trkpt lat="49.69064" lon="3.10602">
        <ele>78.78</ele>
        <time>2013-12-08T10:57:27Z</time>
      </trkpt>
      <trkpt lat="49.69089" lon="3.10584">
        <ele>78.92</ele>
        <time>2013-12-08T10:57:32Z</time>
      </trkpt>
      <trkpt lat="49.69108" lon="3.10571">
        <ele>78.79</ele>
        <time>2013-12-08T10:57:36Z</time>
      </trkpt>
      <trkpt lat="49.69129" lon="3.10553">
        <ele>78.85</ele>
        <time>2013-12-08T10:57:41Z</time>
      </trkpt>
      <trkpt lat="49.69148" lon="3.10535">
        <ele>79.12</ele>
        <time>2013-12-08T10:57:45Z</time>
      </trkpt>
      <trkpt lat="49.69172" lon="3.10515">
        <ele>79.4</ele>
        <time>2013-12-08T10:57:50Z</time>
      </trkpt>
      <trkpt lat="49.69197" lon="3.10498">
        <ele>78.55</ele>
        <time>2013-12-08T10:57:55Z</time>
      </trkpt>
      <trkpt lat="49.69216" lon="3.10484">
        <ele>77.67</ele>
        <time>2013-12-08T10:57:59Z</time>
      </trkpt>
      <trkpt lat="49.69238" lon="3.10472">
        <ele>76.82</ele>
        <time>2013-12-08T10:58:03Z</time>
      </trkpt>
      <trkpt lat="49.69265" lon="3.10457">
        <ele>76.43</ele>
        <time>2013-12-08T10:58:08Z</time>
      </trkpt>
      <trkpt lat="49.69291" lon="3.1044">
        <ele>76.37</ele>
        <time>2013-12-08T10:58:13Z</time>
      </trkpt>
      <trkpt lat="49.69318" lon="3.10422">
        <ele>76.17</ele>
        <time>2013-12-08T10:58:18Z</time>
      </trkpt>
      <trkpt lat="49.69346" lon="3.10404">
        <ele>76</ele>
        <time>2013-12-08T10:58:23Z</time>
      </trkpt>
      <trkpt lat="49.69364" lon="3.10393">
        <ele>76</ele>
        <time>2013-12-08T10:58:27Z</time>
      </trkpt>
      <trkpt lat="49.69383" lon="3.10384">
        <ele>76</ele>
        <time>2013-12-08T10:58:32Z</time>
      </trkpt>
      <trkpt lat="49.69422" lon="3.10361">
        <ele>76</ele>
        <time>2013-12-08T10:58:41Z</time>
      </trkpt>
      <trkpt lat="49.6944" lon="3.10356">
        <ele>76</ele>
        <time>2013-12-08T10:58:45Z</time>
      </trkpt>
      <trkpt lat="49.69466" lon="3.10352">
        <ele>76</ele>
        <time>2013-12-08T10:58:50Z</time>
      </trkpt>
      <trkpt lat="49.69493" lon="3.10346">
        <ele>76</ele>
        <time>2013-12-08T10:58:55Z</time>
      </trkpt>
      <trkpt lat="49.69514" lon="3.1034">
        <ele>75.99</ele>
        <time>2013-12-08T10:58:59Z</time>
      </trkpt>
      <trkpt lat="49.69534" lon="3.10333">
        <ele>76</ele>
        <time>2013-12-08T10:59:03Z</time>
      </trkpt>
      <trkpt lat="49.6956" lon="3.10323">
        <ele>76.09</ele>
        <time>2013-12-08T10:59:08Z</time>
      </trkpt>
      <trkpt lat="49.69581" lon="3.10314">
        <ele>76.22</ele>
        <time>2013-12-08T10:59:12Z</time>
      </trkpt>
      <trkpt lat="49.69605" lon="3.103">
        <ele>76.4</ele>
        <time>2013-12-08T10:59:17Z</time>
      </trkpt>
      <trkpt lat="49.69626" lon="3.10287">
        <ele>76.55</ele>
        <time>2013-12-08T10:59:21Z</time>
      </trkpt>
      <trkpt lat="49.69652" lon="3.1027">
        <ele>76.76</ele>
        <time>2013-12-08T10:59:26Z</time>
      </trkpt>
      <trkpt lat="49.69678" lon="3.10252">
        <ele>76.7</ele>
        <time>2013-12-08T10:59:31Z</time>
      </trkpt>
      <trkpt lat="49.69707" lon="3.10233">
        <ele>76.44</ele>
        <time>2013-12-08T10:59:36Z</time>
      </trkpt>
      <trkpt lat="49.69736" lon="3.10215">
        <ele>76.45</ele>
        <time>2013-12-08T10:59:41Z</time>
      </trkpt>
      <trkpt lat="49.69761" lon="3.102">
        <ele>76.76</ele>
        <time>2013-12-08T10:59:45Z</time>
      </trkpt>
      <trkpt lat="49.6979" lon="3.10181">
        <ele>77.17</ele>
        <time>2013-12-08T10:59:50Z</time>
      </trkpt>
      <trkpt lat="49.69817" lon="3.10164">
        <ele>77.26</ele>
        <time>2013-12-08T10:59:55Z</time>
      </trkpt>
      <trkpt lat="49.69845" lon="3.10146">
        <ele>77.29</ele>
        <time>2013-12-08T11:00:00Z</time>
      </trkpt>
      <trkpt lat="49.69873" lon="3.10129">
        <ele>76.99</ele>
        <time>2013-12-08T11:00:05Z</time>
      </trkpt>
      <trkpt lat="49.69895" lon="3.10117">
        <ele>76.56</ele>
        <time>2013-12-08T11:00:09Z</time>
      </trkpt>
      <trkpt lat="49.69918" lon="3.10092">
        <ele>75.99</ele>
        <time>2013-12-08T11:00:14Z</time>
      </trkpt>
      <trkpt lat="49.69939" lon="3.1006">
        <ele>75.95</ele>
        <time>2013-12-08T11:00:19Z</time>
      </trkpt>
      <trkpt lat="49.69961" lon="3.10028">
        <ele>75.78</ele>
        <time>2013-12-08T11:00:24Z</time>
      </trkpt>
      <trkpt lat="49.69982" lon="3.09997">
        <ele>75.47</ele>
        <time>2013-12-08T11:00:29Z</time>
      </trkpt>
      <trkpt lat="49.7" lon="3.0997">
        <ele>75.37</ele>
        <time>2013-12-08T11:00:33Z</time>
      </trkpt>
      <trkpt lat="49.70023" lon="3.09935">
        <ele>75.41</ele>
        <time>2013-12-08T11:00:38Z</time>
      </trkpt>
      <trkpt lat="49.70041" lon="3.09908">
        <ele>75.06</ele>
        <time>2013-12-08T11:00:42Z</time>
      </trkpt>
      <trkpt lat="49.70065" lon="3.09873">
        <ele>74.56</ele>
        <time>2013-12-08T11:00:47Z</time>
      </trkpt>
      <trkpt lat="49.70085" lon="3.09842">
        <ele>73.98</ele>
        <time>2013-12-08T11:00:51Z</time>
      </trkpt>
      <trkpt lat="49.70112" lon="3.098">
        <ele>73.65</ele>
        <time>2013-12-08T11:00:56Z</time>
      </trkpt>
      <trkpt lat="49.7014" lon="3.09759">
        <ele>73.32</ele>
        <time>2013-12-08T11:01:01Z</time>
      </trkpt>
      <trkpt lat="49.70166" lon="3.09717">
        <ele>73.79</ele>
        <time>2013-12-08T11:01:06Z</time>
      </trkpt>
      <trkpt lat="49.70185" lon="3.09678">
        <ele>74.52</ele>
        <time>2013-12-08T11:01:11Z</time>
      </trkpt>
      <trkpt lat="49.70196" lon="3.09649">
        <ele>74.65</ele>
        <time>2013-12-08T11:01:15Z</time>
      </trkpt>
      <trkpt lat="49.70208" lon="3.09613">
        <ele>74.51</ele>
        <time>2013-12-08T11:01:20Z</time>
      </trkpt>
      <trkpt lat="49.70216" lon="3.09581">
        <ele>74.45</ele>
        <time>2013-12-08T11:01:24Z</time>
      </trkpt>
      <trkpt lat="49.70223" lon="3.09541">
        <ele>75.18</ele>
        <time>2013-12-08T11:01:29Z</time>
      </trkpt>
      <trkpt lat="49.70226" lon="3.09509">
        <ele>75.81</ele>
        <time>2013-12-08T11:01:33Z</time>
      </trkpt>
      <trkpt lat="49.70229" lon="3.09473">
        <ele>76.08</ele>
        <time>2013-12-08T11:01:38Z</time>
      </trkpt>
      <trkpt lat="49.70234" lon="3.09441">
        <ele>76.13</ele>
        <time>2013-12-08T11:01:43Z</time>
      </trkpt>
      <trkpt lat="49.70252" lon="3.09395">
        <ele>75.95</ele>
        <time>2013-12-08T11:01:51Z</time>
      </trkpt>
      <trkpt lat="49.70265" lon="3.09366">
        <ele>75.64</ele>
        <time>2013-12-08T11:01:56Z</time>
      </trkpt>
      <trkpt lat="49.70277" lon="3.09338">
        <ele>75.35</ele>
        <time>2013-12-08T11:02:00Z</time>
      </trkpt>
      <trkpt lat="49.70292" lon="3.09303">
        <ele>75</ele>
        <time>2013-12-08T11:02:05Z</time>
      </trkpt>
      <trkpt lat="49.70303" lon="3.09271">
        <ele>74.93</ele>
        <time>2013-12-08T11:02:09Z</time>
      </trkpt>
      <trkpt lat="49.70317" lon="3.09235">
        <ele>75.11</ele>
        <time>2013-12-08T11:02:14Z</time>
      </trkpt>
      <trkpt lat="49.70326" lon="3.09204">
        <ele>75.46</ele>
        <time>2013-12-08T11:02:18Z</time>
      </trkpt>
      <trkpt lat="49.70337" lon="3.09167">
        <ele>75.9</ele>
        <time>2013-12-08T11:02:23Z</time>
      </trkpt>
      <trkpt lat="49.70347" lon="3.09139">
        <ele>75.73</ele>
        <time>2013-12-08T11:02:27Z</time>
      </trkpt>
      <trkpt lat="49.70359" lon="3.09102">
        <ele>75.63</ele>
        <time>2013-12-08T11:02:32Z</time>
      </trkpt>
      <trkpt lat="49.70369" lon="3.09069">
        <ele>75.65</ele>
        <time>2013-12-08T11:02:37Z</time>
      </trkpt>
      <trkpt lat="49.70379" lon="3.09037">
        <ele>75.75</ele>
        <time>2013-12-08T11:02:42Z</time>
      </trkpt>
      <trkpt lat="49.70389" lon="3.09004">
        <ele>75.97</ele>
        <time>2013-12-08T11:02:47Z</time>
      </trkpt>
      <trkpt lat="49.70399" lon="3.08978">
        <ele>76.15</ele>
        <time>2013-12-08T11:02:51Z</time>
      </trkpt>
      <trkpt lat="49.70412" lon="3.08948">
        <ele>76.55</ele>
        <time>2013-12-08T11:02:56Z</time>
      </trkpt>
      <trkpt lat="49.70421" lon="3.08916">
        <ele>76.94</ele>
        <time>2013-12-08T11:03:01Z</time>
      </trkpt>
      <trkpt lat="49.70427" lon="3.08877">
        <ele>76.34</ele>
        <time>2013-12-08T11:03:09Z</time>
      </trkpt>
      <trkpt lat="49.70431" lon="3.08848">
        <ele>75.87</ele>
        <time>2013-12-08T11:03:14Z</time>
      </trkpt>
      <trkpt lat="49.70441" lon="3.0879">
        <ele>74.91</ele>
        <time>2013-12-08T11:03:23Z</time>
      </trkpt>
      <trkpt lat="49.70445" lon="3.0876">
        <ele>74.43</ele>
        <time>2013-12-08T11:03:27Z</time>
      </trkpt>
      <trkpt lat="49.70451" lon="3.08726">
        <ele>73.42</ele>
        <time>2013-12-08T11:03:32Z</time>
      </trkpt>
      <trkpt lat="49.7046" lon="3.08677">
        <ele>71.8</ele>
        <time>2013-12-08T11:03:40Z</time>
      </trkpt>
      <trkpt lat="49.70463" lon="3.08641">
        <ele>71</ele>
        <time>2013-12-08T11:04:05Z</time>
      </trkpt>
      <trkpt lat="49.70469" lon="3.08598">
        <ele>70.24</ele>
        <time>2013-12-08T11:04:14Z</time>
      </trkpt>
      <trkpt lat="49.70475" lon="3.08554">
        <ele>70.25</ele>
        <time>2013-12-08T11:04:24Z</time>
      </trkpt>
      <trkpt lat="49.7048" lon="3.08516">
        <ele>70.62</ele>
        <time>2013-12-08T11:04:33Z</time>
      </trkpt>
      <trkpt lat="49.70484" lon="3.08483">
        <ele>70.59</ele>
        <time>2013-12-08T11:04:42Z</time>
      </trkpt>
      <trkpt lat="49.70488" lon="3.08451">
        <ele>70.27</ele>
        <time>2013-12-08T11:04:51Z</time>
      </trkpt>
      <trkpt lat="49.70492" lon="3.08422">
        <ele>69.97</ele>
        <time>2013-12-08T11:05:01Z</time>
      </trkpt>
      <trkpt lat="49.70518" lon="3.08427">
        <ele>69.9</ele>
        <time>2013-12-08T11:05:15Z</time>
      </trkpt>
      <trkpt lat="49.7054" lon="3.08438">
        <ele>69.78</ele>
        <time>2013-12-08T11:05:25Z</time>
      </trkpt>
      <trkpt lat="49.70565" lon="3.08452">
        <ele>69.64</ele>
        <time>2013-12-08T11:05:35Z</time>
      </trkpt>
      <trkpt lat="49.70583" lon="3.08462">
        <ele>69.54</ele>
        <time>2013-12-08T11:05:44Z</time>
      </trkpt>
      <trkpt lat="49.70604" lon="3.08465">
        <ele>69.34</ele>
        <time>2013-12-08T11:05:58Z</time>
      </trkpt>
      <trkpt lat="49.70579" lon="3.08459">
        <ele>69.56</ele>
        <time>2013-12-08T11:07:13Z</time>
      </trkpt>
      <trkpt lat="49.70554" lon="3.08449">
        <ele>69.74</ele>
        <time>2013-12-08T11:07:21Z</time>
      </trkpt>
      <trkpt lat="49.70525" lon="3.08433">
        <ele>69.9</ele>
        <time>2013-12-08T11:07:31Z</time>
      </trkpt>
      <trkpt lat="49.70506" lon="3.08424">
        <ele>70.02</ele>
        <time>2013-12-08T11:07:40Z</time>
      </trkpt>
      <trkpt lat="49.70526" lon="3.08435">
        <ele>69.91</ele>
        <time>2013-12-08T11:08:05Z</time>
      </trkpt>
      <trkpt lat="49.70566" lon="3.08454">
        <ele>69.65</ele>
        <time>2013-12-08T11:08:14Z</time>
      </trkpt>
      <trkpt lat="49.70592" lon="3.08461">
        <ele>69.43</ele>
        <time>2013-12-08T11:08:19Z</time>
      </trkpt>
      <trkpt lat="49.70619" lon="3.0847">
        <ele>69.21</ele>
        <time>2013-12-08T11:08:24Z</time>
      </trkpt>
      <trkpt lat="49.70642" lon="3.08475">
        <ele>69</ele>
        <time>2013-12-08T11:08:29Z</time>
      </trkpt>
      <trkpt lat="49.7066" lon="3.08478">
        <ele>68.81</ele>
        <time>2013-12-08T11:08:33Z</time>
      </trkpt>
      <trkpt lat="49.70684" lon="3.08481">
        <ele>68.77</ele>
        <time>2013-12-08T11:08:38Z</time>
      </trkpt>
      <trkpt lat="49.70705" lon="3.08485">
        <ele>68.82</ele>
        <time>2013-12-08T11:08:43Z</time>
      </trkpt>
      <trkpt lat="49.70725" lon="3.08489">
        <ele>68.87</ele>
        <time>2013-12-08T11:08:48Z</time>
      </trkpt>
      <trkpt lat="49.70747" lon="3.08493">
        <ele>68.91</ele>
        <time>2013-12-08T11:08:53Z</time>
      </trkpt>
      <trkpt lat="49.70786" lon="3.08495">
        <ele>68.54</ele>
        <time>2013-12-08T11:09:02Z</time>
      </trkpt>
      <trkpt lat="49.70807" lon="3.08492">
        <ele>68.28</ele>
        <time>2013-12-08T11:09:07Z</time>
      </trkpt>
      <trkpt lat="49.70841" lon="3.08487">
        <ele>68.06</ele>
        <time>2013-12-08T11:09:15Z</time>
      </trkpt>
      <trkpt lat="49.70861" lon="3.08484">
        <ele>68.21</ele>
        <time>2013-12-08T11:09:20Z</time>
      </trkpt>
      <trkpt lat="49.70882" lon="3.08479">
        <ele>68.29</ele>
        <time>2013-12-08T11:09:25Z</time>
      </trkpt>
      <trkpt lat="49.70907" lon="3.08476">
        <ele>68.37</ele>
        <time>2013-12-08T11:09:30Z</time>
      </trkpt>
      <trkpt lat="49.70931" lon="3.0847">
        <ele>68.17</ele>
        <time>2013-12-08T11:09:35Z</time>
      </trkpt>
      <trkpt lat="49.70951" lon="3.08465">
        <ele>67.92</ele>
        <time>2013-12-08T11:09:39Z</time>
      </trkpt>
      <trkpt lat="49.70977" lon="3.08455">
        <ele>67.59</ele>
        <time>2013-12-08T11:09:44Z</time>
      </trkpt>
      <trkpt lat="49.70996" lon="3.08448">
        <ele>67.4</ele>
        <time>2013-12-08T11:09:48Z</time>
      </trkpt>
      <trkpt lat="49.71018" lon="3.08441">
        <ele>67.07</ele>
        <time>2013-12-08T11:09:53Z</time>
      </trkpt>
      <trkpt lat="49.71036" lon="3.08434">
        <ele>66.77</ele>
        <time>2013-12-08T11:09:57Z</time>
      </trkpt>
      <trkpt lat="49.71056" lon="3.08427">
        <ele>66.45</ele>
        <time>2013-12-08T11:10:02Z</time>
      </trkpt>
      <trkpt lat="49.71076" lon="3.08422">
        <ele>66.16</ele>
        <time>2013-12-08T11:10:07Z</time>
      </trkpt>
      <trkpt lat="49.71094" lon="3.08418">
        <ele>66.14</ele>
        <time>2013-12-08T11:10:11Z</time>
      </trkpt>
      <trkpt lat="49.71119" lon="3.0841">
        <ele>66.34</ele>
        <time>2013-12-08T11:10:16Z</time>
      </trkpt>
      <trkpt lat="49.71139" lon="3.08406">
        <ele>66.54</ele>
        <time>2013-12-08T11:10:21Z</time>
      </trkpt>
      <trkpt lat="49.71161" lon="3.08398">
        <ele>66.71</ele>
        <time>2013-12-08T11:10:26Z</time>
      </trkpt>
      <trkpt lat="49.71184" lon="3.08392">
        <ele>66.42</ele>
        <time>2013-12-08T11:10:31Z</time>
      </trkpt>
      <trkpt lat="49.71203" lon="3.08386">
        <ele>66.04</ele>
        <time>2013-12-08T11:10:35Z</time>
      </trkpt>
      <trkpt lat="49.71222" lon="3.08379">
        <ele>65.58</ele>
        <time>2013-12-08T11:10:39Z</time>
      </trkpt>
      <trkpt lat="49.71246" lon="3.08369">
        <ele>64.93</ele>
        <time>2013-12-08T11:10:44Z</time>
      </trkpt>
      <trkpt lat="49.71267" lon="3.08358">
        <ele>64.81</ele>
        <time>2013-12-08T11:10:48Z</time>
      </trkpt>
      <trkpt lat="49.71289" lon="3.08335">
        <ele>64.94</ele>
        <time>2013-12-08T11:10:53Z</time>
      </trkpt>
      <trkpt lat="49.71305" lon="3.08314">
        <ele>65.17</ele>
        <time>2013-12-08T11:10:57Z</time>
      </trkpt>
      <trkpt lat="49.71325" lon="3.08288">
        <ele>65.31</ele>
        <time>2013-12-08T11:11:02Z</time>
      </trkpt>
      <trkpt lat="49.71347" lon="3.08264">
        <ele>65</ele>
        <time>2013-12-08T11:11:07Z</time>
      </trkpt>
      <trkpt lat="49.71372" lon="3.08247">
        <ele>64.53</ele>
        <time>2013-12-08T11:11:12Z</time>
      </trkpt>
      <trkpt lat="49.71397" lon="3.0824">
        <ele>64.24</ele>
        <time>2013-12-08T11:11:17Z</time>
      </trkpt>
      <trkpt lat="49.71418" lon="3.08238">
        <ele>64.01</ele>
        <time>2013-12-08T11:11:21Z</time>
      </trkpt>
      <trkpt lat="49.71443" lon="3.08235">
        <ele>64.32</ele>
        <time>2013-12-08T11:11:26Z</time>
      </trkpt>
      <trkpt lat="49.71471" lon="3.08234">
        <ele>64.65</ele>
        <time>2013-12-08T11:11:31Z</time>
      </trkpt>
      <trkpt lat="49.71498" lon="3.08233">
        <ele>64.97</ele>
        <time>2013-12-08T11:11:36Z</time>
      </trkpt>
      <trkpt lat="49.71525" lon="3.08235">
        <ele>64.81</ele>
        <time>2013-12-08T11:11:41Z</time>
      </trkpt>
      <trkpt lat="49.71548" lon="3.08238">
        <ele>64.6</ele>
        <time>2013-12-08T11:11:45Z</time>
      </trkpt>
      <trkpt lat="49.71577" lon="3.0824">
        <ele>64.3</ele>
        <time>2013-12-08T11:11:50Z</time>
      </trkpt>
      <trkpt lat="49.71606" lon="3.0824">
        <ele>64.72</ele>
        <time>2013-12-08T11:11:55Z</time>
      </trkpt>
      <trkpt lat="49.71633" lon="3.08242">
        <ele>65.28</ele>
        <time>2013-12-08T11:12:00Z</time>
      </trkpt>
      <trkpt lat="49.71659" lon="3.0824">
        <ele>65.84</ele>
        <time>2013-12-08T11:12:05Z</time>
      </trkpt>
      <trkpt lat="49.71679" lon="3.08239">
        <ele>66.02</ele>
        <time>2013-12-08T11:12:09Z</time>
      </trkpt>
      <trkpt lat="49.71699" lon="3.08231">
        <ele>66.09</ele>
        <time>2013-12-08T11:12:14Z</time>
      </trkpt>
      <trkpt lat="49.71722" lon="3.08183">
        <ele>66.54</ele>
        <time>2013-12-08T11:12:23Z</time>
      </trkpt>
      <trkpt lat="49.71746" lon="3.08138">
        <ele>66.3</ele>
        <time>2013-12-08T11:12:32Z</time>
      </trkpt>
      <trkpt lat="49.71757" lon="3.0811">
        <ele>65.51</ele>
        <time>2013-12-08T11:12:37Z</time>
      </trkpt>
      <trkpt lat="49.71769" lon="3.08084">
        <ele>64.77</ele>
        <time>2013-12-08T11:12:42Z</time>
      </trkpt>
      <trkpt lat="49.71784" lon="3.08055">
        <ele>64.53</ele>
        <time>2013-12-08T11:12:47Z</time>
      </trkpt>
      <trkpt lat="49.71794" lon="3.08028">
        <ele>64.51</ele>
        <time>2013-12-08T11:12:51Z</time>
      </trkpt>
      <trkpt lat="49.71808" lon="3.07995">
        <ele>64.69</ele>
        <time>2013-12-08T11:12:56Z</time>
      </trkpt>
      <trkpt lat="49.71823" lon="3.07964">
        <ele>64.87</ele>
        <time>2013-12-08T11:13:01Z</time>
      </trkpt>
      <trkpt lat="49.71837" lon="3.07933">
        <ele>64.99</ele>
        <time>2013-12-08T11:13:06Z</time>
      </trkpt>
      <trkpt lat="49.71852" lon="3.07903">
        <ele>64.87</ele>
        <time>2013-12-08T11:13:11Z</time>
      </trkpt>
      <trkpt lat="49.71863" lon="3.0788">
        <ele>64.71</ele>
        <time>2013-12-08T11:13:15Z</time>
      </trkpt>
      <trkpt lat="49.71878" lon="3.07853">
        <ele>64.64</ele>
        <time>2013-12-08T11:13:20Z</time>
      </trkpt>
      <trkpt lat="49.71894" lon="3.07823">
        <ele>64.61</ele>
        <time>2013-12-08T11:13:25Z</time>
      </trkpt>
      <trkpt lat="49.7191" lon="3.07793">
        <ele>64.43</ele>
        <time>2013-12-08T11:13:30Z</time>
      </trkpt>
      <trkpt lat="49.71922" lon="3.07763">
        <ele>64.08</ele>
        <time>2013-12-08T11:13:35Z</time>
      </trkpt>
      <trkpt lat="49.71929" lon="3.07737">
        <ele>63.9</ele>
        <time>2013-12-08T11:13:39Z</time>
      </trkpt>
      <trkpt lat="49.71938" lon="3.07708">
        <ele>64</ele>
        <time>2013-12-08T11:13:44Z</time>
      </trkpt>
      <trkpt lat="49.71948" lon="3.07678">
        <ele>64.27</ele>
        <time>2013-12-08T11:13:49Z</time>
      </trkpt>
      <trkpt lat="49.71958" lon="3.07644">
        <ele>64.62</ele>
        <time>2013-12-08T11:13:54Z</time>
      </trkpt>
      <trkpt lat="49.71968" lon="3.07612">
        <ele>65.02</ele>
        <time>2013-12-08T11:13:59Z</time>
      </trkpt>
      <trkpt lat="49.71986" lon="3.07559">
        <ele>65.72</ele>
        <time>2013-12-08T11:14:08Z</time>
      </trkpt>
      <trkpt lat="49.72007" lon="3.07506">
        <ele>66</ele>
        <time>2013-12-08T11:14:17Z</time>
      </trkpt>
      <trkpt lat="49.72017" lon="3.07483">
        <ele>65.79</ele>
        <time>2013-12-08T11:14:21Z</time>
      </trkpt>
      <trkpt lat="49.72031" lon="3.0745">
        <ele>65.4</ele>
        <time>2013-12-08T11:14:26Z</time>
      </trkpt>
      <trkpt lat="49.72042" lon="3.07417">
        <ele>65</ele>
        <time>2013-12-08T11:14:31Z</time>
      </trkpt>
      <trkpt lat="49.72052" lon="3.07382">
        <ele>64.74</ele>
        <time>2013-12-08T11:14:36Z</time>
      </trkpt>
      <trkpt lat="49.72064" lon="3.07346">
        <ele>64.34</ele>
        <time>2013-12-08T11:14:41Z</time>
      </trkpt>
      <trkpt lat="49.72074" lon="3.07317">
        <ele>64.12</ele>
        <time>2013-12-08T11:14:45Z</time>
      </trkpt>
      <trkpt lat="49.72087" lon="3.07283">
        <ele>64.01</ele>
        <time>2013-12-08T11:14:50Z</time>
      </trkpt>
      <trkpt lat="49.72099" lon="3.07249">
        <ele>64.17</ele>
        <time>2013-12-08T11:14:55Z</time>
      </trkpt>
      <trkpt lat="49.72111" lon="3.07221">
        <ele>63.97</ele>
        <time>2013-12-08T11:14:59Z</time>
      </trkpt>
      <trkpt lat="49.72121" lon="3.07192">
        <ele>63.76</ele>
        <time>2013-12-08T11:15:03Z</time>
      </trkpt>
      <trkpt lat="49.72135" lon="3.07159">
        <ele>63.6</ele>
        <time>2013-12-08T11:15:08Z</time>
      </trkpt>
      <trkpt lat="49.72149" lon="3.07127">
        <ele>63.51</ele>
        <time>2013-12-08T11:15:13Z</time>
      </trkpt>
      <trkpt lat="49.72163" lon="3.07093">
        <ele>63.16</ele>
        <time>2013-12-08T11:15:18Z</time>
      </trkpt>
      <trkpt lat="49.72177" lon="3.07055">
        <ele>62.83</ele>
        <time>2013-12-08T11:15:23Z</time>
      </trkpt>
      <trkpt lat="49.72188" lon="3.07027">
        <ele>62.76</ele>
        <time>2013-12-08T11:15:27Z</time>
      </trkpt>
      <trkpt lat="49.72201" lon="3.06994">
        <ele>62.84</ele>
        <time>2013-12-08T11:15:32Z</time>
      </trkpt>
      <trkpt lat="49.72213" lon="3.0696">
        <ele>63.06</ele>
        <time>2013-12-08T11:15:37Z</time>
      </trkpt>
      <trkpt lat="49.72224" lon="3.06923">
        <ele>63.03</ele>
        <time>2013-12-08T11:15:42Z</time>
      </trkpt>
      <trkpt lat="49.7223" lon="3.06896">
        <ele>63.07</ele>
        <time>2013-12-08T11:15:46Z</time>
      </trkpt>
      <trkpt lat="49.72241" lon="3.06847">
        <ele>63.55</ele>
        <time>2013-12-08T11:15:56Z</time>
      </trkpt>
      <trkpt lat="49.72253" lon="3.06794">
        <ele>64.5</ele>
        <time>2013-12-08T11:16:06Z</time>
      </trkpt>
      <trkpt lat="49.72268" lon="3.06771">
        <ele>64.85</ele>
        <time>2013-12-08T11:16:11Z</time>
      </trkpt>
      <trkpt lat="49.72305" lon="3.06767">
        <ele>65.06</ele>
        <time>2013-12-08T11:16:20Z</time>
      </trkpt>
      <trkpt lat="49.72334" lon="3.06754">
        <ele>65.05</ele>
        <time>2013-12-08T11:16:30Z</time>
      </trkpt>
      <trkpt lat="49.72339" lon="3.06726">
        <ele>65.05</ele>
        <time>2013-12-08T11:16:35Z</time>
      </trkpt>
      <trkpt lat="49.72339" lon="3.06678">
        <ele>65.01</ele>
        <time>2013-12-08T11:16:44Z</time>
      </trkpt>
      <trkpt lat="49.72358" lon="3.06665">
        <ele>64.97</ele>
        <time>2013-12-08T11:16:54Z</time>
      </trkpt>
      <trkpt lat="49.72382" lon="3.0667">
        <ele>65.02</ele>
        <time>2013-12-08T11:17:03Z</time>
      </trkpt>
      <trkpt lat="49.72406" lon="3.06676">
        <ele>65.09</ele>
        <time>2013-12-08T11:17:12Z</time>
      </trkpt>
      <trkpt lat="49.72424" lon="3.06677">
        <ele>65.21</ele>
        <time>2013-12-08T11:17:21Z</time>
      </trkpt>
      <trkpt lat="49.72444" lon="3.06675">
        <ele>65.42</ele>
        <time>2013-12-08T11:17:30Z</time>
      </trkpt>
      <trkpt lat="49.72467" lon="3.06668">
        <ele>65.62</ele>
        <time>2013-12-08T11:17:44Z</time>
      </trkpt>
    </trkseg>
  </trk>
</gpx>